Darstellungsparameter: Aktuell verwendete Einstellungen:
Skalierung der Graphiken ... ?
xyx+y,   Skalierungsfaktor:      Skalierung: Modus: x, Faktor: 1
Darstellungszeitraum ... ?
Vom - - bis: - -   Zeitraum: 08.04.2020 - 21.04.2020
Min/Max/Avg-Anzeige ... ?
Zeige MMA aktuell
Zeige MMA Monat
Zeige MMA alles
Zeige --A aktuell
Zeige --A Monat
Zeige --A alles
Keine MMA-Anzeige
MMA:
Keine MMA-Graphiken
MMA-Basis: 08.04.2020 - 21.04.2020
Quicknavigation für Darstellung... ?
Tage:      1T, 2T, 3T, 5T -1T -2T -3T -5T +1T +2T +3T +5T
Wochen: 1W, 2W, 3W -1W -2W -3W +1W +2W +3W
Monate: 1M, 3M, 6M -1M -3M -6M +1M +3M +6M
Jahre:    1J, 3J, 5J, 10J -1J -3J -5J -10J +1J +3J +5J +10J
Nutze für die Darstellung ... ?
Originaldaten oder Mittelwerte auf ...
Stundenbasis Tagesbasis Wochenbasis
Monatsbasis Jahresbasis      Datenbasis: Original-Daten
Darstellen als:
Statistik (Auto) Statistik J:M      Darstellung:
Zur Graphik,    zurück zur Übersicht aller Sensoren.
 
Tabellarische Datenbersicht: ?
 
Sensor: Nr:Datum:Temp:Feuchte:
Aussen-T/F 1 08-04-2020 00:01:17 11.7 C 33 %
2 08-04-2020 00:11:17 11.7 C 33 %
3 08-04-2020 00:21:17 11.5 C 33 %
4 08-04-2020 00:31:17 11.5 C 33 %
5 08-04-2020 00:41:17 11.2 C 34 %
6 08-04-2020 00:51:18 10.8 C 35 %
7 08-04-2020 01:01:17 10.8 C 36 %
8 08-04-2020 01:11:17 10.9 C 35 %
9 08-04-2020 01:21:17 10.4 C 36 %
10 08-04-2020 01:31:18 10.2 C 36 %
11 08-04-2020 01:41:18 9.9 C 37 %
12 08-04-2020 01:51:17 9.6 C 38 %
13 08-04-2020 02:01:18 9.2 C 38 %
14 08-04-2020 02:11:18 8.7 C 39 %
15 08-04-2020 02:21:17 8.5 C 40 %
16 08-04-2020 02:31:17 8.2 C 40 %
17 08-04-2020 02:41:18 8 C 40 %
18 08-04-2020 02:51:17 7.7 C 41 %
19 08-04-2020 03:01:18 7.4 C 41 %
20 08-04-2020 03:11:18 7.1 C 41 %
21 08-04-2020 03:21:17 7.1 C 42 %
22 08-04-2020 03:31:17 7.1 C 42 %
23 08-04-2020 03:41:17 6.8 C 43 %
24 08-04-2020 03:51:17 6.7 C 43 %
25 08-04-2020 04:01:17 6.6 C 44 %
Sensor: Nr:Datum:Temp:Feuchte:
Aussen-T/F 26 08-04-2020 04:11:18 6.7 C 44 %
27 08-04-2020 04:21:17 6.3 C 44 %
28 08-04-2020 04:31:17 6.3 C 45 %
29 08-04-2020 04:41:17 6.4 C 45 %
30 08-04-2020 04:51:17 6.3 C 45 %
31 08-04-2020 05:01:18 6.1 C 44 %
32 08-04-2020 05:11:18 5.9 C 45 %
33 08-04-2020 05:21:17 5.6 C 45 %
34 08-04-2020 05:31:17 5.4 C 45 %
35 08-04-2020 05:41:18 5.4 C 45 %
36 08-04-2020 05:51:17 5.4 C 46 %
37 08-04-2020 06:01:17 5.3 C 46 %
38 08-04-2020 06:11:17 5.4 C 46 %
39 08-04-2020 06:21:17 5.3 C 46 %
40 08-04-2020 06:31:17 5.3 C 46 %
41 08-04-2020 06:41:17 5.1 C 46 %
42 08-04-2020 06:51:18 5 C 46 %
43 08-04-2020 07:01:18 5 C 46 %
44 08-04-2020 07:11:18 5.1 C 46 %
45 08-04-2020 07:21:17 5.2 C 46 %
46 08-04-2020 07:31:17 5.3 C 46 %
47 08-04-2020 07:41:17 5.4 C 46 %
48 08-04-2020 07:51:17 5.8 C 46 %
49 08-04-2020 08:01:17 5.7 C 46 %
50 08-04-2020 08:11:17 6 C 46 %
Sensor: Nr:Datum:Temp:Feuchte:
Aussen-T/F 51 08-04-2020 08:21:17 6.3 C 46 %
52 08-04-2020 08:31:18 6.3 C 46 %
53 08-04-2020 08:41:18 6.5 C 46 %
54 08-04-2020 08:51:18 6.7 C 46 %
55 08-04-2020 09:01:18 7 C 45 %
56 08-04-2020 09:11:18 7.1 C 45 %
57 08-04-2020 09:21:17 7.6 C 45 %
58 08-04-2020 09:31:17 7.9 C 45 %
59 08-04-2020 09:41:17 8.3 C 45 %
60 08-04-2020 09:51:17 8.7 C 44 %
61 08-04-2020 10:01:17 9.1 C 43 %
62 08-04-2020 10:11:17 9.7 C 43 %
63 08-04-2020 10:21:17 10.2 C 41 %
64 08-04-2020 10:31:18 11 C 40 %
65 08-04-2020 10:41:18 11.8 C 39 %
66 08-04-2020 10:51:18 12.6 C 38 %
67 08-04-2020 11:01:18 13.7 C 36 %
68 08-04-2020 11:11:18 14.5 C 35 %
69 08-04-2020 11:21:17 15.5 C 34 %
70 08-04-2020 11:31:18 16.2 C 32 %
71 08-04-2020 11:41:18 17.6 C 27 %
72 08-04-2020 11:51:17 18.6 C 25 %
73 08-04-2020 12:01:18 19.2 C 22 %
74 08-04-2020 12:11:18 20.1 C 21 %
75 08-04-2020 12:21:17 21.2 C 20 %
Sensor: Nr:Datum:Temp:Feuchte:
Aussen-T/F 76 08-04-2020 12:31:17 22.4 C 20 %
77 08-04-2020 12:41:17 22.9 C 20 %
78 08-04-2020 12:51:17 21.8 C 20 %
79 08-04-2020 13:01:18 22.9 C 20 %
80 08-04-2020 13:11:18 22.4 C 20 %
81 08-04-2020 13:21:17 22.1 C 20 %
82 08-04-2020 13:31:18 22.3 C 20 %
83 08-04-2020 13:41:18 23.3 C 20 %
84 08-04-2020 13:51:17 22.6 C 20 %
85 08-04-2020 14:01:18 23 C 20 %
86 08-04-2020 14:11:18 23.7 C 20 %
87 08-04-2020 14:21:17 24.8 C 20 %
88 08-04-2020 14:31:18 28.3 C 20 %
89 08-04-2020 14:41:18 28.9 C 20 %
90 08-04-2020 14:51:17 28.7 C 20 %
91 08-04-2020 15:01:17 28.7 C 20 %
92 08-04-2020 15:11:17 30.1 C 20 %
93 08-04-2020 15:21:18 29.3 C 20 %
94 08-04-2020 15:31:17 29.5 C 20 %
95 08-04-2020 15:41:17 29.1 C 20 %
96 08-04-2020 15:51:17 32.2 C 20 %
97 08-04-2020 16:01:17 31.1 C 20 %
98 08-04-2020 16:11:17 29.7 C 20 %
99 08-04-2020 16:21:18 30.7 C 20 %
100 08-04-2020 16:31:17 29 C 20 %
Sensor: Nr:Datum:Temp:Feuchte:
Aussen-T/F 101 08-04-2020 16:41:17 32.6 C 20 %
102 08-04-2020 16:51:17 29.7 C 20 %
103 08-04-2020 17:01:17 29.4 C 20 %
104 08-04-2020 17:11:17 29.7 C 20 %
105 08-04-2020 17:21:17 30.1 C 20 %
106 08-04-2020 17:31:17 30.1 C 20 %
107 08-04-2020 17:41:17 29 C 20 %
108 08-04-2020 17:51:17 28.1 C 20 %
109 08-04-2020 18:01:17 26.6 C 20 %
110 08-04-2020 18:11:17 25.2 C 20 %
111 08-04-2020 18:21:17 24.7 C 20 %
112 08-04-2020 18:31:18 24.3 C 20 %
113 08-04-2020 18:41:18 24.1 C 20 %
114 08-04-2020 18:51:17 23.8 C 20 %
115 08-04-2020 19:01:17 23.2 C 20 %
116 08-04-2020 19:11:17 22.6 C 20 %
117 08-04-2020 19:21:17 21.4 C 20 %
118 08-04-2020 19:31:17 20.1 C 20 %
119 08-04-2020 19:41:17 19.7 C 20 %
120 08-04-2020 19:51:17 19.2 C 20 %
121 08-04-2020 20:01:17 18.5 C 20 %
122 08-04-2020 20:11:17 18 C 20 %
123 08-04-2020 20:21:18 17.5 C 20 %
124 08-04-2020 20:31:17 17 C 20 %
125 08-04-2020 20:41:18 16.2 C 20 %
Sensor: Nr:Datum:Temp:Feuchte:
Aussen-T/F 126 08-04-2020 20:51:17 15.6 C 20 %
127 08-04-2020 21:01:18 14.6 C 20 %
128 08-04-2020 21:11:18 13.9 C 20 %
129 08-04-2020 21:21:17 14.2 C 20 %
130 08-04-2020 21:31:17 13.7 C 20 %
131 08-04-2020 21:41:17 13.5 C 20 %
132 08-04-2020 21:51:17 13.4 C 20 %
133 08-04-2020 22:01:17 12.9 C 21 %
134 08-04-2020 22:11:18 12.7 C 21 %
135 08-04-2020 22:21:17 12.5 C 24 %
136 08-04-2020 22:31:17 12.2 C 25 %
137 08-04-2020 22:41:17 11.8 C 26 %
138 08-04-2020 22:51:18 11.6 C 26 %
139 08-04-2020 23:01:17 12 C 25 %
140 08-04-2020 23:11:17 11.5 C 26 %
141 08-04-2020 23:21:17 10.9 C 28 %
142 08-04-2020 23:31:17 10.5 C 29 %
143 08-04-2020 23:41:17 10.7 C 28 %
144 08-04-2020 23:51:17 11.2 C 28 %
145 09-04-2020 00:01:18 10.7 C 29 %
146 09-04-2020 00:11:18 10.7 C 29 %
147 09-04-2020 00:21:17 10.3 C 30 %
148 09-04-2020 00:31:18 10 C 30 %
149 09-04-2020 00:41:18 10.5 C 30 %
150 09-04-2020 00:51:17 10.5 C 30 %
Sensor: Nr:Datum:Temp:Feuchte:
Aussen-T/F 151 09-04-2020 01:01:17 10 C 30 %
152 09-04-2020 01:11:17 9.6 C 31 %
153 09-04-2020 01:21:17 9.2 C 32 %
154 09-04-2020 01:31:17 9.9 C 33 %
155 09-04-2020 01:41:17 9.3 C 33 %
156 09-04-2020 01:51:17 9.6 C 33 %
157 09-04-2020 02:01:17 8.8 C 35 %
158 09-04-2020 02:11:17 9.1 C 34 %
159 09-04-2020 02:21:18 9 C 34 %
160 09-04-2020 02:31:18 8.8 C 35 %
161 09-04-2020 02:41:18 8.7 C 35 %
162 09-04-2020 02:51:17 8.8 C 35 %
163 09-04-2020 03:01:17 9.2 C 34 %
164 09-04-2020 03:11:17 9.7 C 33 %
165 09-04-2020 03:21:17 9.5 C 33 %
166 09-04-2020 03:31:17 9.4 C 34 %
167 09-04-2020 03:41:17 9.5 C 34 %
168 09-04-2020 03:51:17 10.2 C 32 %
169 09-04-2020 04:01:17 9.9 C 34 %
170 09-04-2020 04:11:17 10.1 C 33 %
171 09-04-2020 04:21:17 10 C 33 %
172 09-04-2020 04:31:18 9.4 C 34 %
173 09-04-2020 04:41:18 9.3 C 35 %
174 09-04-2020 04:51:17 8.9 C 35 %
175 09-04-2020 05:01:17 8.7 C 36 %
Sensor: Nr:Datum:Temp:Feuchte:
Aussen-T/F 176 09-04-2020 05:11:17 8.6 C 35 %
177 09-04-2020 05:21:17 8.5 C 36 %
178 09-04-2020 05:31:18 8.2 C 36 %
179 09-04-2020 05:41:18 8.1 C 36 %
180 09-04-2020 05:51:17 8.1 C 37 %
181 09-04-2020 06:01:18 8.1 C 37 %
182 09-04-2020 06:11:18 7.7 C 38 %
183 09-04-2020 06:21:17 7.1 C 38 %
184 09-04-2020 06:31:17 7 C 38 %
185 09-04-2020 06:41:17 6.6 C 39 %
186 09-04-2020 06:51:17 6.8 C 40 %
187 09-04-2020 07:01:17 6.9 C 40 %
188 09-04-2020 07:11:17 7.3 C 39 %
189 09-04-2020 07:21:17 7.3 C 39 %
190 09-04-2020 07:31:17 7 C 39 %
191 09-04-2020 07:41:17 6.9 C 40 %
192 09-04-2020 07:51:17 7 C 40 %
193 09-04-2020 08:01:17 7 C 40 %
194 09-04-2020 08:11:17 7.3 C 40 %
195 09-04-2020 08:21:18 7.4 C 40 %
196 09-04-2020 08:31:17 7.6 C 40 %
197 09-04-2020 08:41:17 8 C 39 %
198 09-04-2020 08:51:17 8.3 C 39 %
199 09-04-2020 09:01:17 8.5 C 38 %
200 09-04-2020 09:11:17 8.7 C 39 %
Sensor: Nr:Datum:Temp:Feuchte:
Aussen-T/F 201 09-04-2020 09:21:17 9 C 38 %
202 09-04-2020 09:31:17 9.3 C 38 %
203 09-04-2020 09:41:17 9.8 C 37 %
204 09-04-2020 09:51:17 10.4 C 36 %
205 09-04-2020 10:01:17 10.8 C 36 %
206 09-04-2020 10:11:17 11.2 C 35 %
207 09-04-2020 10:21:17 11.8 C 35 %
208 09-04-2020 10:31:17 12.6 C 34 %
209 09-04-2020 10:41:17 13.3 C 32 %
210 09-04-2020 10:51:18 14.6 C 31 %
211 09-04-2020 11:01:17 15.4 C 30 %
212 09-04-2020 11:11:18 16.2 C 28 %
213 09-04-2020 11:21:17 17 C 25 %
214 09-04-2020 11:31:17 17.9 C 23 %
215 09-04-2020 11:41:17 18.5 C 21 %
216 09-04-2020 11:51:18 19 C 20 %
217 09-04-2020 12:01:17 19.3 C 20 %
218 09-04-2020 12:11:17 19.8 C 20 %
219 09-04-2020 12:21:17 20.7 C 20 %
220 09-04-2020 12:31:17 22 C 20 %
221 09-04-2020 12:41:17 23 C 20 %
222 09-04-2020 12:51:18 22.3 C 20 %
223 09-04-2020 13:01:17 23.2 C 20 %
224 09-04-2020 13:11:17 23.3 C 20 %
225 09-04-2020 13:21:17 22.9 C 20 %
Sensor: Nr:Datum:Temp:Feuchte:
Aussen-T/F 226 09-04-2020 13:31:17 22.4 C 20 %
227 09-04-2020 13:41:18 22.6 C 20 %
228 09-04-2020 13:51:17 22.8 C 20 %
229 09-04-2020 14:01:17 24.1 C 20 %
230 09-04-2020 14:11:17 23.8 C 20 %
231 09-04-2020 14:21:17 24.3 C 20 %
232 09-04-2020 14:31:17 26.8 C 20 %
233 09-04-2020 14:41:17 28 C 20 %
234 09-04-2020 14:51:17 29.2 C 20 %
235 09-04-2020 15:01:17 28.6 C 20 %
236 09-04-2020 15:11:17 31.7 C 20 %
237 09-04-2020 15:21:17 28.2 C 20 %
238 09-04-2020 15:31:18 28.7 C 20 %
239 09-04-2020 15:41:18 28.4 C 20 %
240 09-04-2020 15:51:17 30.1 C 20 %
241 09-04-2020 16:01:18 29.2 C 20 %
242 09-04-2020 16:11:18 29.3 C 20 %
243 09-04-2020 16:21:17 31.4 C 20 %
244 09-04-2020 16:31:17 28.8 C 20 %
245 09-04-2020 16:41:17 28.8 C 20 %
246 09-04-2020 16:51:17 29.2 C 20 %
247 09-04-2020 17:01:17 28.7 C 20 %
248 09-04-2020 17:11:17 28.4 C 20 %
249 09-04-2020 17:21:17 29.8 C 20 %
250 09-04-2020 17:31:17 28 C 20 %
Sensor: Nr:Datum:Temp:Feuchte:
Aussen-T/F 251 09-04-2020 17:41:17 27.6 C 20 %
252 09-04-2020 17:51:18 27.1 C 20 %
253 09-04-2020 18:01:18 25.2 C 20 %
254 09-04-2020 18:11:18 24 C 20 %
255 09-04-2020 18:21:17 23.7 C 20 %
256 09-04-2020 18:31:17 23.4 C 20 %
257 09-04-2020 18:41:17 23.5 C 20 %
258 09-04-2020 18:51:17 22.9 C 20 %
259 09-04-2020 19:01:18 22.7 C 20 %
260 09-04-2020 19:11:18 22.4 C 20 %
261 09-04-2020 19:21:17 21.8 C 20 %
262 09-04-2020 19:31:17 21.1 C 20 %
263 09-04-2020 19:41:17 20.6 C 20 %
264 09-04-2020 19:51:17 20.1 C 20 %
265 09-04-2020 20:01:17 19.7 C 20 %
266 09-04-2020 20:11:17 17.9 C 20 %
267 09-04-2020 20:21:17 16.6 C 20 %
268 09-04-2020 20:31:17 16.6 C 20 %
269 09-04-2020 20:41:17 16.1 C 21 %
270 09-04-2020 20:51:17 16.4 C 20 %
271 09-04-2020 21:01:17 16.2 C 20 %
272 09-04-2020 21:11:17 16.4 C 20 %
273 09-04-2020 21:21:17 16.5 C 20 %
274 09-04-2020 21:31:17 15.9 C 21 %
275 09-04-2020 21:41:17 15.4 C 22 %
Sensor: Nr:Datum:Temp:Feuchte:
Aussen-T/F 276 09-04-2020 21:51:17 15.5 C 22 %
277 09-04-2020 22:01:17 15.5 C 22 %
278 09-04-2020 22:11:17 15.2 C 22 %
279 09-04-2020 22:21:17 15.1 C 22 %
280 09-04-2020 22:31:18 14.8 C 24 %
281 09-04-2020 22:41:18 14.6 C 25 %
282 09-04-2020 22:51:17 14.3 C 25 %
283 09-04-2020 23:01:18 14.2 C 25 %
284 09-04-2020 23:11:18 14.2 C 25 %
285 09-04-2020 23:21:17 13.6 C 26 %
286 09-04-2020 23:31:17 13.8 C 26 %
287 09-04-2020 23:41:18 13.7 C 26 %
288 09-04-2020 23:51:17 12.7 C 28 %
289 10-04-2020 00:01:17 12.7 C 29 %
290 10-04-2020 00:11:17 11.7 C 31 %
291 10-04-2020 00:21:18 11.8 C 31 %
292 10-04-2020 00:31:18 11.1 C 32 %
293 10-04-2020 00:41:18 10.7 C 34 %
294 10-04-2020 00:51:17 10.5 C 34 %
295 10-04-2020 01:01:17 10.1 C 35 %
296 10-04-2020 01:11:17 10 C 35 %
297 10-04-2020 01:21:17 9.7 C 36 %
298 10-04-2020 01:31:17 9.6 C 36 %
299 10-04-2020 01:41:17 9.5 C 36 %
300 10-04-2020 01:51:17 9 C 36 %
Sensor: Nr:Datum:Temp:Feuchte:
Aussen-T/F 301 10-04-2020 02:01:17 9.2 C 36 %
302 10-04-2020 02:11:17 8.9 C 37 %
303 10-04-2020 02:21:18 8.7 C 37 %
304 10-04-2020 02:31:18 8.6 C 37 %
305 10-04-2020 02:41:18 8.3 C 38 %
306 10-04-2020 02:51:17 8.2 C 38 %
307 10-04-2020 03:01:18 8.3 C 38 %
308 10-04-2020 03:11:18 7.9 C 39 %
309 10-04-2020 03:21:17 7.6 C 39 %
310 10-04-2020 03:31:17 7.4 C 40 %
311 10-04-2020 03:41:17 7.2 C 40 %
312 10-04-2020 03:51:17 7.1 C 40 %
313 10-04-2020 04:01:18 7 C 40 %
314 10-04-2020 04:11:18 6.8 C 41 %
315 10-04-2020 04:21:17 6.9 C 41 %
316 10-04-2020 04:31:17 6.6 C 41 %
317 10-04-2020 04:41:17 6.6 C 41 %
318 10-04-2020 04:51:18 6.6 C 41 %
319 10-04-2020 05:01:17 6.3 C 41 %
320 10-04-2020 05:11:17 6.3 C 42 %
321 10-04-2020 05:21:18 6.4 C 42 %
322 10-04-2020 05:31:17 6.2 C 42 %
323 10-04-2020 05:41:17 5.9 C 43 %
324 10-04-2020 05:51:17 5.7 C 43 %
325 10-04-2020 06:01:17 5.8 C 44 %
Sensor: Nr:Datum:Temp:Feuchte:
Aussen-T/F 326 10-04-2020 06:11:17 5.8 C 44 %
327 10-04-2020 06:21:17 5.6 C 44 %
328 10-04-2020 06:31:18 5.4 C 44 %
329 10-04-2020 06:41:18 5.4 C 44 %
330 10-04-2020 06:51:17 5.4 C 44 %
331 10-04-2020 07:01:18 5.3 C 44 %
332 10-04-2020 07:11:18 5.3 C 45 %
333 10-04-2020 07:21:17 5.3 C 45 %
334 10-04-2020 07:31:18 5.3 C 45 %
335 10-04-2020 07:41:18 5.3 C 45 %
336 10-04-2020 07:51:17 5.9 C 46 %
337 10-04-2020 08:01:17 5.8 C 45 %
338 10-04-2020 08:11:17 5.8 C 45 %
339 10-04-2020 08:21:17 6 C 44 %
340 10-04-2020 08:31:17 6.1 C 45 %
341 10-04-2020 08:41:17 6.2 C 44 %
342 10-04-2020 08:51:17 6.5 C 45 %
343 10-04-2020 09:01:17 6.9 C 45 %
344 10-04-2020 09:11:17 7.8 C 42 %
345 10-04-2020 09:21:18 8.2 C 41 %
346 10-04-2020 09:31:18 8.5 C 40 %
347 10-04-2020 09:41:18 9.1 C 39 %
348 10-04-2020 09:51:17 9.4 C 39 %
349 10-04-2020 10:01:17 9.9 C 38 %
350 10-04-2020 10:11:17 10.2 C 37 %
Sensor: Nr:Datum:Temp:Feuchte:
Aussen-T/F 351 10-04-2020 10:21:17 10.8 C 37 %
352 10-04-2020 10:31:17 11.6 C 36 %
353 10-04-2020 10:41:17 12.3 C 35 %
354 10-04-2020 10:51:17 13.4 C 33 %
355 10-04-2020 11:01:17 14 C 31 %
356 10-04-2020 11:11:17 14.7 C 31 %
357 10-04-2020 11:21:17 15.9 C 28 %
358 10-04-2020 11:31:17 16.3 C 27 %
359 10-04-2020 11:41:17 16.8 C 26 %
360 10-04-2020 11:51:17 17.5 C 25 %
361 10-04-2020 12:01:17 17.9 C 24 %
362 10-04-2020 12:11:17 18.4 C 21 %
363 10-04-2020 12:21:17 19.2 C 20 %
364 10-04-2020 12:31:17 19.7 C 20 %
365 10-04-2020 12:41:17 20.6 C 20 %
366 10-04-2020 12:51:17 20.4 C 20 %
367 10-04-2020 13:01:17 20.8 C 20 %
368 10-04-2020 13:11:17 20.2 C 20 %
369 10-04-2020 13:21:17 20.4 C 20 %
370 10-04-2020 13:31:17 20.2 C 20 %
371 10-04-2020 13:41:17 20.4 C 20 %
372 10-04-2020 13:51:17 20.7 C 20 %
373 10-04-2020 14:01:17 21.7 C 20 %
374 10-04-2020 14:11:17 21.6 C 20 %
375 10-04-2020 14:21:18 22 C 20 %
Sensor: Nr:Datum:Temp:Feuchte:
Aussen-T/F 376 10-04-2020 14:31:18 25.1 C 20 %
377 10-04-2020 14:41:18 29.1 C 20 %
378 10-04-2020 14:51:17 27.6 C 20 %
379 10-04-2020 15:01:17 27.9 C 20 %
380 10-04-2020 15:11:17 31.6 C 20 %
381 10-04-2020 15:21:17 30.1 C 20 %
382 10-04-2020 15:31:17 30.5 C 20 %
383 10-04-2020 15:41:17 30.2 C 20 %
384 10-04-2020 15:51:17 29.1 C 20 %
385 10-04-2020 16:01:17 29.8 C 20 %
386 10-04-2020 16:11:17 30.3 C 20 %
387 10-04-2020 16:21:17 28.8 C 20 %
388 10-04-2020 16:31:17 29.1 C 20 %
389 10-04-2020 16:41:17 28.3 C 20 %
390 10-04-2020 16:51:17 30.8 C 20 %
391 10-04-2020 17:01:17 29.6 C 20 %
392 10-04-2020 17:11:17 28.8 C 20 %
393 10-04-2020 17:21:17 26.8 C 20 %
394 10-04-2020 17:31:17 28.5 C 20 %
395 10-04-2020 17:41:17 27.6 C 20 %
396 10-04-2020 17:51:18 26.4 C 20 %
397 10-04-2020 18:01:17 23.6 C 20 %
398 10-04-2020 18:11:17 23 C 20 %
399 10-04-2020 18:21:18 22.5 C 20 %
400 10-04-2020 18:31:18 22.2 C 20 %
Sensor: Nr:Datum:Temp:Feuchte:
Aussen-T/F 401 10-04-2020 18:41:18 22.3 C 20 %
402 10-04-2020 18:51:17 22 C 20 %
403 10-04-2020 19:01:17 21.6 C 20 %
404 10-04-2020 19:11:17 21.4 C 20 %
405 10-04-2020 19:21:17 21.1 C 20 %
406 10-04-2020 19:31:17 20.9 C 20 %
407 10-04-2020 19:41:17 20.7 C 20 %
408 10-04-2020 19:51:18 20.2 C 20 %
409 10-04-2020 20:01:17 19.6 C 20 %
410 10-04-2020 20:11:17 18.5 C 20 %
411 10-04-2020 20:21:18 16 C 20 %
412 10-04-2020 20:31:17 15.9 C 20 %
413 10-04-2020 20:41:17 15.3 C 20 %
414 10-04-2020 20:51:17 15 C 20 %
415 10-04-2020 21:01:17 15.3 C 20 %
416 10-04-2020 21:11:17 14.7 C 20 %
417 10-04-2020 21:21:17 14.3 C 21 %
418 10-04-2020 21:31:17 13.8 C 21 %
419 10-04-2020 21:41:17 14.2 C 21 %
420 10-04-2020 21:51:17 14.3 C 21 %
421 10-04-2020 22:01:18 14.5 C 21 %
422 10-04-2020 22:11:18 14.9 C 20 %
423 10-04-2020 22:21:18 14.5 C 22 %
424 10-04-2020 22:31:17 14.5 C 22 %
425 10-04-2020 22:41:17 13.9 C 24 %
Sensor: Nr:Datum:Temp:Feuchte:
Aussen-T/F 426 10-04-2020 22:51:17 13.1 C 25 %
427 10-04-2020 23:01:17 12.7 C 25 %
428 10-04-2020 23:11:17 12.8 C 25 %
429 10-04-2020 23:21:17 12 C 26 %
430 10-04-2020 23:31:17 12.2 C 26 %
431 10-04-2020 23:41:17 11.2 C 28 %
432 10-04-2020 23:51:17 11.1 C 29 %
433 11-04-2020 00:01:18 10.5 C 30 %
434 11-04-2020 00:11:18 10.8 C 30 %
435 11-04-2020 00:21:17 10.8 C 30 %
436 11-04-2020 00:31:17 10.1 C 31 %
437 11-04-2020 00:41:18 9.9 C 32 %
438 11-04-2020 00:51:18 10 C 31 %
439 11-04-2020 01:01:17 9.6 C 31 %
440 11-04-2020 01:11:17 9.6 C 32 %
441 11-04-2020 01:21:17 9.1 C 32 %
442 11-04-2020 01:31:18 9.2 C 32 %
443 11-04-2020 01:41:18 9 C 32 %
444 11-04-2020 01:51:18 8.7 C 32 %
445 11-04-2020 02:01:17 8.4 C 32 %
446 11-04-2020 02:11:17 8.2 C 32 %
447 11-04-2020 02:21:18 8.1 C 32 %
448 11-04-2020 02:31:17 8.3 C 32 %
449 11-04-2020 02:41:17 8.1 C 32 %
450 11-04-2020 02:51:17 7.9 C 33 %
Sensor: Nr:Datum:Temp:Feuchte:
Aussen-T/F 451 11-04-2020 03:01:17 8.5 C 31 %
452 11-04-2020 03:11:17 8.7 C 31 %
453 11-04-2020 03:21:17 8.8 C 30 %
454 11-04-2020 03:31:18 8.8 C 30 %
455 11-04-2020 03:41:18 8.2 C 30 %
456 11-04-2020 03:51:17 8.6 C 30 %
457 11-04-2020 04:01:17 8.3 C 30 %
458 11-04-2020 04:11:17 8.3 C 30 %
459 11-04-2020 04:21:17 7.7 C 30 %
460 11-04-2020 04:31:17 7.4 C 30 %
461 11-04-2020 04:41:17 7.5 C 30 %
462 11-04-2020 04:51:17 7.6 C 29 %
463 11-04-2020 05:01:17 7.4 C 29 %
464 11-04-2020 05:11:17 6.9 C 30 %
465 11-04-2020 05:21:17 6.8 C 30 %
466 11-04-2020 05:31:18 6.1 C 31 %
467 11-04-2020 05:41:18 5.8 C 32 %
468 11-04-2020 05:51:17 5.7 C 32 %
469 11-04-2020 06:01:17 5.6 C 32 %
470 11-04-2020 06:11:17 5 C 33 %
471 11-04-2020 06:21:17 4.9 C 35 %
472 11-04-2020 06:31:18 5 C 33 %
473 11-04-2020 06:41:18 4.6 C 35 %
474 11-04-2020 06:51:17 4.6 C 35 %
475 11-04-2020 07:01:18 4.4 C 35 %
Sensor: Nr:Datum:Temp:Feuchte:
Aussen-T/F 476 11-04-2020 07:11:18 4.5 C 35 %
477 11-04-2020 07:21:17 4.4 C 35 %
478 11-04-2020 07:31:18 4.4 C 36 %
479 11-04-2020 07:41:18 4.7 C 35 %
480 11-04-2020 07:51:17 5 C 34 %
481 11-04-2020 08:01:18 5 C 34 %
482 11-04-2020 08:11:18 5 C 35 %
483 11-04-2020 08:21:18 5.1 C 35 %
484 11-04-2020 08:31:18 5.5 C 34 %
485 11-04-2020 08:41:18 6 C 33 %
486 11-04-2020 08:51:18 6.4 C 32 %
487 11-04-2020 09:01:17 6.5 C 33 %
488 11-04-2020 09:11:18 7.1 C 31 %
489 11-04-2020 09:21:17 7.3 C 31 %
490 11-04-2020 09:31:18 7.8 C 31 %
491 11-04-2020 09:41:18 8.2 C 30 %
492 11-04-2020 09:51:17 8.6 C 30 %
493 11-04-2020 10:01:17 9.1 C 29 %
494 11-04-2020 10:11:17 9.5 C 29 %
495 11-04-2020 10:21:17 10.2 C 26 %
496 11-04-2020 10:31:17 10.7 C 27 %
497 11-04-2020 10:41:17 11.5 C 25 %
498 11-04-2020 10:51:17 12.3 C 21 %
499 11-04-2020 11:01:18 12.9 C 20 %
500 11-04-2020 11:11:18 13.7 C 20 %
Sensor: Nr:Datum:Temp:Feuchte:
Aussen-T/F 501 11-04-2020 11:21:17 14.5 C 20 %
502 11-04-2020 11:31:17 15.3 C 20 %
503 11-04-2020 11:41:18 16 C 20 %
504 11-04-2020 11:51:17 16.5 C 20 %
505 11-04-2020 12:01:17 17.2 C 20 %
506 11-04-2020 12:11:17 17.5 C 20 %
507 11-04-2020 12:21:18 18.1 C 20 %
508 11-04-2020 12:31:17 19.1 C 20 %
509 11-04-2020 12:41:17 19.4 C 20 %
510 11-04-2020 12:51:17 19.5 C 20 %
511 11-04-2020 13:01:17 19.6 C 20 %
512 11-04-2020 13:11:17 19.5 C 20 %
513 11-04-2020 13:21:17 19.5 C 20 %
514 11-04-2020 13:31:17 19.6 C 20 %
515 11-04-2020 13:41:17 19.9 C 20 %
516 11-04-2020 13:51:17 20.2 C 20 %
517 11-04-2020 14:01:18 20.9 C 20 %
518 11-04-2020 14:11:18 21.3 C 20 %
519 11-04-2020 14:21:17 21.5 C 20 %
520 11-04-2020 14:31:17 24.4 C 20 %
521 11-04-2020 14:41:17 27.5 C 20 %
522 11-04-2020 14:51:18 27.4 C 20 %
523 11-04-2020 15:01:18 28.6 C 20 %
524 11-04-2020 15:11:18 30.4 C 20 %
525 11-04-2020 15:21:17 29.9 C 20 %
Sensor: Nr:Datum:Temp:Feuchte:
Aussen-T/F 526 11-04-2020 15:31:17 30.4 C 20 %
527 11-04-2020 15:41:17 31.2 C 20 %
528 11-04-2020 15:51:18 31.8 C 20 %
529 11-04-2020 16:01:17 28.5 C 20 %
530 11-04-2020 16:11:17 31.4 C 20 %
531 11-04-2020 16:21:18 30.7 C 20 %
532 11-04-2020 16:31:17 31.5 C 20 %
533 11-04-2020 16:41:17 31.3 C 20 %
534 11-04-2020 16:51:17 32.1 C 20 %
535 11-04-2020 17:01:17 31.8 C 20 %
536 11-04-2020 17:11:17 29.5 C 20 %
537 11-04-2020 17:21:17 29.8 C 20 %
538 11-04-2020 17:31:17 28.7 C 20 %
539 11-04-2020 17:41:17 26.5 C 20 %
540 11-04-2020 17:51:17 27.5 C 20 %
541 11-04-2020 18:01:17 24.2 C 20 %
542 11-04-2020 18:11:17 23.4 C 20 %
543 11-04-2020 18:21:17 23.6 C 20 %
544 11-04-2020 18:31:17 23.6 C 20 %
545 11-04-2020 18:41:17 23.3 C 20 %
546 11-04-2020 18:51:17 22.9 C 20 %
547 11-04-2020 19:01:17 22.9 C 20 %
548 11-04-2020 19:11:17 22.7 C 20 %
549 11-04-2020 19:21:18 22 C 20 %
550 11-04-2020 19:31:17 21.7 C 20 %
Sensor: Nr:Datum:Temp:Feuchte:
Aussen-T/F 551 11-04-2020 19:41:17 21.2 C 20 %
552 11-04-2020 19:51:17 18.9 C 20 %
553 11-04-2020 20:01:17 18 C 20 %
554 11-04-2020 20:11:17 17.1 C 20 %
555 11-04-2020 20:21:17 16.6 C 20 %
556 11-04-2020 20:31:17 16.5 C 20 %
557 11-04-2020 20:41:17 16.5 C 20 %
558 11-04-2020 20:51:17 16.2 C 20 %
559 11-04-2020 21:01:18 16 C 20 %
560 11-04-2020 21:11:18 15.5 C 20 %
561 11-04-2020 21:21:18 15.4 C 20 %
562 11-04-2020 21:31:17 15.1 C 20 %
563 11-04-2020 21:41:17 14.8 C 20 %
564 11-04-2020 21:51:17 14.5 C 20 %
565 11-04-2020 22:01:17 14.3 C 20 %
566 11-04-2020 22:11:17 14.4 C 20 %
567 11-04-2020 22:21:17 14 C 20 %
568 11-04-2020 22:31:18 14 C 21 %
569 11-04-2020 22:41:18 14.4 C 21 %
570 11-04-2020 22:51:17 14.4 C 22 %
571 11-04-2020 23:01:17 13.7 C 23 %
572 11-04-2020 23:11:17 13 C 24 %
573 11-04-2020 23:21:18 12.3 C 26 %
574 11-04-2020 23:31:18 12.1 C 26 %
575 11-04-2020 23:41:18 11.8 C 27 %
Sensor: Nr:Datum:Temp:Feuchte:
Aussen-T/F 576 11-04-2020 23:51:17 11.7 C 28 %
577 12-04-2020 00:01:17 11.6 C 29 %
578 12-04-2020 00:11:17 11.3 C 28 %
579 12-04-2020 00:21:17 11.3 C 29 %
580 12-04-2020 00:31:17 11.5 C 29 %
581 12-04-2020 00:41:17 11.6 C 29 %
582 12-04-2020 00:51:17 11.4 C 28 %
583 12-04-2020 01:01:17 11.3 C 28 %
584 12-04-2020 01:11:17 11 C 28 %
585 12-04-2020 01:21:17 10.6 C 29 %
586 12-04-2020 01:31:18 10.3 C 29 %
587 12-04-2020 01:41:18 10.2 C 30 %
588 12-04-2020 01:51:17 10.6 C 29 %
589 12-04-2020 02:01:18 10.8 C 30 %
590 12-04-2020 02:11:18 10.7 C 31 %
591 12-04-2020 02:21:18 10.3 C 31 %
592 12-04-2020 02:31:17 10.4 C 30 %
593 12-04-2020 02:41:17 10.2 C 31 %
594 12-04-2020 02:51:17 10.1 C 31 %
595 12-04-2020 03:01:17 10.3 C 31 %
596 12-04-2020 03:11:17 10.2 C 31 %
597 12-04-2020 03:21:17 10.1 C 32 %
598 12-04-2020 03:31:17 10 C 32 %
599 12-04-2020 03:41:18 9.9 C 33 %
600 12-04-2020 03:51:17 10 C 32 %
Sensor: Nr:Datum:Temp:Feuchte:
Aussen-T/F 601 12-04-2020 04:01:17 9.8 C 33 %
602 12-04-2020 04:11:17 9.7 C 33 %
603 12-04-2020 04:21:17 8.9 C 35 %
604 12-04-2020 04:31:17 8.8 C 34 %
605 12-04-2020 04:41:17 8.9 C 35 %
606 12-04-2020 04:51:17 8.5 C 35 %
607 12-04-2020 05:01:18 8.2 C 36 %
608 12-04-2020 05:11:18 8.4 C 36 %
609 12-04-2020 05:21:17 8.5 C 36 %
610 12-04-2020 05:31:17 8.2 C 36 %
611 12-04-2020 05:41:17 8 C 36 %
612 12-04-2020 05:51:17 7.6 C 37 %
613 12-04-2020 06:01:17 7.7 C 37 %
614 12-04-2020 06:11:17 7.5 C 38 %
615 12-04-2020 06:21:17 7.2 C 38 %
616 12-04-2020 06:31:17 7.1 C 39 %
617 12-04-2020 06:41:17 7.2 C 39 %
618 12-04-2020 06:51:17 7.3 C 39 %
619 12-04-2020 07:01:17 6.9 C 39 %
620 12-04-2020 07:11:17 6.7 C 40 %
621 12-04-2020 07:21:17 6.5 C 40 %
622 12-04-2020 07:31:17 6.7 C 40 %
623 12-04-2020 07:41:17 7.1 C 40 %
624 12-04-2020 07:51:18 7 C 40 %
625 12-04-2020 08:01:17 7.3 C 40 %
Sensor: Nr:Datum:Temp:Feuchte:
Aussen-T/F 626 12-04-2020 08:11:17 7.5 C 40 %
627 12-04-2020 08:21:17 7.5 C 40 %
628 12-04-2020 08:31:17 7.6 C 40 %
629 12-04-2020 08:41:18 7.9 C 40 %
630 12-04-2020 08:51:17 8.2 C 40 %
631 12-04-2020 09:01:18 8.8 C 39 %
632 12-04-2020 09:11:18 9.2 C 38 %
633 12-04-2020 09:21:17 9.5 C 38 %
634 12-04-2020 09:31:17 10 C 37 %
635 12-04-2020 09:41:17 10.1 C 37 %
636 12-04-2020 09:51:17 11 C 36 %
637 12-04-2020 10:01:17 11.3 C 36 %
638 12-04-2020 10:11:17 11.7 C 35 %
639 12-04-2020 10:21:17 12.2 C 35 %
640 12-04-2020 10:31:18 13.2 C 33 %
641 12-04-2020 10:41:18 14.4 C 31 %
642 12-04-2020 10:51:17 14.9 C 31 %
643 12-04-2020 11:01:17 15.6 C 30 %
644 12-04-2020 11:11:17 17 C 27 %
645 12-04-2020 11:21:17 17.6 C 27 %
646 12-04-2020 11:31:17 18 C 26 %
647 12-04-2020 11:41:17 18.5 C 24 %
648 12-04-2020 11:51:17 19.1 C 20 %
649 12-04-2020 12:01:17 20.6 C 20 %
650 12-04-2020 12:11:17 20.8 C 20 %
Sensor: Nr:Datum:Temp:Feuchte:
Aussen-T/F 651 12-04-2020 12:21:17 21.7 C 20 %
652 12-04-2020 12:31:17 21.6 C 20 %
653 12-04-2020 12:41:17 21.8 C 20 %
654 12-04-2020 12:51:18 21.2 C 20 %
655 12-04-2020 13:01:17 21.7 C 20 %
656 12-04-2020 13:11:17 21.7 C 20 %
657 12-04-2020 13:21:17 22 C 20 %
658 12-04-2020 13:31:17 21.7 C 20 %
659 12-04-2020 13:41:17 22 C 20 %
660 12-04-2020 13:51:17 22.1 C 20 %
661 12-04-2020 14:01:17 22.4 C 20 %
662 12-04-2020 14:11:17 22.8 C 20 %
663 12-04-2020 14:21:17 22.9 C 20 %
664 12-04-2020 14:31:17 26.2 C 20 %
665 12-04-2020 14:41:17 28.6 C 20 %
666 12-04-2020 14:51:17 28.5 C 20 %
667 12-04-2020 15:01:17 30.3 C 20 %
668 12-04-2020 15:11:17 27.7 C 20 %
669 12-04-2020 15:21:17 27.9 C 20 %
670 12-04-2020 15:31:18 30.7 C 20 %
671 12-04-2020 15:41:18 30.5 C 20 %
672 12-04-2020 15:51:18 28.3 C 20 %
673 12-04-2020 16:01:17 30.5 C 20 %
674 12-04-2020 16:11:17 33.2 C 20 %
675 12-04-2020 16:21:17 32.8 C 20 %
Sensor: Nr:Datum:Temp:Feuchte:
Aussen-T/F 676 12-04-2020 16:31:17 27.8 C 20 %
677 12-04-2020 16:41:17 26 C 20 %
678 12-04-2020 16:51:17 24.7 C 20 %
679 12-04-2020 17:01:17 29.6 C 20 %
680 12-04-2020 17:11:18 29.6 C 20 %
681 12-04-2020 17:21:17 29.5 C 20 %
682 12-04-2020 17:31:17 26.5 C 20 %
683 12-04-2020 17:41:17 29.3 C 20 %
684 12-04-2020 17:51:17 29.8 C 20 %
685 12-04-2020 18:01:18 24.6 C 20 %
686 12-04-2020 18:11:18 24 C 20 %
687 12-04-2020 18:21:17 24 C 20 %
688 12-04-2020 18:31:17 23.6 C 20 %
689 12-04-2020 18:41:17 22.9 C 20 %
690 12-04-2020 18:51:17 22.4 C 20 %
691 12-04-2020 19:01:17 22.5 C 20 %
692 12-04-2020 19:11:17 22.4 C 20 %
693 12-04-2020 19:21:17 22 C 20 %
694 12-04-2020 19:31:17 21.6 C 20 %
695 12-04-2020 19:41:17 20.3 C 20 %
696 12-04-2020 19:51:18 19.1 C 20 %
697 12-04-2020 20:01:18 18.2 C 20 %
698 12-04-2020 20:11:18 17.9 C 20 %
699 12-04-2020 20:21:17 17.5 C 20 %
700 12-04-2020 20:31:18 17 C 20 %
Sensor: Nr:Datum:Temp:Feuchte:
Aussen-T/F 701 12-04-2020 20:41:18 16.8 C 20 %
702 12-04-2020 20:51:17 16 C 20 %
703 12-04-2020 21:01:17 15.5 C 20 %
704 12-04-2020 21:11:17 14 C 20 %
705 12-04-2020 21:22:17 13.5 C 20 %
706 12-04-2020 21:31:17 13.2 C 21 %
707 12-04-2020 21:41:17 13.2 C 20 %
708 12-04-2020 21:51:17 13.3 C 21 %
709 12-04-2020 22:01:17 13.4 C 20 %
710 12-04-2020 22:11:17 13 C 21 %
711 12-04-2020 22:22:17 12.9 C 22 %
712 12-04-2020 22:32:17 12.2 C 23 %
713 12-04-2020 22:42:17 11.8 C 26 %
714 12-04-2020 22:51:17 11.7 C 25 %
715 12-04-2020 23:01:18 11.5 C 25 %
716 12-04-2020 23:11:18 11.1 C 26 %
717 12-04-2020 23:21:17 10.9 C 27 %
718 12-04-2020 23:32:17 10.7 C 28 %
719 12-04-2020 23:41:17 10.3 C 28 %
720 12-04-2020 23:52:17 10.5 C 28 %
721 13-04-2020 00:01:17 10.6 C 28 %
722 13-04-2020 00:11:17 10.4 C 29 %
723 13-04-2020 00:21:18 10.4 C 30 %
724 13-04-2020 00:31:17 10.1 C 30 %
725 13-04-2020 00:41:17 9.9 C 31 %
Sensor: Nr:Datum:Temp:Feuchte:
Aussen-T/F 726 13-04-2020 00:51:17 9.7 C 31 %
727 13-04-2020 01:01:18 9.5 C 31 %
728 13-04-2020 01:11:18 9.4 C 32 %
729 13-04-2020 01:21:18 9 C 32 %
730 13-04-2020 01:31:18 9.3 C 32 %
731 13-04-2020 01:41:18 9.2 C 32 %
732 13-04-2020 01:51:18 9.3 C 32 %
733 13-04-2020 02:02:17 9.2 C 32 %
734 13-04-2020 02:12:17 9.2 C 32 %
735 13-04-2020 02:21:17 9.1 C 32 %
736 13-04-2020 02:31:18 9 C 33 %
737 13-04-2020 02:41:18 8.6 C 34 %
738 13-04-2020 02:51:17 8.6 C 34 %
739 13-04-2020 03:01:18 8.4 C 34 %
740 13-04-2020 03:11:18 8.2 C 35 %
741 13-04-2020 03:22:17 7.9 C 35 %
742 13-04-2020 03:32:17 8.1 C 35 %
743 13-04-2020 03:42:17 8 C 35 %
744 13-04-2020 03:51:17 7.8 C 35 %
745 13-04-2020 04:02:17 7.5 C 36 %
746 13-04-2020 04:12:17 7.2 C 36 %
747 13-04-2020 04:21:18 6.8 C 38 %
748 13-04-2020 04:32:17 6.8 C 38 %
749 13-04-2020 04:41:17 6.7 C 39 %
750 13-04-2020 04:52:17 7.7 C 37 %
Sensor: Nr:Datum:Temp:Feuchte:
Aussen-T/F 751 13-04-2020 05:02:17 7.3 C 37 %
752 13-04-2020 05:12:17 7.5 C 38 %
753 13-04-2020 05:22:17 7.8 C 38 %
754 13-04-2020 05:32:17 7.6 C 37 %
755 13-04-2020 05:42:17 7.4 C 37 %
756 13-04-2020 05:52:17 7.2 C 38 %
757 13-04-2020 06:02:17 7.2 C 38 %
758 13-04-2020 06:12:17 6.6 C 39 %
759 13-04-2020 06:22:17 6.2 C 39 %
760 13-04-2020 06:32:17 6.3 C 40 %
761 13-04-2020 06:42:17 6.3 C 40 %
762 13-04-2020 06:52:17 6.4 C 40 %
763 13-04-2020 07:02:17 6.5 C 40 %
764 13-04-2020 07:12:17 7.2 C 39 %
765 13-04-2020 07:22:17 7.6 C 38 %
766 13-04-2020 07:32:17 8.1 C 37 %
767 13-04-2020 07:42:17 8.3 C 37 %
768 13-04-2020 07:52:17 8.5 C 37 %
769 13-04-2020 08:02:17 8.6 C 36 %
770 13-04-2020 08:12:18 8.9 C 36 %
771 13-04-2020 08:22:17 9 C 36 %
772 13-04-2020 08:32:17 9.4 C 36 %
773 13-04-2020 08:42:17 10.7 C 37 %
774 13-04-2020 08:52:17 11.1 C 36 %
775 13-04-2020 09:02:17 10.7 C 37 %
Sensor: Nr:Datum:Temp:Feuchte:
Aussen-T/F 776 13-04-2020 09:12:17 10.7 C 37 %
777 13-04-2020 09:22:17 11 C 36 %
778 13-04-2020 09:32:17 11.5 C 36 %
779 13-04-2020 09:42:17 11.9 C 35 %
780 13-04-2020 09:52:17 11.4 C 35 %
781 13-04-2020 10:02:17 11.2 C 35 %
782 13-04-2020 10:12:17 11.1 C 35 %
783 13-04-2020 10:22:17 11 C 34 %
784 13-04-2020 10:32:17 11.1 C 34 %
785 13-04-2020 10:42:17 11.3 C 34 %
786 13-04-2020 10:52:17 11.6 C 33 %
787 13-04-2020 11:02:17 11.6 C 33 %
788 13-04-2020 11:12:17 11.4 C 32 %
789 13-04-2020 11:22:17 11.8 C 32 %
790 13-04-2020 11:32:17 11.5 C 31 %
791 13-04-2020 11:42:17 11.1 C 31 %
792 13-04-2020 11:52:16 10.8 C 32 %
793 13-04-2020 12:02:17 10.9 C 32 %
794 13-04-2020 12:12:17 10.5 C 33 %
795 13-04-2020 12:22:17 10.4 C 33 %
796 13-04-2020 12:32:17 10.7 C 32 %
797 13-04-2020 12:42:17 11.1 C 32 %
798 13-04-2020 12:52:17 10.6 C 32 %
799 13-04-2020 13:02:16 10.3 C 32 %
800 13-04-2020 13:12:16 10.2 C 32 %
Sensor: Nr:Datum:Temp:Feuchte:
Aussen-T/F 801 13-04-2020 13:22:17 10.2 C 32 %
802 13-04-2020 13:32:17 9.6 C 33 %
803 13-04-2020 13:42:17 8.6 C 35 %
804 13-04-2020 13:52:17 7.6 C 39 %
805 13-04-2020 14:02:17 7.5 C 40 %
806 13-04-2020 14:12:17 7.7 C 38 %
807 13-04-2020 14:22:16 8.7 C 36 %
808 13-04-2020 14:32:17 9.2 C 35 %
809 13-04-2020 14:42:17 9.6 C 34 %
810 13-04-2020 14:52:16 10.9 C 31 %
811 13-04-2020 15:02:17 12.4 C 26 %
812 13-04-2020 15:12:17 12.3 C 25 %
813 13-04-2020 15:22:17 12.7 C 20 %
814 13-04-2020 15:32:17 11.8 C 20 %
815 13-04-2020 15:42:17 12.4 C 20 %
816 13-04-2020 15:52:16 13.2 C 20 %
817 13-04-2020 16:02:16 12.2 C 20 %
818 13-04-2020 16:12:16 14.4 C 20 %
819 13-04-2020 16:22:16 15 C 20 %
820 13-04-2020 16:32:17 16 C 20 %
821 13-04-2020 16:42:17 14.9 C 20 %
822 13-04-2020 16:52:16 16.5 C 20 %
823 13-04-2020 17:02:17 15.2 C 20 %
824 13-04-2020 17:12:17 15.6 C 20 %
825 13-04-2020 17:22:16 15 C 20 %
Sensor: Nr:Datum:Temp:Feuchte:
Aussen-T/F 826 13-04-2020 17:32:16 15 C 20 %
827 13-04-2020 17:42:16 14.5 C 20 %
828 13-04-2020 17:52:16 15.4 C 20 %
829 13-04-2020 18:02:16 13.2 C 20 %
830 13-04-2020 18:12:16 12.5 C 20 %
831 13-04-2020 18:22:17 12.1 C 20 %
832 13-04-2020 18:32:17 11.9 C 20 %
833 13-04-2020 18:42:18 11.1 C 20 %
834 13-04-2020 18:52:16 11.1 C 20 %
835 13-04-2020 19:02:16 10.8 C 20 %
836 13-04-2020 19:12:16 10.5 C 20 %
837 13-04-2020 19:22:16 10.2 C 20 %
838 13-04-2020 19:32:17 10 C 20 %
839 13-04-2020 19:42:17 9.8 C 20 %
840 13-04-2020 19:52:16 9.6 C 20 %
841 13-04-2020 20:02:16 9 C 20 %
842 13-04-2020 20:12:16 8.6 C 20 %
843 13-04-2020 20:22:16 8.5 C 20 %
844 13-04-2020 20:32:16 8.4 C 20 %
845 13-04-2020 20:42:16 8.2 C 20 %
846 13-04-2020 20:52:16 7.5 C 20 %
847 13-04-2020 21:02:16 7.5 C 20 %
848 13-04-2020 21:12:16 7.4 C 20 %
849 13-04-2020 21:22:16 7.3 C 20 %
850 13-04-2020 21:32:17 7.2 C 20 %
Sensor: Nr:Datum:Temp:Feuchte:
Aussen-T/F 851 13-04-2020 21:42:17 6.7 C 20 %
852 13-04-2020 21:52:16 6.5 C 20 %
853 13-04-2020 22:02:16 6.1 C 20 %
854 13-04-2020 22:12:16 5.5 C 20 %
855 13-04-2020 22:22:16 5.1 C 20 %
856 13-04-2020 22:32:16 4.6 C 23 %
857 13-04-2020 22:42:16 4.4 C 25 %
858 13-04-2020 22:52:16 4.1 C 25 %
859 13-04-2020 23:02:16 3.9 C 26 %
860 13-04-2020 23:12:16 3.8 C 27 %
861 13-04-2020 23:22:16 3.5 C 30 %
862 13-04-2020 23:32:17 3.3 C 29 %
863 13-04-2020 23:42:17 4 C 26 %
864 13-04-2020 23:52:16 4 C 25 %
865 14-04-2020 00:02:16 3.3 C 28 %
866 14-04-2020 00:12:16 4.1 C 25 %
867 14-04-2020 00:22:16 3.2 C 27 %
868 14-04-2020 00:32:16 3.3 C 27 %
869 14-04-2020 00:42:16 2.8 C 29 %
870 14-04-2020 00:52:16 2.9 C 29 %
871 14-04-2020 01:02:16 3.1 C 27 %
872 14-04-2020 01:12:16 3.4 C 27 %
873 14-04-2020 01:22:16 2.8 C 28 %
874 14-04-2020 01:32:16 2.1 C 30 %
875 14-04-2020 01:42:16 1.9 C 33 %
Sensor: Nr:Datum:Temp:Feuchte:
Aussen-T/F 876 14-04-2020 01:52:16 1.2 C 35 %
877 14-04-2020 02:02:16 1.6 C 35 %
878 14-04-2020 02:12:16 1.3 C 35 %
879 14-04-2020 02:22:16 0.9 C 36 %
880 14-04-2020 02:32:16 0.8 C 36 %
881 14-04-2020 02:42:16 1.1 C 35 %
882 14-04-2020 02:52:18 1 C 35 %
883 14-04-2020 03:02:18 1.1 C 35 %
884 14-04-2020 03:12:18 1.1 C 35 %
885 14-04-2020 03:22:17 0.7 C 36 %
886 14-04-2020 03:32:18 1.1 C 36 %
887 14-04-2020 03:42:18 0.9 C 36 %
888 14-04-2020 03:52:17 1 C 35 %
889 14-04-2020 04:02:18 0.9 C 36 %
890 14-04-2020 04:12:18 0.9 C 36 %
891 14-04-2020 04:22:17 0.6 C 36 %
892 14-04-2020 04:32:17 0.7 C 36 %
893 14-04-2020 04:42:17 0.7 C 36 %
894 14-04-2020 04:52:18 0.6 C 36 %
895 14-04-2020 05:02:17 0 C 37 %
896 14-04-2020 05:12:17 0 C 38 %
897 14-04-2020 05:22:17 0.6 C 38 %
898 14-04-2020 05:32:17 0.6 C 39 %
899 14-04-2020 05:42:17 0.7 C 39 %
900 14-04-2020 05:52:17 0 C 39 %
Sensor: Nr:Datum:Temp:Feuchte:
Aussen-T/F 901 14-04-2020 06:02:17 -0.2 C 40 %
902 14-04-2020 06:12:17 -0.7 C 41 %
903 14-04-2020 06:22:17 -0.9 C 41 %
904 14-04-2020 06:32:17 -0.4 C 41 %
905 14-04-2020 06:42:17 -0.1 C 41 %
906 14-04-2020 06:52:17 0.5 C 41 %
907 14-04-2020 07:02:17 0.7 C 41 %
908 14-04-2020 07:12:17 1.1 C 40 %
909 14-04-2020 07:22:17 1.3 C 39 %
910 14-04-2020 07:32:17 1.6 C 39 %
911 14-04-2020 07:42:17 1.8 C 39 %
912 14-04-2020 07:52:18 2.1 C 37 %
913 14-04-2020 08:02:17 2.2 C 38 %
914 14-04-2020 08:12:17 2.3 C 37 %
915 14-04-2020 08:22:18 1.7 C 39 %
916 14-04-2020 08:32:17 1.7 C 40 %
917 14-04-2020 08:42:17 2.2 C 38 %
918 14-04-2020 08:52:17 2.4 C 38 %
919 14-04-2020 09:02:18 3 C 37 %
920 14-04-2020 09:12:18 3.8 C 36 %
921 14-04-2020 09:22:17 4.7 C 34 %
922 14-04-2020 09:32:18 5.7 C 32 %
923 14-04-2020 09:42:18 5.3 C 31 %
924 14-04-2020 09:52:17 6 C 31 %
925 14-04-2020 10:02:17 6.6 C 30 %
Sensor: Nr:Datum:Temp:Feuchte:
Aussen-T/F 926 14-04-2020 10:12:17 5.8 C 30 %
927 14-04-2020 10:22:17 5.9 C 30 %
928 14-04-2020 10:32:17 6.7 C 30 %
929 14-04-2020 10:42:17 7.4 C 26 %
930 14-04-2020 10:52:18 8.4 C 23 %
931 14-04-2020 11:02:17 8.2 C 21 %
932 14-04-2020 11:12:17 8 C 20 %
933 14-04-2020 11:22:17 7.9 C 20 %
934 14-04-2020 11:32:17 8.2 C 20 %
935 14-04-2020 11:42:17 9.1 C 20 %
936 14-04-2020 11:52:18 8.4 C 20 %
937 14-04-2020 12:02:17 8.5 C 20 %
938 14-04-2020 12:12:17 8.6 C 20 %
939 14-04-2020 12:22:17 8.9 C 20 %
940 14-04-2020 12:32:17 8.6 C 20 %
941 14-04-2020 12:42:17 9.8 C 20 %
942 14-04-2020 12:52:17 10.6 C 20 %
943 14-04-2020 13:02:18 10.2 C 20 %
944 14-04-2020 13:12:18 10 C 20 %
945 14-04-2020 13:22:17 10.4 C 20 %
946 14-04-2020 13:32:17 10.7 C 20 %
947 14-04-2020 13:42:17 10 C 20 %
948 14-04-2020 13:52:18 9.5 C 20 %
949 14-04-2020 14:02:17 9.8 C 20 %
950 14-04-2020 14:12:18 10.3 C 20 %
Sensor: Nr:Datum:Temp:Feuchte:
Aussen-T/F 951 14-04-2020 14:22:18 11.8 C 20 %
952 14-04-2020 14:32:18 14.5 C 20 %
953 14-04-2020 14:42:18 17.4 C 20 %
954 14-04-2020 14:52:17 16.8 C 20 %
955 14-04-2020 15:02:17 17.6 C 20 %
956 14-04-2020 15:12:18 21 C 20 %
957 14-04-2020 15:22:17 14.7 C 20 %
958 14-04-2020 15:32:17 16.7 C 20 %
959 14-04-2020 15:42:17 14 C 20 %
960 14-04-2020 15:52:17 14 C 20 %
961 14-04-2020 16:02:17 15 C 20 %
962 14-04-2020 16:12:17 17.2 C 20 %
963 14-04-2020 16:22:17 17.7 C 20 %
964 14-04-2020 16:32:18 16.3 C 20 %
965 14-04-2020 16:42:18 14 C 20 %
966 14-04-2020 16:52:17 14.5 C 20 %
967 14-04-2020 17:02:18 12.2 C 20 %
968 14-04-2020 17:12:18 14.2 C 20 %
969 14-04-2020 17:22:17 19.2 C 20 %
970 14-04-2020 17:32:17 16.8 C 20 %
971 14-04-2020 17:42:18 15.5 C 20 %
972 14-04-2020 17:52:17 16 C 20 %
973 14-04-2020 18:02:18 13.4 C 20 %
974 14-04-2020 18:12:18 12.4 C 20 %
975 14-04-2020 18:22:17 12.1 C 20 %
Sensor: Nr:Datum:Temp:Feuchte:
Aussen-T/F 976 14-04-2020 18:32:18 11.9 C 20 %
977 14-04-2020 18:42:18 11.7 C 20 %
978 14-04-2020 18:52:17 11.3 C 20 %
979 14-04-2020 19:02:17 11.2 C 20 %
980 14-04-2020 19:12:18 11 C 20 %
981 14-04-2020 19:22:18 10.6 C 20 %
982 14-04-2020 19:32:18 10.3 C 20 %
983 14-04-2020 19:42:18 10.1 C 20 %
984 14-04-2020 19:52:17 9.7 C 20 %
985 14-04-2020 20:02:17 9.3 C 20 %
986 14-04-2020 20:12:17 8.9 C 20 %
987 14-04-2020 20:22:17 7.7 C 20 %
988 14-04-2020 20:32:17 7 C 23 %
989 14-04-2020 20:42:18 6.7 C 25 %
990 14-04-2020 20:52:17 6.8 C 25 %
991 14-04-2020 21:02:17 6.5 C 25 %
992 14-04-2020 21:12:17 6.3 C 25 %
993 14-04-2020 21:22:17 6 C 26 %
994 14-04-2020 21:32:17 6.1 C 26 %
995 14-04-2020 21:42:17 5.8 C 27 %
996 14-04-2020 21:52:17 5.6 C 27 %
997 14-04-2020 22:02:18 5.6 C 27 %
998 14-04-2020 22:12:18 5.1 C 29 %
999 14-04-2020 22:22:17 5.2 C 28 %
1000 14-04-2020 22:32:18 5 C 29 %
Sensor: Nr:Datum:Temp:Feuchte:
Aussen-T/F 1001 14-04-2020 22:42:18 4.7 C 30 %
1002 14-04-2020 22:52:18 4.7 C 30 %
1003 14-04-2020 23:02:18 4.3 C 32 %
1004 14-04-2020 23:12:18 3.6 C 34 %
1005 14-04-2020 23:22:17 3.2 C 35 %
1006 14-04-2020 23:32:17 3 C 35 %
1007 14-04-2020 23:42:17 2.8 C 36 %
1008 14-04-2020 23:52:17 2.6 C 36 %
1009 15-04-2020 00:02:18 2.4 C 37 %
1010 15-04-2020 00:12:18 2.1 C 37 %
1011 15-04-2020 00:22:17 1.7 C 39 %
1012 15-04-2020 00:32:18 1.6 C 39 %
1013 15-04-2020 00:42:18 1.6 C 40 %
1014 15-04-2020 00:52:17 1.6 C 39 %
1015 15-04-2020 01:02:17 1.5 C 40 %
1016 15-04-2020 01:12:17 1.3 C 40 %
1017 15-04-2020 01:22:17 1.2 C 40 %
1018 15-04-2020 01:32:17 1.3 C 40 %
1019 15-04-2020 01:42:17 1.2 C 40 %
1020 15-04-2020 01:52:17 1 C 40 %
1021 15-04-2020 02:02:17 0.8 C 41 %
1022 15-04-2020 02:12:17 0.8 C 42 %
1023 15-04-2020 02:22:17 0.8 C 42 %
1024 15-04-2020 02:32:17 0.7 C 42 %
1025 15-04-2020 02:42:17 0.6 C 42 %
Sensor: Nr:Datum:Temp:Feuchte:
Aussen-T/F 1026 15-04-2020 02:52:17 0.1 C 42 %
1027 15-04-2020 03:02:17 0.2 C 43 %
1028 15-04-2020 03:12:17 0.3 C 43 %
1029 15-04-2020 03:22:17 0.2 C 43 %
1030 15-04-2020 03:32:18 0.5 C 43 %
1031 15-04-2020 03:42:18 0.1 C 43 %
1032 15-04-2020 03:52:18 0 C 43 %
1033 15-04-2020 04:02:18 0.2 C 43 %
1034 15-04-2020 04:12:18 -0.2 C 43 %
1035 15-04-2020 04:22:17 0 C 44 %
1036 15-04-2020 04:32:18 -0.2 C 43 %
1037 15-04-2020 04:42:18 -0.3 C 44 %
1038 15-04-2020 04:52:17 -0.4 C 44 %
1039 15-04-2020 05:02:18 -0.4 C 44 %
1040 15-04-2020 05:12:18 -0.3 C 44 %
1041 15-04-2020 05:22:17 -0.4 C 45 %
1042 15-04-2020 05:32:17 -0.5 C 45 %
1043 15-04-2020 05:42:17 -0.4 C 45 %
1044 15-04-2020 05:52:17 -0.7 C 45 %
1045 15-04-2020 06:02:17 -0.7 C 45 %
1046 15-04-2020 06:12:17 -0.7 C 45 %
1047 15-04-2020 06:22:17 -0.7 C 45 %
1048 15-04-2020 06:32:17 -0.6 C 45 %
1049 15-04-2020 06:42:17 -0.7 C 45 %
1050 15-04-2020 06:52:17 -0.9 C 45 %
Sensor: Nr:Datum:Temp:Feuchte:
Aussen-T/F 1051 15-04-2020 07:02:17 -0.7 C 45 %
1052 15-04-2020 07:12:17 -0.6 C 45 %
1053 15-04-2020 07:22:17 -0.5 C 45 %
1054 15-04-2020 07:32:17 -0.1 C 46 %
1055 15-04-2020 07:42:17 0.1 C 45 %
1056 15-04-2020 07:52:18 0.4 C 45 %
1057 15-04-2020 08:02:17 0.7 C 45 %
1058 15-04-2020 08:12:17 1 C 43 %
1059 15-04-2020 08:22:18 1.4 C 42 %
1060 15-04-2020 08:32:18 1.6 C 41 %
1061 15-04-2020 08:42:18 1.9 C 41 %
1062 15-04-2020 08:52:18 2.4 C 40 %
1063 15-04-2020 09:02:17 2.8 C 40 %
1064 15-04-2020 09:12:17 3 C 38 %
1065 15-04-2020 09:22:18 3.4 C 38 %
1066 15-04-2020 09:32:18 3.5 C 37 %
1067 15-04-2020 09:42:18 4.2 C 36 %
1068 15-04-2020 09:52:17 4.4 C 36 %
1069 15-04-2020 10:02:18 4.9 C 35 %
1070 15-04-2020 10:12:18 5.4 C 35 %
1071 15-04-2020 10:22:18 6.2 C 34 %
1072 15-04-2020 10:32:18 6.9 C 33 %
1073 15-04-2020 10:42:18 7.4 C 31 %
1074 15-04-2020 10:52:18 8.1 C 30 %
1075 15-04-2020 11:02:17 8.5 C 30 %
Sensor: Nr:Datum:Temp:Feuchte:
Aussen-T/F 1076 15-04-2020 11:12:17 9.2 C 29 %
1077 15-04-2020 11:22:18 9.9 C 28 %
1078 15-04-2020 11:32:17 10.4 C 26 %
1079 15-04-2020 11:42:17 11 C 22 %
1080 15-04-2020 11:52:18 11.6 C 20 %
1081 15-04-2020 12:02:17 12.3 C 20 %
1082 15-04-2020 12:12:17 12.2 C 20 %
1083 15-04-2020 12:22:18 13.3 C 20 %
1084 15-04-2020 12:32:18 13.2 C 20 %
1085 15-04-2020 12:42:18 13.3 C 20 %
1086 15-04-2020 12:52:17 13.2 C 20 %
1087 15-04-2020 13:02:17 13.4 C 20 %
1088 15-04-2020 13:12:17 13.5 C 20 %
1089 15-04-2020 13:22:18 13.4 C 20 %
1090 15-04-2020 13:32:18 14.2 C 20 %
1091 15-04-2020 13:42:18 14.4 C 20 %
1092 15-04-2020 13:52:17 14.7 C 20 %
1093 15-04-2020 14:02:17 15.2 C 20 %
1094 15-04-2020 14:12:17 15.5 C 20 %
1095 15-04-2020 14:22:17 16.9 C 20 %
1096 15-04-2020 14:32:17 21.6 C 20 %
1097 15-04-2020 14:42:17 23.9 C 20 %
1098 15-04-2020 14:52:17 25.2 C 20 %
1099 15-04-2020 15:02:18 24.8 C 20 %
1100 15-04-2020 15:12:18 23.5 C 20 %
Sensor: Nr:Datum:Temp:Feuchte:
Aussen-T/F 1101 15-04-2020 15:22:18 24.4 C 20 %
1102 15-04-2020 15:32:18 23.9 C 20 %
1103 15-04-2020 15:42:18 24.5 C 20 %
1104 15-04-2020 15:52:17 24.4 C 20 %
1105 15-04-2020 16:02:18 24.8 C 20 %
1106 15-04-2020 16:12:18 24.6 C 20 %
1107 15-04-2020 16:22:17 23.3 C 20 %
1108 15-04-2020 16:32:18 23.7 C 20 %
1109 15-04-2020 16:42:18 25.4 C 20 %
1110 15-04-2020 16:52:18 25.9 C 20 %
1111 15-04-2020 17:02:17 25.4 C 20 %
1112 15-04-2020 17:12:17 26.8 C 20 %
1113 15-04-2020 17:22:18 24.8 C 20 %
1114 15-04-2020 17:32:17 24 C 20 %
1115 15-04-2020 17:42:17 22.4 C 20 %
1116 15-04-2020 17:52:18 24.4 C 20 %
1117 15-04-2020 18:02:18 20.6 C 20 %
1118 15-04-2020 18:12:18 20.2 C 20 %
1119 15-04-2020 18:22:18 19.7 C 20 %
1120 15-04-2020 18:32:18 19.1 C 20 %
1121 15-04-2020 18:42:18 19.4 C 20 %
1122 15-04-2020 18:52:17 19.4 C 20 %
1123 15-04-2020 19:02:17 18.8 C 20 %
1124 15-04-2020 19:12:17 18.7 C 20 %
1125 15-04-2020 19:22:17 18.2 C 20 %
Sensor: Nr:Datum:Temp:Feuchte:
Aussen-T/F 1126 15-04-2020 19:32:17 18 C 20 %
1127 15-04-2020 19:42:18 17.3 C 20 %
1128 15-04-2020 19:52:17 15.3 C 20 %
1129 15-04-2020 20:02:18 14 C 20 %
1130 15-04-2020 20:12:18 13.6 C 20 %
1131 15-04-2020 20:22:18 13.4 C 20 %
1132 15-04-2020 20:32:17 13.1 C 20 %
1133 15-04-2020 20:42:18 12.7 C 20 %
1134 15-04-2020 20:52:17 12 C 20 %
1135 15-04-2020 21:02:18 12 C 20 %
1136 15-04-2020 21:12:18 11 C 20 %
1137 15-04-2020 21:22:17 11 C 20 %
1138 15-04-2020 21:32:17 10.5 C 20 %
1139 15-04-2020 21:42:17 9.4 C 25 %
1140 15-04-2020 21:52:17 9 C 26 %
1141 15-04-2020 22:02:17 8.9 C 27 %
1142 15-04-2020 22:12:17 8.6 C 28 %
1143 15-04-2020 22:22:17 8.8 C 28 %
1144 15-04-2020 22:32:18 8.1 C 28 %
1145 15-04-2020 22:42:18 7.7 C 29 %
1146 15-04-2020 22:52:17 7.3 C 30 %
1147 15-04-2020 23:02:17 7.1 C 30 %
1148 15-04-2020 23:12:17 7.2 C 30 %
1149 15-04-2020 23:22:17 7 C 30 %
1150 15-04-2020 23:32:17 6.6 C 31 %
Sensor: Nr:Datum:Temp:Feuchte:
Aussen-T/F 1151 15-04-2020 23:42:18 6.4 C 32 %
1152 15-04-2020 23:52:17 6.2 C 32 %
1153 16-04-2020 00:02:17 6.2 C 32 %
1154 16-04-2020 00:12:17 6 C 33 %
1155 16-04-2020 00:22:17 5.8 C 34 %
1156 16-04-2020 00:32:18 5.5 C 35 %
1157 16-04-2020 00:42:18 5.3 C 35 %
1158 16-04-2020 00:52:17 5.2 C 35 %
1159 16-04-2020 01:02:17 4.8 C 35 %
1160 16-04-2020 01:12:17 4.8 C 35 %
1161 16-04-2020 01:22:17 5.1 C 35 %
1162 16-04-2020 01:32:18 5.1 C 35 %
1163 16-04-2020 01:42:18 4.7 C 36 %
1164 16-04-2020 01:52:17 4.8 C 36 %
1165 16-04-2020 02:02:18 4.6 C 36 %
1166 16-04-2020 02:12:18 4.3 C 36 %
1167 16-04-2020 02:22:18 3.9 C 38 %
1168 16-04-2020 02:32:17 4.1 C 38 %
1169 16-04-2020 02:42:17 4 C 38 %
1170 16-04-2020 02:52:17 3.7 C 39 %
1171 16-04-2020 03:02:17 3.6 C 40 %
1172 16-04-2020 03:12:17 3.6 C 39 %
1173 16-04-2020 03:22:17 3.5 C 39 %
1174 16-04-2020 03:32:17 3.3 C 39 %
1175 16-04-2020 03:42:17 3 C 40 %
Sensor: Nr:Datum:Temp:Feuchte:
Aussen-T/F 1176 16-04-2020 03:52:17 2.9 C 41 %
1177 16-04-2020 04:02:17 3.2 C 40 %
1178 16-04-2020 04:12:17 3.2 C 40 %
1179 16-04-2020 04:22:17 2.7 C 41 %
1180 16-04-2020 04:32:18 2.6 C 41 %
1181 16-04-2020 04:42:18 3 C 41 %
1182 16-04-2020 04:52:17 2.6 C 42 %
1183 16-04-2020 05:02:17 2.7 C 42 %
1184 16-04-2020 05:12:17 2.7 C 42 %
1185 16-04-2020 05:22:17 2.6 C 42 %
1186 16-04-2020 05:32:17 2.3 C 42 %
1187 16-04-2020 05:42:17 2 C 42 %
1188 16-04-2020 05:52:17 2.1 C 43 %
1189 16-04-2020 06:02:18 2.4 C 43 %
1190 16-04-2020 06:12:18 2 C 42 %
1191 16-04-2020 06:22:17 1.6 C 44 %
1192 16-04-2020 06:32:17 1.4 C 44 %
1193 16-04-2020 06:42:17 1.8 C 45 %
1194 16-04-2020 06:52:17 1.8 C 45 %
1195 16-04-2020 07:02:17 1.8 C 45 %
1196 16-04-2020 07:12:17 1.8 C 45 %
1197 16-04-2020 07:22:17 2.2 C 44 %
1198 16-04-2020 07:32:17 2.1 C 44 %
1199 16-04-2020 07:42:17 2.1 C 44 %
1200 16-04-2020 07:52:17 2.5 C 44 %
Sensor: Nr:Datum:Temp:Feuchte:
Aussen-T/F 1201 16-04-2020 08:02:17 2.5 C 44 %
1202 16-04-2020 08:12:17 2.6 C 44 %
1203 16-04-2020 08:22:17 3 C 43 %
1204 16-04-2020 08:32:18 3.2 C 42 %
1205 16-04-2020 08:42:18 3.5 C 42 %
1206 16-04-2020 08:52:17 3.6 C 41 %
1207 16-04-2020 09:02:18 3.9 C 41 %
1208 16-04-2020 09:12:18 4.2 C 41 %
1209 16-04-2020 09:22:17 4.5 C 40 %
1210 16-04-2020 09:32:17 5.1 C 40 %
1211 16-04-2020 09:42:17 5.8 C 39 %
1212 16-04-2020 09:52:17 6.6 C 37 %
1213 16-04-2020 10:02:18 7 C 36 %
1214 16-04-2020 10:12:18 7.5 C 36 %
1215 16-04-2020 10:22:17 8.1 C 35 %
1216 16-04-2020 10:32:17 9.4 C 34 %
1217 16-04-2020 10:42:18 10.4 C 31 %
1218 16-04-2020 10:52:17 11.2 C 30 %
1219 16-04-2020 11:02:18 12.2 C 29 %
1220 16-04-2020 11:12:18 14.2 C 25 %
1221 16-04-2020 11:22:17 15.5 C 20 %
1222 16-04-2020 11:32:17 16.8 C 20 %
1223 16-04-2020 11:42:17 17.6 C 20 %
1224 16-04-2020 11:52:17 18 C 20 %
1225 16-04-2020 12:02:18 18.4 C 20 %
Sensor: Nr:Datum:Temp:Feuchte:
Aussen-T/F 1226 16-04-2020 12:12:18 18.7 C 20 %
1227 16-04-2020 12:22:17 19.1 C 20 %
1228 16-04-2020 12:32:18 19.3 C 20 %
1229 16-04-2020 12:42:18 19.5 C 20 %
1230 16-04-2020 12:52:17 19.6 C 20 %
1231 16-04-2020 13:02:18 20.1 C 20 %
1232 16-04-2020 13:12:18 20.5 C 20 %
1233 16-04-2020 13:22:17 20.8 C 20 %
1234 16-04-2020 13:32:18 21.1 C 20 %
1235 16-04-2020 13:42:18 21.5 C 20 %
1236 16-04-2020 13:52:17 21.7 C 20 %
1237 16-04-2020 14:02:17 22 C 20 %
1238 16-04-2020 14:12:17 22.4 C 20 %
1239 16-04-2020 14:22:17 22.8 C 20 %
1240 16-04-2020 14:32:17 26.2 C 20 %
1241 16-04-2020 14:42:17 28 C 20 %
1242 16-04-2020 14:52:17 29.6 C 20 %
1243 16-04-2020 15:02:17 29.8 C 20 %
1244 16-04-2020 15:12:17 29.5 C 20 %
1245 16-04-2020 15:22:17 28.5 C 20 %
1246 16-04-2020 15:32:18 30.1 C 20 %
1247 16-04-2020 15:42:18 25.8 C 20 %
1248 16-04-2020 15:52:17 27.1 C 20 %
1249 16-04-2020 16:02:17 29.5 C 20 %
1250 16-04-2020 16:12:17 28.4 C 20 %
Sensor: Nr:Datum:Temp:Feuchte:
Aussen-T/F 1251 16-04-2020 16:22:17 26.5 C 20 %
1252 16-04-2020 16:32:17 26.6 C 20 %
1253 16-04-2020 16:42:18 27.2 C 20 %
1254 16-04-2020 16:52:17 24.9 C 20 %
1255 16-04-2020 17:02:17 25 C 20 %
1256 16-04-2020 17:12:17 26.1 C 20 %
1257 16-04-2020 17:22:18 28.3 C 20 %
1258 16-04-2020 17:32:17 27.6 C 20 %
1259 16-04-2020 17:42:17 27.3 C 20 %
1260 16-04-2020 17:52:17 26.5 C 20 %
1261 16-04-2020 18:02:17 25.6 C 20 %
1262 16-04-2020 18:12:17 24.3 C 20 %
1263 16-04-2020 18:22:17 24.4 C 20 %
1264 16-04-2020 18:32:17 24.2 C 20 %
1265 16-04-2020 18:42:17 23.9 C 20 %
1266 16-04-2020 18:52:17 24 C 20 %
1267 16-04-2020 19:02:17 23.2 C 20 %
1268 16-04-2020 19:12:17 22.9 C 20 %
1269 16-04-2020 19:22:17 22.2 C 20 %
1270 16-04-2020 19:32:18 21.9 C 20 %
1271 16-04-2020 19:42:18 21.2 C 20 %
1272 16-04-2020 19:52:17 20.5 C 20 %
1273 16-04-2020 20:02:17 19.5 C 20 %
1274 16-04-2020 20:12:17 19.2 C 20 %
1275 16-04-2020 20:22:17 19.3 C 20 %
Sensor: Nr:Datum:Temp:Feuchte:
Aussen-T/F 1276 16-04-2020 20:32:18 19.1 C 20 %
1277 16-04-2020 20:42:18 18.9 C 20 %
1278 16-04-2020 20:52:18 18.5 C 20 %
1279 16-04-2020 21:02:17 17.9 C 20 %
1280 16-04-2020 21:12:17 16.5 C 20 %
1281 16-04-2020 21:22:17 16.1 C 20 %
1282 16-04-2020 21:32:18 15.5 C 20 %
1283 16-04-2020 21:42:18 14.7 C 21 %
1284 16-04-2020 21:52:17 14.4 C 22 %
1285 16-04-2020 22:02:17 14.5 C 22 %
1286 16-04-2020 22:12:17 13.5 C 25 %
1287 16-04-2020 22:22:17 14.1 C 25 %
1288 16-04-2020 22:32:17 13.8 C 25 %
1289 16-04-2020 22:42:18 13.1 C 26 %
1290 16-04-2020 22:52:17 12.4 C 28 %
1291 16-04-2020 23:02:17 12.5 C 29 %
1292 16-04-2020 23:12:17 12.2 C 30 %
1293 16-04-2020 23:22:17 11.7 C 30 %
1294 16-04-2020 23:32:18 11.6 C 31 %
1295 16-04-2020 23:42:18 11.6 C 31 %
1296 16-04-2020 23:52:17 11.8 C 31 %
1297 17-04-2020 00:02:18 11.4 C 31 %
1298 17-04-2020 00:12:18 11 C 31 %
1299 17-04-2020 00:22:17 11 C 32 %
1300 17-04-2020 00:32:17 11 C 32 %
Sensor: Nr:Datum:Temp:Feuchte:
Aussen-T/F 1301 17-04-2020 00:42:17 11 C 32 %
1302 17-04-2020 00:52:18 10.4 C 33 %
1303 17-04-2020 01:02:17 10.1 C 34 %
1304 17-04-2020 01:12:18 10.1 C 34 %
1305 17-04-2020 01:22:18 9.8 C 35 %
1306 17-04-2020 01:32:18 10 C 35 %
1307 17-04-2020 01:42:18 10 C 35 %
1308 17-04-2020 01:52:17 9.5 C 36 %
1309 17-04-2020 02:02:17 9.7 C 36 %
1310 17-04-2020 02:12:17 9.6 C 36 %
1311 17-04-2020 02:22:17 9.1 C 36 %
1312 17-04-2020 02:32:17 8.9 C 37 %
1313 17-04-2020 02:42:17 8.5 C 38 %
1314 17-04-2020 02:52:17 8.1 C 38 %
1315 17-04-2020 03:02:17 7.9 C 39 %
1316 17-04-2020 03:12:18 7.9 C 40 %
1317 17-04-2020 03:22:18 7.8 C 40 %
1318 17-04-2020 03:32:17 7.8 C 40 %
1319 17-04-2020 03:42:18 7.8 C 40 %
1320 17-04-2020 03:52:18 8.5 C 39 %
1321 17-04-2020 04:02:17 8.4 C 39 %
1322 17-04-2020 04:12:17 8.3 C 39 %
1323 17-04-2020 04:22:17 8 C 39 %
1324 17-04-2020 04:32:17 7.9 C 40 %
1325 17-04-2020 04:42:17 8 C 40 %
Sensor: Nr:Datum:Temp:Feuchte:
Aussen-T/F 1326 17-04-2020 04:52:17 7.8 C 40 %
1327 17-04-2020 05:02:17 7.5 C 40 %
1328 17-04-2020 05:12:18 6.9 C 41 %
1329 17-04-2020 05:22:17 6.7 C 42 %
1330 17-04-2020 05:32:18 6.6 C 42 %
1331 17-04-2020 05:42:18 6.7 C 43 %
1332 17-04-2020 05:52:18 6.5 C 42 %
1333 17-04-2020 06:02:18 6.5 C 43 %
1334 17-04-2020 06:12:18 6.2 C 43 %
1335 17-04-2020 06:22:17 6 C 43 %
1336 17-04-2020 06:32:17 6 C 44 %
1337 17-04-2020 06:42:17 5.8 C 44 %
1338 17-04-2020 06:52:17 5.8 C 44 %
1339 17-04-2020 07:02:18 5.8 C 45 %
1340 17-04-2020 07:12:18 5.9 C 45 %
1341 17-04-2020 07:22:18 6.1 C 45 %
1342 17-04-2020 07:32:17 6.1 C 45 %
1343 17-04-2020 07:42:17 6.3 C 45 %
1344 17-04-2020 07:52:17 6.3 C 45 %
1345 17-04-2020 08:02:17 6.5 C 45 %
1346 17-04-2020 08:12:17 6.7 C 45 %
1347 17-04-2020 08:22:17 6.9 C 45 %
1348 17-04-2020 08:32:18 7 C 44 %
1349 17-04-2020 08:42:18 7.6 C 44 %
1350 17-04-2020 08:52:17 7.9 C 44 %
Sensor: Nr:Datum:Temp:Feuchte:
Aussen-T/F 1351 17-04-2020 09:02:18 8.4 C 42 %
1352 17-04-2020 09:12:18 8.6 C 42 %
1353 17-04-2020 09:22:17 8.8 C 41 %
1354 17-04-2020 09:32:17 9.3 C 41 %
1355 17-04-2020 09:42:17 9.6 C 40 %
1356 17-04-2020 09:52:18 10.3 C 39 %
1357 17-04-2020 10:02:17 10.8 C 38 %
1358 17-04-2020 10:12:17 11 C 37 %
1359 17-04-2020 10:22:18 11.8 C 36 %
1360 17-04-2020 10:32:18 12.4 C 35 %
1361 17-04-2020 10:42:18 13 C 34 %
1362 17-04-2020 10:52:17 13.9 C 34 %
1363 17-04-2020 11:02:17 14.6 C 32 %
1364 17-04-2020 11:12:17 15.8 C 30 %
1365 17-04-2020 11:22:18 16.5 C 28 %
1366 17-04-2020 11:32:17 17.1 C 28 %
1367 17-04-2020 11:42:17 17.7 C 26 %
1368 17-04-2020 11:52:17 17.9 C 25 %
1369 17-04-2020 12:02:18 18.5 C 25 %
1370 17-04-2020 12:12:18 18.7 C 24 %
1371 17-04-2020 12:22:17 19.1 C 22 %
1372 17-04-2020 12:32:17 19.7 C 20 %
1373 17-04-2020 12:42:17 19.7 C 20 %
1374 17-04-2020 12:52:17 19.7 C 20 %
1375 17-04-2020 13:02:18 20 C 20 %
Sensor: Nr:Datum:Temp:Feuchte:
Aussen-T/F 1376 17-04-2020 13:12:18 20.4 C 20 %
1377 17-04-2020 13:22:17 20.6 C 20 %
1378 17-04-2020 13:32:17 20.8 C 20 %
1379 17-04-2020 13:42:17 21.1 C 20 %
1380 17-04-2020 13:52:17 21.6 C 20 %
1381 17-04-2020 14:02:18 21.8 C 20 %
1382 17-04-2020 14:12:18 22.6 C 20 %
1383 17-04-2020 14:22:17 23.2 C 20 %
1384 17-04-2020 14:32:17 25.2 C 20 %
1385 17-04-2020 14:42:17 29 C 20 %
1386 17-04-2020 14:52:17 32.1 C 20 %
1387 17-04-2020 15:02:17 30.9 C 20 %
1388 17-04-2020 15:12:17 31.4 C 20 %
1389 17-04-2020 15:22:17 29.6 C 20 %
1390 17-04-2020 15:32:17 29.2 C 20 %
1391 17-04-2020 15:42:17 29 C 20 %
1392 17-04-2020 15:52:18 25.7 C 20 %
1393 17-04-2020 16:02:17 30.3 C 20 %
1394 17-04-2020 16:12:17 30.2 C 20 %
1395 17-04-2020 16:22:17 27.5 C 20 %
1396 17-04-2020 16:32:17 28.2 C 20 %
1397 17-04-2020 16:42:17 28.2 C 20 %
1398 17-04-2020 16:52:17 27.7 C 20 %
1399 17-04-2020 17:02:18 29.6 C 20 %
1400 17-04-2020 17:12:18 29.4 C 20 %
Sensor: Nr:Datum:Temp:Feuchte:
Aussen-T/F 1401 17-04-2020 17:22:17 29.5 C 20 %
1402 17-04-2020 17:32:17 30.4 C 20 %
1403 17-04-2020 17:42:18 27.7 C 20 %
1404 17-04-2020 17:52:17 28.5 C 20 %
1405 17-04-2020 18:02:17 26.6 C 20 %
1406 17-04-2020 18:12:17 26.2 C 20 %
1407 17-04-2020 18:22:17 25.7 C 20 %
1408 17-04-2020 18:32:17 24.8 C 20 %
1409 17-04-2020 18:42:17 24.7 C 20 %
1410 17-04-2020 18:52:18 24.2 C 20 %
1411 17-04-2020 19:02:17 24.1 C 20 %
1412 17-04-2020 19:12:17 23.7 C 20 %
1413 17-04-2020 19:22:17 23 C 20 %
1414 17-04-2020 19:32:17 22.2 C 20 %
1415 17-04-2020 19:42:17 21.7 C 20 %
1416 17-04-2020 19:52:17 20.7 C 20 %
1417 17-04-2020 20:02:17 20 C 20 %
1418 17-04-2020 20:12:17 19.5 C 20 %
1419 17-04-2020 20:22:17 18.8 C 21 %
1420 17-04-2020 20:32:17 18.4 C 21 %
1421 17-04-2020 20:42:17 18.2 C 21 %
1422 17-04-2020 20:52:17 17.7 C 23 %
1423 17-04-2020 21:02:17 17.5 C 23 %
1424 17-04-2020 21:12:17 17.7 C 24 %
1425 17-04-2020 21:22:17 17.6 C 25 %
Sensor: Nr:Datum:Temp:Feuchte:
Aussen-T/F 1426 17-04-2020 21:32:18 17.8 C 24 %
1427 17-04-2020 21:42:18 17 C 25 %
1428 17-04-2020 21:52:18 16.8 C 25 %
1429 17-04-2020 22:02:17 16 C 26 %
1430 17-04-2020 22:12:17 16 C 26 %
1431 17-04-2020 22:22:17 15.8 C 26 %
1432 17-04-2020 22:32:17 15.7 C 26 %
1433 17-04-2020 22:42:17 15.1 C 27 %
1434 17-04-2020 22:52:17 14.6 C 29 %
1435 17-04-2020 23:02:17 14.7 C 30 %
1436 17-04-2020 23:12:17 14.4 C 29 %
1437 17-04-2020 23:22:18 14.1 C 30 %
1438 17-04-2020 23:32:17 14 C 30 %
1439 17-04-2020 23:42:17 13.6 C 31 %
1440 17-04-2020 23:52:17 13.5 C 31 %
1441 18-04-2020 00:02:17 13.4 C 31 %
1442 18-04-2020 00:12:17 13.1 C 32 %
1443 18-04-2020 00:22:18 12.6 C 33 %
1444 18-04-2020 00:32:17 12.2 C 33 %
1445 18-04-2020 00:42:18 12 C 33 %
1446 18-04-2020 00:52:17 11.8 C 34 %
1447 18-04-2020 01:02:18 11.8 C 34 %
1448 18-04-2020 01:12:18 11.8 C 34 %
1449 18-04-2020 01:22:17 11.4 C 34 %
1450 18-04-2020 01:32:18 11.1 C 35 %
Sensor: Nr:Datum:Temp:Feuchte:
Aussen-T/F 1451 18-04-2020 01:42:18 10.9 C 36 %
1452 18-04-2020 01:52:17 10.9 C 36 %
1453 18-04-2020 02:02:18 10.8 C 36 %
1454 18-04-2020 02:12:18 10.6 C 36 %
1455 18-04-2020 02:22:17 10.7 C 36 %
1456 18-04-2020 02:32:17 10.1 C 37 %
1457 18-04-2020 02:42:17 10 C 38 %
1458 18-04-2020 02:52:18 9.8 C 38 %
1459 18-04-2020 03:02:17 9.7 C 39 %
1460 18-04-2020 03:12:17 9.6 C 39 %
1461 18-04-2020 03:22:18 9.2 C 39 %
1462 18-04-2020 03:32:18 9 C 39 %
1463 18-04-2020 03:42:18 9 C 39 %
1464 18-04-2020 03:52:18 8.9 C 40 %
1465 18-04-2020 04:02:17 9 C 40 %
1466 18-04-2020 04:12:17 9 C 40 %
1467 18-04-2020 04:22:17 9 C 40 %
1468 18-04-2020 04:32:18 8.9 C 41 %
1469 18-04-2020 04:42:18 8.8 C 41 %
1470 18-04-2020 04:52:17 8.6 C 41 %
1471 18-04-2020 05:02:17 8.4 C 41 %
1472 18-04-2020 05:12:17 8.5 C 41 %
1473 18-04-2020 05:22:17 8.7 C 40 %
1474 18-04-2020 05:32:17 8.6 C 41 %
1475 18-04-2020 05:42:17 8.3 C 41 %
Sensor: Nr:Datum:Temp:Feuchte:
Aussen-T/F 1476 18-04-2020 05:52:18 8.6 C 41 %
1477 18-04-2020 06:02:17 8.7 C 41 %
1478 18-04-2020 06:12:17 8.6 C 41 %
1479 18-04-2020 06:22:17 8.7 C 41 %
1480 18-04-2020 06:32:17 8.3 C 41 %
1481 18-04-2020 06:42:17 8.1 C 41 %
1482 18-04-2020 06:52:17 8.2 C 41 %
1483 18-04-2020 07:02:17 8.4 C 42 %
1484 18-04-2020 07:12:17 8.7 C 42 %
1485 18-04-2020 07:22:17 9.4 C 42 %
1486 18-04-2020 07:32:17 9.6 C 41 %
1487 18-04-2020 07:42:17 9.7 C 41 %
1488 18-04-2020 07:52:17 9.7 C 41 %
1489 18-04-2020 08:02:18 9.7 C 41 %
1490 18-04-2020 08:12:18 10 C 40 %
1491 18-04-2020 08:22:17 10.1 C 40 %
1492 18-04-2020 08:32:17 10.2 C 40 %
1493 18-04-2020 08:42:18 10.6 C 40 %
1494 18-04-2020 08:52:18 11.1 C 39 %
1495 18-04-2020 09:02:17 11.7 C 38 %
1496 18-04-2020 09:12:17 12.1 C 37 %
1497 18-04-2020 09:22:17 12.5 C 36 %
1498 18-04-2020 09:32:18 13.4 C 35 %
1499 18-04-2020 09:42:18 13.8 C 34 %
1500 18-04-2020 09:52:18 14.4 C 32 %
Sensor: Nr:Datum:Temp:Feuchte:
Aussen-T/F 1501 18-04-2020 10:02:18 15 C 31 %
1502 18-04-2020 10:12:18 14.9 C 31 %
1503 18-04-2020 10:22:18 16.2 C 30 %
1504 18-04-2020 10:32:18 15.8 C 30 %
1505 18-04-2020 10:42:18 17.2 C 29 %
1506 18-04-2020 10:52:18 17.9 C 29 %
1507 18-04-2020 11:02:18 18.5 C 27 %
1508 18-04-2020 11:12:18 18.3 C 27 %
1509 18-04-2020 11:22:17 18.5 C 26 %
1510 18-04-2020 11:32:18 17.8 C 27 %
1511 18-04-2020 11:42:18 18.6 C 26 %
1512 18-04-2020 11:52:18 18.9 C 27 %
1513 18-04-2020 12:02:17 19.1 C 26 %
1514 18-04-2020 12:12:17 20 C 25 %
1515 18-04-2020 12:22:18 20.2 C 24 %
1516 18-04-2020 12:32:18 20.1 C 24 %
1517 18-04-2020 12:42:18 19.6 C 25 %
1518 18-04-2020 12:52:17 19.3 C 25 %
1519 18-04-2020 13:02:17 20.8 C 24 %
1520 18-04-2020 13:12:17 21.8 C 21 %
1521 18-04-2020 13:22:18 21.5 C 20 %
1522 18-04-2020 13:32:18 21.8 C 20 %
1523 18-04-2020 13:42:18 22.4 C 20 %
1524 18-04-2020 13:52:18 21.6 C 20 %
1525 18-04-2020 14:02:18 21.2 C 20 %
Sensor: Nr:Datum:Temp:Feuchte:
Aussen-T/F 1526 18-04-2020 14:12:18 21.7 C 20 %
1527 18-04-2020 14:22:18 22.4 C 20 %
1528 18-04-2020 14:32:17 22.4 C 20 %
1529 18-04-2020 14:42:17 22.8 C 20 %
1530 18-04-2020 14:52:17 22.6 C 20 %
1531 18-04-2020 15:02:17 25.4 C 20 %
1532 18-04-2020 15:12:18 30.4 C 20 %
1533 18-04-2020 15:22:17 28.2 C 20 %
1534 18-04-2020 15:32:17 23.8 C 20 %
1535 18-04-2020 15:42:17 23.2 C 20 %
1536 18-04-2020 15:52:17 22.2 C 20 %
1537 18-04-2020 16:02:18 21.8 C 20 %
1538 18-04-2020 16:12:18 21.8 C 20 %
1539 18-04-2020 16:22:18 20.6 C 20 %
1540 18-04-2020 16:32:17 19.7 C 25 %
1541 18-04-2020 16:42:17 20 C 25 %
1542 18-04-2020 16:52:17 19.9 C 25 %
1543 18-04-2020 17:02:17 19.1 C 26 %
1544 18-04-2020 17:12:17 18.9 C 27 %
1545 18-04-2020 17:22:17 18.7 C 28 %
1546 18-04-2020 17:32:18 17.6 C 33 %
1547 18-04-2020 17:42:18 17.5 C 33 %
1548 18-04-2020 17:52:18 17.4 C 33 %
1549 18-04-2020 18:02:18 17.3 C 34 %
1550 18-04-2020 18:12:18 17.1 C 34 %
Sensor: Nr:Datum:Temp:Feuchte:
Aussen-T/F 1551 18-04-2020 18:22:17 17.3 C 33 %
1552 18-04-2020 18:32:18 17.7 C 31 %
1553 18-04-2020 18:42:18 17.7 C 31 %
1554 18-04-2020 18:52:17 17.9 C 30 %
1555 18-04-2020 19:02:18 18.1 C 30 %
1556 18-04-2020 19:12:18 17.9 C 30 %
1557 18-04-2020 19:22:17 17.6 C 30 %
1558 18-04-2020 19:32:17 17.8 C 30 %
1559 18-04-2020 19:42:17 18.1 C 29 %
1560 18-04-2020 19:52:18 17.7 C 30 %
1561 18-04-2020 20:02:17 17.3 C 30 %
1562 18-04-2020 20:12:17 16.5 C 30 %
1563 18-04-2020 20:22:17 15.9 C 31 %
1564 18-04-2020 20:32:17 15 C 32 %
1565 18-04-2020 20:42:17 14.8 C 34 %
1566 18-04-2020 20:52:17 14.5 C 34 %
1567 18-04-2020 21:02:18 14.5 C 35 %
1568 18-04-2020 21:12:18 14.9 C 34 %
1569 18-04-2020 21:22:17 15 C 33 %
1570 18-04-2020 21:32:17 15.1 C 33 %
1571 18-04-2020 21:42:17 15 C 33 %
1572 18-04-2020 21:52:18 14.8 C 34 %
1573 18-04-2020 22:02:17 14.4 C 34 %
1574 18-04-2020 22:12:17 14.5 C 35 %
1575 18-04-2020 22:22:17 13.7 C 35 %
Sensor: Nr:Datum:Temp:Feuchte:
Aussen-T/F 1576 18-04-2020 22:32:18 13.4 C 36 %
1577 18-04-2020 22:42:18 12.8 C 37 %
1578 18-04-2020 22:52:17 12.8 C 37 %
1579 18-04-2020 23:02:18 12.7 C 38 %
1580 18-04-2020 23:12:18 12.3 C 38 %
1581 18-04-2020 23:22:17 12.1 C 38 %
1582 18-04-2020 23:32:17 11.7 C 40 %
1583 18-04-2020 23:42:17 11.1 C 40 %
1584 18-04-2020 23:52:17 10.9 C 42 %
1585 19-04-2020 00:02:18 10.6 C 43 %
1586 19-04-2020 00:12:18 10.7 C 43 %
1587 19-04-2020 00:22:17 10.2 C 43 %
1588 19-04-2020 00:32:17 10.2 C 43 %
1589 19-04-2020 00:42:17 10.1 C 44 %
1590 19-04-2020 00:52:17 9.8 C 44 %
1591 19-04-2020 01:02:17 9.8 C 45 %
1592 19-04-2020 01:12:17 9.9 C 45 %
1593 19-04-2020 01:22:17 9.6 C 44 %
1594 19-04-2020 01:32:17 9.6 C 45 %
1595 19-04-2020 01:42:17 9.9 C 45 %
1596 19-04-2020 01:52:17 9.5 C 45 %
1597 19-04-2020 02:02:17 9.5 C 45 %
1598 19-04-2020 02:12:18 9.6 C 45 %
1599 19-04-2020 02:22:17 9.7 C 45 %
1600 19-04-2020 02:32:17 10 C 45 %
Sensor: Nr:Datum:Temp:Feuchte:
Aussen-T/F 1601 19-04-2020 02:42:17 10 C 44 %
1602 19-04-2020 02:52:17 9.8 C 45 %
1603 19-04-2020 03:02:17 9.6 C 45 %
1604 19-04-2020 03:12:17 9.3 C 44 %
1605 19-04-2020 03:22:17 9.1 C 45 %
1606 19-04-2020 03:32:17 8.9 C 45 %
1607 19-04-2020 03:42:17 8.7 C 45 %
1608 19-04-2020 03:52:17 8.7 C 45 %
1609 19-04-2020 04:02:17 8.5 C 45 %
1610 19-04-2020 04:12:17 9.2 C 45 %
1611 19-04-2020 04:22:17 9.2 C 45 %
1612 19-04-2020 04:32:17 9.4 C 45 %
1613 19-04-2020 04:42:17 9.6 C 45 %
1614 19-04-2020 04:52:17 9.6 C 45 %
1615 19-04-2020 05:02:17 9.7 C 45 %
1616 19-04-2020 05:12:17 9.6 C 45 %
1617 19-04-2020 05:22:18 9.6 C 45 %
1618 19-04-2020 05:32:17 9.7 C 45 %
1619 19-04-2020 05:42:17 9.7 C 45 %
1620 19-04-2020 05:52:17 9.8 C 45 %
1621 19-04-2020 06:02:17 9.9 C 45 %
1622 19-04-2020 06:12:17 10.1 C 44 %
1623 19-04-2020 06:22:17 10.1 C 44 %
1624 19-04-2020 06:32:17 10.2 C 44 %
1625 19-04-2020 06:42:17 10.2 C 44 %
Sensor: Nr:Datum:Temp:Feuchte:
Aussen-T/F 1626 19-04-2020 06:52:18 10.3 C 44 %
1627 19-04-2020 07:02:18 10.3 C 44 %
1628 19-04-2020 07:12:18 10.4 C 44 %
1629 19-04-2020 07:22:17 10.6 C 44 %
1630 19-04-2020 07:32:18 10.5 C 43 %
1631 19-04-2020 07:42:18 10.6 C 43 %
1632 19-04-2020 07:52:17 10.6 C 43 %
1633 19-04-2020 08:02:17 10.7 C 43 %
1634 19-04-2020 08:12:17 11.3 C 42 %
1635 19-04-2020 08:22:17 11.5 C 41 %
1636 19-04-2020 08:32:17 12 C 40 %
1637 19-04-2020 08:42:17 12.4 C 39 %
1638 19-04-2020 08:52:17 13.2 C 37 %
1639 19-04-2020 09:02:17 12.5 C 38 %
1640 19-04-2020 09:12:18 13 C 37 %
1641 19-04-2020 09:22:18 13.2 C 36 %
1642 19-04-2020 09:32:17 13.5 C 36 %
1643 19-04-2020 09:42:17 13.8 C 36 %
1644 19-04-2020 09:52:17 13.8 C 35 %
1645 19-04-2020 10:02:17 13.7 C 35 %
1646 19-04-2020 10:12:17 14.2 C 35 %
1647 19-04-2020 10:22:17 14.7 C 34 %
1648 19-04-2020 10:32:17 15.5 C 33 %
1649 19-04-2020 10:42:17 16.4 C 31 %
1650 19-04-2020 10:52:17 16.4 C 31 %
Sensor: Nr:Datum:Temp:Feuchte:
Aussen-T/F 1651 19-04-2020 11:02:17 15.7 C 32 %
1652 19-04-2020 11:12:17 14.7 C 33 %
1653 19-04-2020 11:22:17 14.7 C 33 %
1654 19-04-2020 11:32:17 14.4 C 34 %
1655 19-04-2020 11:42:17 14 C 34 %
1656 19-04-2020 11:52:17 13.8 C 35 %
1657 19-04-2020 12:02:17 14.2 C 34 %
1658 19-04-2020 12:12:17 14.7 C 34 %
1659 19-04-2020 12:22:17 16 C 31 %
1660 19-04-2020 12:32:18 16 C 31 %
1661 19-04-2020 12:42:18 16.3 C 30 %
1662 19-04-2020 12:52:17 16.9 C 30 %
1663 19-04-2020 13:02:17 17.4 C 28 %
1664 19-04-2020 13:12:17 16.9 C 29 %
1665 19-04-2020 13:22:17 17.4 C 27 %
1666 19-04-2020 13:32:17 18.8 C 26 %
1667 19-04-2020 13:42:17 19.1 C 25 %
1668 19-04-2020 13:52:17 19.3 C 25 %
1669 19-04-2020 14:02:18 18.8 C 25 %
1670 19-04-2020 14:12:18 18.6 C 25 %
1671 19-04-2020 14:22:17 18.1 C 25 %
1672 19-04-2020 14:32:17 17.4 C 26 %
1673 19-04-2020 14:42:17 18 C 26 %
1674 19-04-2020 14:52:17 17.1 C 26 %
1675 19-04-2020 15:02:18 16.9 C 26 %
Sensor: Nr:Datum:Temp:Feuchte:
Aussen-T/F 1676 19-04-2020 15:12:18 16.6 C 26 %
1677 19-04-2020 15:22:17 17 C 25 %
1678 19-04-2020 15:32:17 17.2 C 25 %
1679 19-04-2020 15:42:18 17.8 C 25 %
1680 19-04-2020 15:52:18 18.1 C 24 %
1681 19-04-2020 16:02:17 19.2 C 22 %
1682 19-04-2020 16:12:17 22.2 C 20 %
1683 19-04-2020 16:22:17 20.2 C 20 %
1684 19-04-2020 16:32:17 18.6 C 20 %
1685 19-04-2020 16:42:17 20.5 C 20 %
1686 19-04-2020 16:52:17 21.3 C 20 %
1687 19-04-2020 17:02:17 17.5 C 20 %
1688 19-04-2020 17:12:17 18.6 C 20 %
1689 19-04-2020 17:22:17 19.7 C 20 %
1690 19-04-2020 17:32:18 18.9 C 20 %
1691 19-04-2020 17:42:18 19.2 C 20 %
1692 19-04-2020 17:52:17 18.6 C 20 %
1693 19-04-2020 18:02:18 17.4 C 20 %
1694 19-04-2020 18:12:18 17.3 C 20 %
1695 19-04-2020 18:22:17 17.3 C 20 %
1696 19-04-2020 18:32:17 17.3 C 20 %
1697 19-04-2020 18:42:17 16.8 C 20 %
1698 19-04-2020 18:52:17 16.8 C 20 %
1699 19-04-2020 19:02:17 16.8 C 20 %
1700 19-04-2020 19:12:17 16.7 C 20 %
Sensor: Nr:Datum:Temp:Feuchte:
Aussen-T/F 1701 19-04-2020 19:22:17 16.3 C 20 %
1702 19-04-2020 19:32:18 16 C 20 %
1703 19-04-2020 19:42:18 15.6 C 20 %
1704 19-04-2020 19:52:17 15.1 C 20 %
1705 19-04-2020 20:02:18 14.7 C 20 %
1706 19-04-2020 20:12:18 13.7 C 23 %
1707 19-04-2020 20:22:17 13.3 C 24 %
1708 19-04-2020 20:32:17 13 C 25 %
1709 19-04-2020 20:42:17 12.5 C 26 %
1710 19-04-2020 20:52:17 12.3 C 26 %
1711 19-04-2020 21:02:18 12 C 26 %
1712 19-04-2020 21:12:18 12 C 26 %
1713 19-04-2020 21:22:17 11.7 C 27 %
1714 19-04-2020 21:32:17 11.5 C 27 %
1715 19-04-2020 21:42:17 11.4 C 27 %
1716 19-04-2020 21:52:17 11 C 27 %
1717 19-04-2020 22:02:17 11.2 C 26 %
1718 19-04-2020 22:12:17 11 C 26 %
1719 19-04-2020 22:22:17 11.1 C 26 %
1720 19-04-2020 22:32:17 10.9 C 26 %
1721 19-04-2020 22:42:17 10.3 C 26 %
1722 19-04-2020 22:52:17 10.2 C 26 %
1723 19-04-2020 23:02:18 11.1 C 25 %
1724 19-04-2020 23:12:18 10.1 C 25 %
1725 19-04-2020 23:22:18 9.7 C 27 %
Sensor: Nr:Datum:Temp:Feuchte:
Aussen-T/F 1726 19-04-2020 23:32:17 10.3 C 22 %
1727 19-04-2020 23:42:17 10.3 C 25 %
1728 19-04-2020 23:52:17 10.3 C 23 %
1729 20-04-2020 00:02:17 10.1 C 25 %
1730 20-04-2020 00:12:17 9.6 C 25 %
1731 20-04-2020 00:22:17 10.1 C 21 %
1732 20-04-2020 00:32:18 9.9 C 23 %
1733 20-04-2020 00:42:18 9.6 C 25 %
1734 20-04-2020 00:52:18 9.3 C 25 %
1735 20-04-2020 01:02:17 9.8 C 23 %
1736 20-04-2020 01:12:17 9.3 C 23 %
1737 20-04-2020 01:22:17 9.1 C 21 %
1738 20-04-2020 01:32:17 9.6 C 21 %
1739 20-04-2020 01:42:17 9.1 C 21 %
1740 20-04-2020 01:52:17 8.5 C 25 %
1741 20-04-2020 02:02:18 8.1 C 26 %
1742 20-04-2020 02:12:18 7.9 C 26 %
1743 20-04-2020 02:22:17 7.5 C 27 %
1744 20-04-2020 02:32:18 7.3 C 27 %
1745 20-04-2020 02:42:18 7.3 C 27 %
1746 20-04-2020 02:52:17 7.3 C 27 %
1747 20-04-2020 03:02:17 7 C 27 %
1748 20-04-2020 03:12:17 6.9 C 28 %
1749 20-04-2020 03:22:17 6.7 C 29 %
1750 20-04-2020 03:32:17 6.9 C 28 %
Sensor: Nr:Datum:Temp:Feuchte:
Aussen-T/F 1751 20-04-2020 03:42:17 6.9 C 28 %
1752 20-04-2020 03:52:17 6.7 C 29 %
1753 20-04-2020 04:02:17 6.6 C 28 %
1754 20-04-2020 04:12:17 6.5 C 28 %
1755 20-04-2020 04:22:17 6.4 C 29 %
1756 20-04-2020 04:32:18 6.4 C 28 %
1757 20-04-2020 04:42:18 6.4 C 28 %
1758 20-04-2020 04:52:17 6.2 C 29 %
1759 20-04-2020 05:02:18 6.4 C 29 %
1760 20-04-2020 05:12:18 6.3 C 29 %
1761 20-04-2020 05:22:17 6.3 C 29 %
1762 20-04-2020 05:32:17 6.2 C 30 %
1763 20-04-2020 05:42:18 6.3 C 29 %
1764 20-04-2020 05:52:17 6.3 C 29 %
1765 20-04-2020 06:02:18 6 C 30 %
1766 20-04-2020 06:12:18 5.9 C 30 %
1767 20-04-2020 06:22:17 5.9 C 30 %
1768 20-04-2020 06:32:17 6.1 C 30 %
1769 20-04-2020 06:42:17 6.1 C 30 %
1770 20-04-2020 06:52:17 5.9 C 30 %
1771 20-04-2020 07:02:17 6.1 C 30 %
1772 20-04-2020 07:12:17 6.2 C 30 %
1773 20-04-2020 07:22:17 6.2 C 30 %
1774 20-04-2020 07:32:17 6.4 C 30 %
1775 20-04-2020 07:42:17 7.2 C 27 %
Sensor: Nr:Datum:Temp:Feuchte:
Aussen-T/F 1776 20-04-2020 07:52:17 7.4 C 27 %
1777 20-04-2020 08:02:18 7.3 C 27 %
1778 20-04-2020 08:12:18 7.9 C 26 %
1779 20-04-2020 08:22:17 7.8 C 27 %
1780 20-04-2020 08:32:17 7.7 C 28 %
1781 20-04-2020 08:42:18 7.9 C 26 %
1782 20-04-2020 08:52:18 8.1 C 26 %
1783 20-04-2020 09:02:17 8.3 C 26 %
1784 20-04-2020 09:12:17 8.2 C 27 %
1785 20-04-2020 09:22:17 8.4 C 27 %
1786 20-04-2020 09:32:17 9 C 25 %
1787 20-04-2020 09:42:17 9.4 C 25 %
1788 20-04-2020 09:52:18 9.4 C 26 %
1789 20-04-2020 10:02:18 9.9 C 26 %
1790 20-04-2020 10:12:18 10.7 C 22 %
1791 20-04-2020 10:22:17 11.4 C 20 %
1792 20-04-2020 10:32:17 12.1 C 20 %
1793 20-04-2020 10:42:18 12.7 C 20 %
1794 20-04-2020 10:52:17 13.1 C 20 %
1795 20-04-2020 11:02:18 13.7 C 20 %
1796 20-04-2020 11:12:18 14 C 20 %
1797 20-04-2020 11:22:17 14.4 C 20 %
1798 20-04-2020 11:32:17 14.7 C 20 %
1799 20-04-2020 11:42:18 14.8 C 20 %
1800 20-04-2020 11:52:17 15 C 20 %
Sensor: Nr:Datum:Temp:Feuchte:
Aussen-T/F 1801 20-04-2020 12:02:17 15.2 C 20 %
1802 20-04-2020 12:12:17 15 C 20 %
1803 20-04-2020 12:22:17 15 C 20 %
1804 20-04-2020 12:32:17 15.1 C 20 %
1805 20-04-2020 12:42:17 15.1 C 20 %
1806 20-04-2020 12:52:17 15.4 C 20 %
1807 20-04-2020 13:02:17 15.4 C 20 %
1808 20-04-2020 13:12:17 16 C 20 %
1809 20-04-2020 13:22:17 15.8 C 20 %
1810 20-04-2020 13:32:17 16.1 C 20 %
1811 20-04-2020 13:42:17 16.1 C 20 %
1812 20-04-2020 13:52:17 16.8 C 20 %
1813 20-04-2020 14:02:17 16.9 C 20 %
1814 20-04-2020 14:12:17 17.3 C 20 %
1815 20-04-2020 14:22:17 18.3 C 20 %
1816 20-04-2020 14:32:18 21 C 20 %
1817 20-04-2020 14:42:18 23 C 20 %
1818 20-04-2020 14:52:18 23.2 C 20 %
1819 20-04-2020 15:02:17 22.9 C 20 %
1820 20-04-2020 15:12:17 21.8 C 20 %
1821 20-04-2020 15:22:17 22.9 C 20 %
1822 20-04-2020 15:32:17 23.3 C 20 %
1823 20-04-2020 15:42:17 24.7 C 20 %
1824 20-04-2020 15:52:17 22.5 C 20 %
1825 20-04-2020 16:02:17 24.5 C 20 %
Sensor: Nr:Datum:Temp:Feuchte:
Aussen-T/F 1826 20-04-2020 16:12:17 22.7 C 20 %
1827 20-04-2020 16:22:17 23 C 20 %
1828 20-04-2020 16:32:17 23.5 C 20 %
1829 20-04-2020 16:42:17 23.6 C 20 %
1830 20-04-2020 16:52:17 23.4 C 20 %
1831 20-04-2020 17:02:17 23.7 C 20 %
1832 20-04-2020 17:12:17 22.3 C 20 %
1833 20-04-2020 17:22:17 21.6 C 20 %
1834 20-04-2020 17:32:17 20.4 C 20 %
1835 20-04-2020 17:42:17 22.4 C 20 %
1836 20-04-2020 17:52:17 20.9 C 20 %
1837 20-04-2020 18:02:18 19.1 C 20 %
1838 20-04-2020 18:12:18 19 C 20 %
1839 20-04-2020 18:22:18 18.5 C 20 %
1840 20-04-2020 18:32:17 18.4 C 20 %
1841 20-04-2020 18:42:18 18.2 C 20 %
1842 20-04-2020 18:52:18 18.3 C 20 %
1843 20-04-2020 19:02:17 17.8 C 20 %
1844 20-04-2020 19:12:17 17.6 C 20 %
1845 20-04-2020 19:22:17 17.2 C 20 %
1846 20-04-2020 19:32:17 17 C 20 %
1847 20-04-2020 19:42:17 16.6 C 20 %
1848 20-04-2020 19:52:17 16.3 C 20 %
1849 20-04-2020 20:02:17 16 C 20 %
1850 20-04-2020 20:12:17 15.6 C 20 %
Sensor: Nr:Datum:Temp:Feuchte:
Aussen-T/F 1851 20-04-2020 20:22:17 15 C 20 %
1852 20-04-2020 20:32:17 14.4 C 20 %
1853 20-04-2020 20:42:17 14.5 C 20 %
1854 20-04-2020 20:52:17 13.8 C 20 %
1855 20-04-2020 21:02:17 13.7 C 20 %
1856 20-04-2020 21:12:17 12.9 C 20 %
1857 20-04-2020 21:22:17 12.6 C 20 %
1858 20-04-2020 21:32:17 12 C 20 %
1859 20-04-2020 21:42:17 12.2 C 20 %
1860 20-04-2020 21:52:17 12.6 C 20 %
1861 20-04-2020 22:02:17 11.8 C 20 %
1862 20-04-2020 22:12:17 11.9 C 20 %
1863 20-04-2020 22:22:17 12.1 C 20 %
1864 20-04-2020 22:32:17 12.2 C 20 %
1865 20-04-2020 22:42:17 11.9 C 20 %
1866 20-04-2020 22:52:18 11.5 C 20 %
1867 20-04-2020 23:02:17 11.5 C 20 %
1868 20-04-2020 23:12:17 11.6 C 20 %
1869 20-04-2020 23:22:17 11 C 20 %
1870 20-04-2020 23:32:18 11.6 C 20 %
1871 20-04-2020 23:42:18 11 C 20 %
1872 20-04-2020 23:52:17 11 C 20 %
1873 21-04-2020 00:02:17 10.9 C 20 %
1874 21-04-2020 00:12:17 10.3 C 20 %
1875 21-04-2020 00:22:17 10.4 C 20 %
Sensor: Nr:Datum:Temp:Feuchte:
Aussen-T/F 1876 21-04-2020 00:32:17 9.9 C 20 %
1877 21-04-2020 00:42:17 10.5 C 20 %
1878 21-04-2020 00:52:17 10 C 20 %
1879 21-04-2020 01:02:18 9.4 C 20 %
1880 21-04-2020 01:12:18 8.9 C 20 %
1881 21-04-2020 01:22:18 9 C 20 %
1882 21-04-2020 01:32:18 8.9 C 20 %
1883 21-04-2020 01:42:18 9.2 C 20 %
1884 21-04-2020 01:52:17 8.4 C 20 %
1885 21-04-2020 02:02:17 9.2 C 20 %
1886 21-04-2020 02:12:18 9.1 C 20 %
1887 21-04-2020 02:22:17 9.1 C 20 %
1888 21-04-2020 02:32:18 8.9 C 20 %
1889 21-04-2020 02:42:18 9.2 C 20 %
1890 21-04-2020 02:52:17 9 C 20 %
1891 21-04-2020 03:02:17 9.3 C 20 %
1892 21-04-2020 03:12:17 9.1 C 20 %
1893 21-04-2020 03:22:18 9.2 C 20 %
1894 21-04-2020 03:32:17 9.1 C 20 %
1895 21-04-2020 03:42:17 8.3 C 20 %
1896 21-04-2020 03:52:18 8.6 C 20 %
1897 21-04-2020 04:02:18 8.1 C 20 %
1898 21-04-2020 04:12:18 7.4 C 23 %
1899 21-04-2020 04:22:17 7.8 C 20 %
1900 21-04-2020 04:32:17 7.7 C 23 %
Sensor: Nr:Datum:Temp:Feuchte:
Aussen-T/F 1901 21-04-2020 04:42:17 7.5 C 25 %
1902 21-04-2020 04:52:17 7.5 C 25 %
1903 21-04-2020 05:02:17 7.1 C 25 %
1904 21-04-2020 05:12:17 7.7 C 25 %
1905 21-04-2020 05:22:17 7.3 C 25 %
1906 21-04-2020 05:32:18 7 C 25 %
1907 21-04-2020 05:42:18 6.8 C 26 %
1908 21-04-2020 05:52:17 6.5 C 27 %
1909 21-04-2020 06:02:17 6.9 C 27 %
1910 21-04-2020 06:12:17 6.6 C 27 %
1911 21-04-2020 06:22:18 6.6 C 27 %
1912 21-04-2020 06:32:18 6.3 C 28 %
1913 21-04-2020 06:42:18 6.4 C 28 %
1914 21-04-2020 06:52:17 6.3 C 29 %
1915 21-04-2020 07:02:18 6.1 C 30 %
1916 21-04-2020 07:12:18 6.2 C 29 %
1917 21-04-2020 07:22:17 6.3 C 30 %
1918 21-04-2020 07:32:17 6.5 C 30 %
1919 21-04-2020 07:42:17 7.3 C 27 %
1920 21-04-2020 07:52:17 6.9 C 29 %
1921 21-04-2020 08:02:17 7.4 C 27 %
1922 21-04-2020 08:12:17 7.7 C 26 %
1923 21-04-2020 08:22:17 7.6 C 26 %
1924 21-04-2020 08:32:17 7.2 C 28 %
1925 21-04-2020 08:42:18 7.5 C 27 %
Sensor: Nr:Datum:Temp:Feuchte:
Aussen-T/F 1926 21-04-2020 08:52:17 8.3 C 27 %
1927 21-04-2020 09:02:17 8.7 C 25 %
1928 21-04-2020 09:12:17 9.2 C 23 %
1929 21-04-2020 09:22:17 9.7 C 21 %
1930 21-04-2020 09:32:17 10.2 C 20 %
1931 21-04-2020 09:42:17 10.7 C 20 %
1932 21-04-2020 09:52:17 10.9 C 20 %
1933 21-04-2020 10:02:17 10.9 C 20 %
1934 21-04-2020 10:12:17 11.7 C 20 %
1935 21-04-2020 10:22:17 12.2 C 20 %
1936 21-04-2020 10:32:17 12.8 C 20 %
1937 21-04-2020 10:42:17 13.2 C 20 %
1938 21-04-2020 10:52:17 13.5 C 20 %
1939 21-04-2020 11:02:17 13.9 C 20 %
1940 21-04-2020 11:12:17 14.6 C 20 %
1941 21-04-2020 11:22:17 14.6 C 20 %
1942 21-04-2020 11:32:18 14.7 C 20 %
1943 21-04-2020 11:42:18 15.2 C 20 %
1944 21-04-2020 11:52:18 15.7 C 20 %
1945 21-04-2020 12:02:17 16.4 C 20 %
1946 21-04-2020 12:12:18 16.1 C 20 %
1947 21-04-2020 12:22:17 16.1 C 20 %
1948 21-04-2020 12:32:17 16.2 C 20 %
1949 21-04-2020 12:42:17 16.4 C 20 %
1950 21-04-2020 12:52:17 16.6 C 20 %
Sensor: Nr:Datum:Temp:Feuchte:
Aussen-T/F 1951 21-04-2020 13:02:17 16.9 C 20 %
1952 21-04-2020 13:12:17 17.4 C 20 %
1953 21-04-2020 13:22:17 17.2 C 20 %
1954 21-04-2020 13:32:17 17.3 C 20 %
1955 21-04-2020 13:42:17 17.9 C 20 %
1956 21-04-2020 13:52:17 18.1 C 20 %
1957 21-04-2020 14:02:17 18.5 C 20 %
1958 21-04-2020 14:12:17 19 C 20 %
1959 21-04-2020 14:22:17 19.4 C 20 %
1960 21-04-2020 14:32:17 22 C 20 %
1961 21-04-2020 14:42:17 24.4 C 20 %
1962 21-04-2020 14:52:17 24.2 C 20 %
1963 21-04-2020 15:02:17 24.5 C 20 %
1964 21-04-2020 15:12:17 22.2 C 20 %
1965 21-04-2020 15:22:17 23.7 C 20 %
1966 21-04-2020 15:32:18 23.2 C 20 %
1967 21-04-2020 15:42:18 24 C 20 %
1968 21-04-2020 15:52:17 23.4 C 20 %
1969 21-04-2020 16:02:18 22.8 C 20 %
1970 21-04-2020 16:12:18 23.2 C 20 %
1971 21-04-2020 16:22:17 22.9 C 20 %
1972 21-04-2020 16:32:17 23.2 C 20 %
1973 21-04-2020 16:42:17 24.3 C 20 %
1974 21-04-2020 16:52:17 22.8 C 20 %
1975 21-04-2020 17:02:17 23.6 C 20 %
Sensor: Nr:Datum:Temp:Feuchte:
Aussen-T/F 1976 21-04-2020 17:12:17 24.8 C 20 %
1977 21-04-2020 17:22:18 22.8 C 20 %
1978 21-04-2020 17:32:17 21.9 C 20 %
1979 21-04-2020 17:42:17 22.3 C 20 %
1980 21-04-2020 17:52:17 22.9 C 20 %
1981 21-04-2020 18:02:18 21.1 C 20 %
1982 21-04-2020 18:12:18 20.9 C 20 %
1983 21-04-2020 18:22:17 20.5 C 20 %
1984 21-04-2020 18:32:17 20.3 C 20 %
1985 21-04-2020 18:42:17 20 C 20 %
1986 21-04-2020 18:52:18 20 C 20 %
1987 21-04-2020 19:02:17 19.6 C 20 %
1988 21-04-2020 19:12:17 19.4 C 20 %
1989 21-04-2020 19:22:17 19.1 C 20 %
1990 21-04-2020 19:32:18 18.9 C 20 %
1991 21-04-2020 19:42:18 18.7 C 20 %
1992 21-04-2020 19:52:17 18.3 C 20 %
1993 21-04-2020 20:02:17 17.9 C 20 %
1994 21-04-2020 20:12:17 17.4 C 20 %
1995 21-04-2020 20:22:17 16.7 C 20 %
1996 21-04-2020 20:32:17 16.2 C 20 %
1997 21-04-2020 20:42:17 15.5 C 20 %
1998 21-04-2020 20:52:17 14.8 C 20 %
1999 21-04-2020 21:02:18 14.2 C 20 %
2000 21-04-2020 21:12:18 14.5 C 20 %
Sensor: Nr:Datum:Temp:Feuchte:
Aussen-T/F 2001 21-04-2020 21:22:17 14.1 C 20 %
2002 21-04-2020 21:32:17 13.9 C 20 %
2003 21-04-2020 21:42:17 13.2 C 20 %
2004 21-04-2020 21:52:18 12.9 C 20 %
2005 21-04-2020 22:02:17 13.2 C 20 %
2006 21-04-2020 22:12:17 13 C 20 %
2007 21-04-2020 22:22:17 13.4 C 20 %
2008 21-04-2020 22:32:17 12.6 C 20 %
2009 21-04-2020 22:42:17 12 C 20 %
2010 21-04-2020 22:52:18 11.8 C 20 %
2011 21-04-2020 23:02:18 12.1 C 20 %
2012 21-04-2020 23:12:18 11.8 C 20 %
2013 21-04-2020 23:22:17 11.5 C 20 %
2014 21-04-2020 23:32:18 11.3 C 20 %
2015 21-04-2020 23:42:18 11.3 C 20 %
2016 21-04-2020 23:52:18 11.1 C 20 %
Sensor: Nr:Datum:Temp:Feuchte:
G-T/H 1 08-04-2020 00:01:17 14.3 C 58 %
2 08-04-2020 00:11:17 14.2 C 58 %
3 08-04-2020 00:21:17 14.2 C 58 %
4 08-04-2020 00:31:17 14.2 C 58 %
5 08-04-2020 00:41:17 14.2 C 58 %
6 08-04-2020 00:51:18 14.1 C 58 %
7 08-04-2020 01:01:17 14.1 C 59 %
8 08-04-2020 01:11:17 14.1 C 59 %
9 08-04-2020 01:21:17 14 C 59 %
10 08-04-2020 01:31:18 14 C 59 %
11 08-04-2020 01:41:18 14 C 59 %
12 08-04-2020 01:51:17 13.9 C 60 %
13 08-04-2020 02:01:18 13.9 C 60 %
14 08-04-2020 02:11:18 13.9 C 60 %
15 08-04-2020 02:21:17 13.9 C 60 %
16 08-04-2020 02:31:17 13.8 C 60 %
17 08-04-2020 02:41:18 13.8 C 60 %
18 08-04-2020 02:51:17 13.8 C 60 %
19 08-04-2020 03:01:18 13.8 C 60 %
20 08-04-2020 03:11:18 13.7 C 60 %
21 08-04-2020 03:21:17 13.7 C 60 %
22 08-04-2020 03:31:17 13.6 C 60 %
23 08-04-2020 03:41:17 13.7 C 60 %
24 08-04-2020 03:51:17 13.6 C 59 %
25 08-04-2020 04:01:17 13.6 C 59 %
Sensor: Nr:Datum:Temp:Feuchte:
G-T/H 26 08-04-2020 04:11:18 13.6 C 59 %
27 08-04-2020 04:21:17 13.5 C 59 %
28 08-04-2020 04:31:17 13.5 C 59 %
29 08-04-2020 04:41:17 13.5 C 59 %
30 08-04-2020 04:51:17 13.5 C 59 %
31 08-04-2020 05:01:18 13.4 C 59 %
32 08-04-2020 05:11:18 13.4 C 59 %
33 08-04-2020 05:21:17 13.4 C 60 %
34 08-04-2020 05:31:17 13.4 C 60 %
35 08-04-2020 05:41:18 13.3 C 60 %
36 08-04-2020 05:51:17 13.3 C 60 %
37 08-04-2020 06:01:17 13.3 C 60 %
38 08-04-2020 06:11:17 13.2 C 60 %
39 08-04-2020 06:21:17 13.2 C 60 %
40 08-04-2020 06:31:17 13.2 C 60 %
41 08-04-2020 06:41:17 13.1 C 60 %
42 08-04-2020 06:51:18 13.1 C 60 %
43 08-04-2020 07:01:18 13.1 C 60 %
44 08-04-2020 07:11:18 13.1 C 60 %
45 08-04-2020 07:21:17 13.1 C 60 %
46 08-04-2020 07:31:17 13 C 60 %
47 08-04-2020 07:41:17 13 C 60 %
48 08-04-2020 07:51:17 13 C 60 %
49 08-04-2020 08:01:17 13 C 60 %
50 08-04-2020 08:11:17 13 C 60 %
Sensor: Nr:Datum:Temp:Feuchte:
G-T/H 51 08-04-2020 08:21:17 13 C 60 %
52 08-04-2020 08:31:18 12.9 C 61 %
53 08-04-2020 08:41:18 12.9 C 61 %
54 08-04-2020 08:51:18 12.9 C 61 %
55 08-04-2020 09:01:18 12.9 C 61 %
56 08-04-2020 09:11:18 12.8 C 61 %
57 08-04-2020 09:21:17 12.8 C 62 %
58 08-04-2020 09:31:17 12.8 C 62 %
59 08-04-2020 09:41:17 12.8 C 62 %
60 08-04-2020 09:51:17 12.8 C 62 %
61 08-04-2020 10:01:17 12.8 C 62 %
62 08-04-2020 10:11:17 12.8 C 62 %
63 08-04-2020 10:21:17 12.7 C 62 %
64 08-04-2020 10:31:18 12.7 C 62 %
65 08-04-2020 10:41:18 12.7 C 62 %
66 08-04-2020 10:51:18 12.7 C 62 %
67 08-04-2020 11:01:18 12.7 C 62 %
68 08-04-2020 11:11:18 12.7 C 62 %
69 08-04-2020 11:21:17 12.7 C 62 %
70 08-04-2020 11:31:18 12.7 C 63 %
71 08-04-2020 11:41:18 12.7 C 63 %
72 08-04-2020 11:51:17 12.7 C 63 %
73 08-04-2020 12:01:18 12.7 C 63 %
74 08-04-2020 12:11:18 12.7 C 63 %
75 08-04-2020 12:21:17 12.7 C 63 %
Sensor: Nr:Datum:Temp:Feuchte:
G-T/H 76 08-04-2020 12:31:17 12.7 C 63 %
77 08-04-2020 12:41:17 12.7 C 63 %
78 08-04-2020 12:51:17 12.7 C 63 %
79 08-04-2020 13:01:18 12.7 C 63 %
80 08-04-2020 13:11:18 12.7 C 63 %
81 08-04-2020 13:21:17 12.7 C 63 %
82 08-04-2020 13:31:18 12.7 C 63 %
83 08-04-2020 13:41:18 12.7 C 63 %
84 08-04-2020 13:51:17 12.7 C 63 %
85 08-04-2020 14:01:18 12.7 C 63 %
86 08-04-2020 14:11:18 12.7 C 63 %
87 08-04-2020 14:21:17 12.8 C 63 %
88 08-04-2020 14:31:18 12.8 C 63 %
89 08-04-2020 14:41:18 12.8 C 63 %
90 08-04-2020 14:51:17 12.8 C 63 %
91 08-04-2020 15:01:17 12.8 C 63 %
92 08-04-2020 15:11:17 12.8 C 63 %
93 08-04-2020 15:21:18 12.8 C 63 %
94 08-04-2020 15:31:17 12.8 C 63 %
95 08-04-2020 15:41:17 12.8 C 63 %
96 08-04-2020 15:51:17 12.8 C 63 %
97 08-04-2020 16:01:17 12.9 C 63 %
98 08-04-2020 16:11:17 12.9 C 63 %
99 08-04-2020 16:21:18 12.9 C 63 %
100 08-04-2020 16:31:17 12.9 C 63 %
Sensor: Nr:Datum:Temp:Feuchte:
G-T/H 101 08-04-2020 16:41:17 13 C 62 %
102 08-04-2020 16:51:17 13 C 62 %
103 08-04-2020 17:01:17 13 C 62 %
104 08-04-2020 17:11:17 13 C 62 %
105 08-04-2020 17:21:17 13 C 62 %
106 08-04-2020 17:31:17 13 C 62 %
107 08-04-2020 17:41:17 13 C 62 %
108 08-04-2020 17:51:17 13.1 C 62 %
109 08-04-2020 18:01:17 13.1 C 62 %
110 08-04-2020 18:11:17 13.1 C 62 %
111 08-04-2020 18:21:17 13.1 C 61 %
112 08-04-2020 18:31:18 13.1 C 61 %
113 08-04-2020 18:41:18 13.1 C 61 %
114 08-04-2020 18:51:17 13.2 C 61 %
115 08-04-2020 19:01:17 13.2 C 61 %
116 08-04-2020 19:11:17 13.2 C 61 %
117 08-04-2020 19:21:17 13.2 C 61 %
118 08-04-2020 19:31:17 13.2 C 62 %
119 08-04-2020 19:41:17 13.2 C 62 %
120 08-04-2020 19:51:17 13.2 C 62 %
121 08-04-2020 20:01:17 13.2 C 62 %
122 08-04-2020 20:11:17 13.2 C 62 %
123 08-04-2020 20:21:18 13.2 C 62 %
124 08-04-2020 20:31:17 13.2 C 62 %
125 08-04-2020 20:41:18 13.2 C 62 %
Sensor: Nr:Datum:Temp:Feuchte:
G-T/H 126 08-04-2020 20:51:17 13.2 C 62 %
127 08-04-2020 21:01:18 13.2 C 62 %
128 08-04-2020 21:11:18 13.2 C 62 %
129 08-04-2020 21:21:17 13.2 C 62 %
130 08-04-2020 21:31:17 13.2 C 62 %
131 08-04-2020 21:41:17 13.2 C 62 %
132 08-04-2020 21:51:17 13.2 C 62 %
133 08-04-2020 22:01:17 13.2 C 62 %
134 08-04-2020 22:11:18 13.2 C 62 %
135 08-04-2020 22:21:17 13.2 C 62 %
136 08-04-2020 22:31:17 13.2 C 62 %
137 08-04-2020 22:41:17 13.2 C 62 %
138 08-04-2020 22:51:18 13.2 C 62 %
139 08-04-2020 23:01:17 13.2 C 63 %
140 08-04-2020 23:11:17 13.2 C 63 %
141 08-04-2020 23:21:17 13.2 C 63 %
142 08-04-2020 23:31:17 13.2 C 63 %
143 08-04-2020 23:41:17 13.2 C 63 %
144 08-04-2020 23:51:17 13.2 C 63 %
145 09-04-2020 00:01:18 13.2 C 63 %
146 09-04-2020 00:11:18 13.2 C 63 %
147 09-04-2020 00:21:17 13.2 C 63 %
148 09-04-2020 00:31:18 13.2 C 63 %
149 09-04-2020 00:41:18 13.2 C 63 %
150 09-04-2020 00:51:17 13.2 C 63 %
Sensor: Nr:Datum:Temp:Feuchte:
G-T/H 151 09-04-2020 01:01:17 13.2 C 63 %
152 09-04-2020 01:11:17 13.2 C 63 %
153 09-04-2020 01:21:17 13.1 C 63 %
154 09-04-2020 01:31:17 13.1 C 63 %
155 09-04-2020 01:41:17 13.1 C 63 %
156 09-04-2020 01:51:17 13.1 C 63 %
157 09-04-2020 02:01:17 13.1 C 63 %
158 09-04-2020 02:11:17 13.1 C 63 %
159 09-04-2020 02:21:18 13.1 C 63 %
160 09-04-2020 02:31:18 13.1 C 62 %
161 09-04-2020 02:41:18 13.1 C 62 %
162 09-04-2020 02:51:17 13.1 C 62 %
163 09-04-2020 03:01:17 13.1 C 62 %
164 09-04-2020 03:11:17 13.1 C 62 %
165 09-04-2020 03:21:17 13.1 C 62 %
166 09-04-2020 03:31:17 13 C 62 %
167 09-04-2020 03:41:17 13 C 62 %
168 09-04-2020 03:51:17 13 C 62 %
169 09-04-2020 04:01:17 13 C 62 %
170 09-04-2020 04:11:17 13.1 C 63 %
171 09-04-2020 04:21:17 13 C 62 %
172 09-04-2020 04:31:18 13 C 62 %
173 09-04-2020 04:41:18 13 C 62 %
174 09-04-2020 04:51:17 13 C 62 %
175 09-04-2020 05:01:17 13 C 62 %
Sensor: Nr:Datum:Temp:Feuchte:
G-T/H 176 09-04-2020 05:11:17 13 C 62 %
177 09-04-2020 05:21:17 13 C 62 %
178 09-04-2020 05:31:18 13 C 62 %
179 09-04-2020 05:41:18 13 C 62 %
180 09-04-2020 05:51:17 12.9 C 63 %
181 09-04-2020 06:01:18 12.9 C 63 %
182 09-04-2020 06:11:18 12.9 C 63 %
183 09-04-2020 06:21:17 12.9 C 63 %
184 09-04-2020 06:31:17 12.9 C 63 %
185 09-04-2020 06:41:17 12.9 C 63 %
186 09-04-2020 06:51:17 12.9 C 63 %
187 09-04-2020 07:01:17 12.8 C 63 %
188 09-04-2020 07:11:17 12.8 C 63 %
189 09-04-2020 07:21:17 12.8 C 63 %
190 09-04-2020 07:31:17 12.8 C 63 %
191 09-04-2020 07:41:17 12.8 C 63 %
192 09-04-2020 07:51:17 12.8 C 63 %
193 09-04-2020 08:01:17 12.8 C 63 %
194 09-04-2020 08:11:17 12.8 C 63 %
195 09-04-2020 08:21:18 12.8 C 63 %
196 09-04-2020 08:31:17 12.7 C 63 %
197 09-04-2020 08:41:17 12.8 C 63 %
198 09-04-2020 08:51:17 12.7 C 63 %
199 09-04-2020 09:01:17 12.7 C 63 %
200 09-04-2020 09:11:17 12.7 C 63 %
Sensor: Nr:Datum:Temp:Feuchte:
G-T/H 201 09-04-2020 09:21:17 12.7 C 63 %
202 09-04-2020 09:31:17 12.7 C 63 %
203 09-04-2020 09:41:17 12.7 C 63 %
204 09-04-2020 09:51:17 12.7 C 63 %
205 09-04-2020 10:01:17 12.7 C 64 %
206 09-04-2020 10:11:17 12.6 C 64 %
207 09-04-2020 10:21:17 12.7 C 64 %
208 09-04-2020 10:31:17 12.7 C 64 %
209 09-04-2020 10:41:17 12.7 C 64 %
210 09-04-2020 10:51:18 12.7 C 64 %
211 09-04-2020 11:01:17 12.7 C 64 %
212 09-04-2020 11:11:18 12.7 C 64 %
213 09-04-2020 11:21:17 12.7 C 64 %
214 09-04-2020 11:31:17 12.7 C 64 %
215 09-04-2020 11:41:17 12.6 C 64 %
216 09-04-2020 11:51:18 12.7 C 65 %
217 09-04-2020 12:01:17 12.7 C 65 %
218 09-04-2020 12:11:17 12.7 C 65 %
219 09-04-2020 12:21:17 12.7 C 65 %
220 09-04-2020 12:31:17 12.7 C 65 %
221 09-04-2020 12:41:17 12.7 C 65 %
222 09-04-2020 12:51:18 12.7 C 65 %
223 09-04-2020 13:01:17 12.7 C 65 %
224 09-04-2020 13:11:17 12.7 C 65 %
225 09-04-2020 13:21:17 12.7 C 65 %
Sensor: Nr:Datum:Temp:Feuchte:
G-T/H 226 09-04-2020 13:31:17 12.8 C 65 %
227 09-04-2020 13:41:18 12.8 C 65 %
228 09-04-2020 13:51:17 12.8 C 65 %
229 09-04-2020 14:01:17 12.8 C 65 %
230 09-04-2020 14:11:17 12.8 C 65 %
231 09-04-2020 14:21:17 12.8 C 65 %
232 09-04-2020 14:31:17 12.8 C 65 %
233 09-04-2020 14:41:17 12.9 C 65 %
234 09-04-2020 14:51:17 12.9 C 65 %
235 09-04-2020 15:01:17 12.9 C 65 %
236 09-04-2020 15:11:17 12.9 C 65 %
237 09-04-2020 15:21:17 13 C 64 %
238 09-04-2020 15:31:18 13 C 64 %
239 09-04-2020 15:41:18 13 C 64 %
240 09-04-2020 15:51:17 13 C 64 %
241 09-04-2020 16:01:18 13 C 64 %
242 09-04-2020 16:11:18 13 C 64 %
243 09-04-2020 16:21:17 13.1 C 64 %
244 09-04-2020 16:31:17 13.1 C 64 %
245 09-04-2020 16:41:17 13.1 C 64 %
246 09-04-2020 16:51:17 13.1 C 64 %
247 09-04-2020 17:01:17 13.1 C 64 %
248 09-04-2020 17:11:17 13.2 C 64 %
249 09-04-2020 17:21:17 13.9 C 62 %
250 09-04-2020 17:31:17 14.6 C 57 %
Sensor: Nr:Datum:Temp:Feuchte:
G-T/H 251 09-04-2020 17:41:17 15.2 C 52 %
252 09-04-2020 17:51:18 15.5 C 51 %
253 09-04-2020 18:01:18 15.6 C 50 %
254 09-04-2020 18:11:18 15.9 C 49 %
255 09-04-2020 18:21:17 16 C 48 %
256 09-04-2020 18:31:17 16.2 C 48 %
257 09-04-2020 18:41:17 16.2 C 48 %
258 09-04-2020 18:51:17 16.4 C 47 %
259 09-04-2020 19:01:18 16.4 C 47 %
260 09-04-2020 19:11:18 16.5 C 47 %
261 09-04-2020 19:21:17 16.6 C 47 %
262 09-04-2020 19:31:17 16.6 C 47 %
263 09-04-2020 19:41:17 16.6 C 47 %
264 09-04-2020 19:51:17 16.5 C 47 %
265 09-04-2020 20:01:17 16.5 C 47 %
266 09-04-2020 20:11:17 16.4 C 48 %
267 09-04-2020 20:21:17 16.2 C 48 %
268 09-04-2020 20:31:17 15.9 C 50 %
269 09-04-2020 20:41:17 15.8 C 51 %
270 09-04-2020 20:51:17 15.7 C 51 %
271 09-04-2020 21:01:17 15.6 C 51 %
272 09-04-2020 21:11:17 15.6 C 51 %
273 09-04-2020 21:21:17 15.6 C 51 %
274 09-04-2020 21:31:17 15.5 C 51 %
275 09-04-2020 21:41:17 15.4 C 51 %
Sensor: Nr:Datum:Temp:Feuchte:
G-T/H 276 09-04-2020 21:51:17 15.4 C 52 %
277 09-04-2020 22:01:17 15.2 C 52 %
278 09-04-2020 22:11:17 15.2 C 52 %
279 09-04-2020 22:21:17 15.2 C 52 %
280 09-04-2020 22:31:18 15.1 C 52 %
281 09-04-2020 22:41:18 15 C 52 %
282 09-04-2020 22:51:17 15 C 53 %
283 09-04-2020 23:01:18 15 C 54 %
284 09-04-2020 23:11:18 14.9 C 55 %
285 09-04-2020 23:21:17 14.8 C 56 %
286 09-04-2020 23:31:17 14.8 C 56 %
287 09-04-2020 23:41:18 14.8 C 56 %
288 09-04-2020 23:51:17 14.8 C 57 %
289 10-04-2020 00:01:17 14.7 C 57 %
290 10-04-2020 00:11:17 14.7 C 57 %
291 10-04-2020 00:21:18 14.7 C 57 %
292 10-04-2020 00:31:18 14.6 C 57 %
293 10-04-2020 00:41:18 14.6 C 58 %
294 10-04-2020 00:51:17 14.6 C 58 %
295 10-04-2020 01:01:17 14.5 C 58 %
296 10-04-2020 01:11:17 14.5 C 58 %
297 10-04-2020 01:21:17 14.5 C 58 %
298 10-04-2020 01:31:17 14.5 C 58 %
299 10-04-2020 01:41:17 14.4 C 58 %
300 10-04-2020 01:51:17 14.5 C 58 %
Sensor: Nr:Datum:Temp:Feuchte:
G-T/H 301 10-04-2020 02:01:17 14.4 C 58 %
302 10-04-2020 02:11:17 14.4 C 58 %
303 10-04-2020 02:21:18 14.4 C 58 %
304 10-04-2020 02:31:18 14.3 C 58 %
305 10-04-2020 02:41:18 14.3 C 58 %
306 10-04-2020 02:51:17 14.3 C 58 %
307 10-04-2020 03:01:18 14.2 C 58 %
308 10-04-2020 03:11:18 14.2 C 58 %
309 10-04-2020 03:21:17 14.2 C 58 %
310 10-04-2020 03:31:17 14.2 C 58 %
311 10-04-2020 03:41:17 14.2 C 58 %
312 10-04-2020 03:51:17 14.1 C 58 %
313 10-04-2020 04:01:18 14.1 C 58 %
314 10-04-2020 04:11:18 14.1 C 58 %
315 10-04-2020 04:21:17 14.1 C 58 %
316 10-04-2020 04:31:17 14.1 C 58 %
317 10-04-2020 04:41:17 14 C 58 %
318 10-04-2020 04:51:18 14 C 58 %
319 10-04-2020 05:01:17 14 C 58 %
320 10-04-2020 05:11:17 14 C 58 %
321 10-04-2020 05:21:18 14 C 58 %
322 10-04-2020 05:31:17 13.9 C 59 %
323 10-04-2020 05:41:17 13.9 C 59 %
324 10-04-2020 05:51:17 13.9 C 59 %
325 10-04-2020 06:01:17 13.8 C 59 %
Sensor: Nr:Datum:Temp:Feuchte:
G-T/H 326 10-04-2020 06:11:17 13.8 C 59 %
327 10-04-2020 06:21:17 13.8 C 59 %
328 10-04-2020 06:31:18 13.8 C 59 %
329 10-04-2020 06:41:18 13.8 C 59 %
330 10-04-2020 06:51:17 13.8 C 59 %
331 10-04-2020 07:01:18 13.7 C 59 %
332 10-04-2020 07:11:18 13.7 C 59 %
333 10-04-2020 07:21:17 13.7 C 59 %
334 10-04-2020 07:31:18 13.7 C 59 %
335 10-04-2020 07:41:18 13.6 C 59 %
336 10-04-2020 07:51:17 13.6 C 59 %
337 10-04-2020 08:01:17 13.6 C 59 %
338 10-04-2020 08:11:17 13.6 C 59 %
339 10-04-2020 08:21:17 13.6 C 59 %
340 10-04-2020 08:31:17 13.5 C 59 %
341 10-04-2020 08:41:17 13.5 C 59 %
342 10-04-2020 08:51:17 13.5 C 59 %
343 10-04-2020 09:01:17 13.4 C 59 %
344 10-04-2020 09:11:17 13.5 C 59 %
345 10-04-2020 09:21:18 13.4 C 59 %
346 10-04-2020 09:31:18 13.4 C 60 %
347 10-04-2020 09:41:18 13.4 C 60 %
348 10-04-2020 09:51:17 13.4 C 60 %
349 10-04-2020 10:01:17 13.3 C 60 %
350 10-04-2020 10:11:17 13.4 C 60 %
Sensor: Nr:Datum:Temp:Feuchte:
G-T/H 351 10-04-2020 10:21:17 13.3 C 60 %
352 10-04-2020 10:31:17 13.4 C 60 %
353 10-04-2020 10:41:17 13.3 C 61 %
354 10-04-2020 10:51:17 13.3 C 61 %
355 10-04-2020 11:01:17 13.3 C 61 %
356 10-04-2020 11:11:17 13.3 C 61 %
357 10-04-2020 11:21:17 13.3 C 61 %
358 10-04-2020 11:31:17 13.3 C 62 %
359 10-04-2020 11:41:17 13.3 C 62 %
360 10-04-2020 11:51:17 13.2 C 62 %
361 10-04-2020 12:01:17 13.3 C 62 %
362 10-04-2020 12:11:17 13.2 C 62 %
363 10-04-2020 12:21:17 13.2 C 62 %
364 10-04-2020 12:31:17 13.2 C 62 %
365 10-04-2020 12:41:17 13.2 C 62 %
366 10-04-2020 12:51:17 13.2 C 62 %
367 10-04-2020 13:01:17 13.3 C 62 %
368 10-04-2020 13:11:17 13.3 C 62 %
369 10-04-2020 13:21:17 13.3 C 62 %
370 10-04-2020 13:31:17 13.3 C 62 %
371 10-04-2020 13:41:17 13.3 C 62 %
372 10-04-2020 13:51:17 13.3 C 62 %
373 10-04-2020 14:01:17 13.3 C 63 %
374 10-04-2020 14:11:17 13.3 C 63 %
375 10-04-2020 14:21:18 13.4 C 63 %
Sensor: Nr:Datum:Temp:Feuchte:
G-T/H 376 10-04-2020 14:31:18 13.4 C 63 %
377 10-04-2020 14:41:18 13.4 C 63 %
378 10-04-2020 14:51:17 13.4 C 63 %
379 10-04-2020 15:01:17 13.4 C 63 %
380 10-04-2020 15:11:17 13.4 C 63 %
381 10-04-2020 15:21:17 13.4 C 63 %
382 10-04-2020 15:31:17 13.4 C 63 %
383 10-04-2020 15:41:17 13.4 C 63 %
384 10-04-2020 15:51:17 13.4 C 63 %
385 10-04-2020 16:01:17 13.4 C 63 %
386 10-04-2020 16:11:17 13.5 C 63 %
387 10-04-2020 16:21:17 13.5 C 63 %
388 10-04-2020 16:31:17 13.5 C 63 %
389 10-04-2020 16:41:17 13.5 C 63 %
390 10-04-2020 16:51:17 13.5 C 63 %
391 10-04-2020 17:01:17 13.5 C 63 %
392 10-04-2020 17:11:17 13.5 C 63 %
393 10-04-2020 17:21:17 13.5 C 63 %
394 10-04-2020 17:31:17 13.5 C 63 %
395 10-04-2020 17:41:17 13.6 C 63 %
396 10-04-2020 17:51:18 13.6 C 63 %
397 10-04-2020 18:01:17 13.6 C 63 %
398 10-04-2020 18:11:17 13.6 C 63 %
399 10-04-2020 18:21:18 13.6 C 63 %
400 10-04-2020 18:31:18 13.7 C 63 %
Sensor: Nr:Datum:Temp:Feuchte:
G-T/H 401 10-04-2020 18:41:18 13.8 C 62 %
402 10-04-2020 18:51:17 13.8 C 62 %
403 10-04-2020 19:01:17 13.8 C 62 %
404 10-04-2020 19:11:17 13.8 C 62 %
405 10-04-2020 19:21:17 13.8 C 62 %
406 10-04-2020 19:31:17 13.8 C 62 %
407 10-04-2020 19:41:17 13.8 C 62 %
408 10-04-2020 19:51:18 13.8 C 62 %
409 10-04-2020 20:01:17 13.8 C 63 %
410 10-04-2020 20:11:17 13.8 C 63 %
411 10-04-2020 20:21:18 13.8 C 63 %
412 10-04-2020 20:31:17 13.8 C 63 %
413 10-04-2020 20:41:17 13.8 C 63 %
414 10-04-2020 20:51:17 13.8 C 63 %
415 10-04-2020 21:01:17 13.8 C 63 %
416 10-04-2020 21:11:17 13.8 C 63 %
417 10-04-2020 21:21:17 13.8 C 63 %
418 10-04-2020 21:31:17 13.8 C 63 %
419 10-04-2020 21:41:17 13.8 C 63 %
420 10-04-2020 21:51:17 13.8 C 63 %
421 10-04-2020 22:01:18 13.8 C 63 %
422 10-04-2020 22:11:18 13.8 C 63 %
423 10-04-2020 22:21:18 13.8 C 63 %
424 10-04-2020 22:31:17 13.8 C 63 %
425 10-04-2020 22:41:17 13.8 C 63 %
Sensor: Nr:Datum:Temp:Feuchte:
G-T/H 426 10-04-2020 22:51:17 13.8 C 63 %
427 10-04-2020 23:01:17 13.8 C 63 %
428 10-04-2020 23:11:17 13.8 C 63 %
429 10-04-2020 23:21:17 13.8 C 63 %
430 10-04-2020 23:31:17 13.7 C 63 %
431 10-04-2020 23:41:17 13.7 C 63 %
432 10-04-2020 23:51:17 13.8 C 63 %
433 11-04-2020 00:01:18 13.8 C 63 %
434 11-04-2020 00:11:18 13.7 C 63 %
435 11-04-2020 00:21:17 13.8 C 63 %
436 11-04-2020 00:31:17 13.7 C 63 %
437 11-04-2020 00:41:18 13.7 C 63 %
438 11-04-2020 00:51:18 13.7 C 63 %
439 11-04-2020 01:01:17 13.7 C 63 %
440 11-04-2020 01:11:17 13.7 C 63 %
441 11-04-2020 01:21:17 13.7 C 63 %
442 11-04-2020 01:31:18 13.7 C 63 %
443 11-04-2020 01:41:18 13.7 C 63 %
444 11-04-2020 01:51:18 13.7 C 63 %
445 11-04-2020 02:01:17 13.7 C 63 %
446 11-04-2020 02:11:17 13.7 C 63 %
447 11-04-2020 02:21:18 13.7 C 62 %
448 11-04-2020 02:31:17 13.7 C 62 %
449 11-04-2020 02:41:17 13.6 C 62 %
450 11-04-2020 02:51:17 13.6 C 62 %
Sensor: Nr:Datum:Temp:Feuchte:
G-T/H 451 11-04-2020 03:01:17 13.6 C 62 %
452 11-04-2020 03:11:17 13.6 C 62 %
453 11-04-2020 03:21:17 13.5 C 61 %
454 11-04-2020 03:31:18 13.6 C 61 %
455 11-04-2020 03:41:18 13.5 C 61 %
456 11-04-2020 03:51:17 13.5 C 61 %
457 11-04-2020 04:01:17 13.5 C 61 %
458 11-04-2020 04:11:17 13.5 C 61 %
459 11-04-2020 04:21:17 13.5 C 60 %
460 11-04-2020 04:31:17 13.5 C 60 %
461 11-04-2020 04:41:17 13.4 C 59 %
462 11-04-2020 04:51:17 13.4 C 59 %
463 11-04-2020 05:01:17 13.4 C 58 %
464 11-04-2020 05:11:17 13.4 C 58 %
465 11-04-2020 05:21:17 13.4 C 58 %
466 11-04-2020 05:31:18 13.4 C 58 %
467 11-04-2020 05:41:18 13.3 C 58 %
468 11-04-2020 05:51:17 13.3 C 58 %
469 11-04-2020 06:01:17 13.3 C 58 %
470 11-04-2020 06:11:17 13.3 C 58 %
471 11-04-2020 06:21:17 13.3 C 58 %
472 11-04-2020 06:31:18 13.3 C 58 %
473 11-04-2020 06:41:18 13.2 C 58 %
474 11-04-2020 06:51:17 13.2 C 58 %
475 11-04-2020 07:01:18 13.2 C 58 %
Sensor: Nr:Datum:Temp:Feuchte:
G-T/H 476 11-04-2020 07:11:18 13.2 C 58 %
477 11-04-2020 07:21:17 13.2 C 58 %
478 11-04-2020 07:31:18 13.1 C 58 %
479 11-04-2020 07:41:18 13.2 C 58 %
480 11-04-2020 07:51:17 13.1 C 58 %
481 11-04-2020 08:01:18 13.1 C 58 %
482 11-04-2020 08:11:18 13.1 C 58 %
483 11-04-2020 08:21:18 13.1 C 58 %
484 11-04-2020 08:31:18 13.1 C 58 %
485 11-04-2020 08:41:18 13 C 58 %
486 11-04-2020 08:51:18 13 C 58 %
487 11-04-2020 09:01:17 13.1 C 58 %
488 11-04-2020 09:11:18 13 C 59 %
489 11-04-2020 09:21:17 13 C 59 %
490 11-04-2020 09:31:18 13 C 59 %
491 11-04-2020 09:41:18 13 C 59 %
492 11-04-2020 09:51:17 13 C 59 %
493 11-04-2020 10:01:17 12.9 C 60 %
494 11-04-2020 10:11:17 13 C 59 %
495 11-04-2020 10:21:17 13 C 59 %
496 11-04-2020 10:31:17 12.9 C 60 %
497 11-04-2020 10:41:17 12.9 C 60 %
498 11-04-2020 10:51:17 12.9 C 61 %
499 11-04-2020 11:01:18 12.9 C 61 %
500 11-04-2020 11:11:18 12.9 C 61 %
Sensor: Nr:Datum:Temp:Feuchte:
G-T/H 501 11-04-2020 11:21:17 12.9 C 61 %
502 11-04-2020 11:31:17 12.9 C 62 %
503 11-04-2020 11:41:18 12.9 C 62 %
504 11-04-2020 11:51:17 12.9 C 62 %
505 11-04-2020 12:01:17 12.9 C 62 %
506 11-04-2020 12:11:17 13 C 61 %
507 11-04-2020 12:21:18 12.9 C 62 %
508 11-04-2020 12:31:17 13 C 62 %
509 11-04-2020 12:41:17 13 C 62 %
510 11-04-2020 12:51:17 13 C 62 %
511 11-04-2020 13:01:17 13 C 62 %
512 11-04-2020 13:11:17 13 C 62 %
513 11-04-2020 13:21:17 13 C 62 %
514 11-04-2020 13:31:17 13 C 62 %
515 11-04-2020 13:41:17 13 C 62 %
516 11-04-2020 13:51:17 13 C 62 %
517 11-04-2020 14:01:18 13 C 61 %
518 11-04-2020 14:11:18 13 C 61 %
519 11-04-2020 14:21:17 13 C 61 %
520 11-04-2020 14:31:17 13 C 62 %
521 11-04-2020 14:41:17 13.1 C 62 %
522 11-04-2020 14:51:18 13 C 62 %
523 11-04-2020 15:01:18 13.1 C 62 %
524 11-04-2020 15:11:18 13.1 C 62 %
525 11-04-2020 15:21:17 13.1 C 62 %
Sensor: Nr:Datum:Temp:Feuchte:
G-T/H 526 11-04-2020 15:31:17 13.1 C 62 %
527 11-04-2020 15:41:17 13.1 C 62 %
528 11-04-2020 15:51:18 13.1 C 62 %
529 11-04-2020 16:01:17 13.2 C 62 %
530 11-04-2020 16:11:17 13.2 C 62 %
531 11-04-2020 16:21:18 13.2 C 62 %
532 11-04-2020 16:31:17 13.2 C 63 %
533 11-04-2020 16:41:17 13.2 C 63 %
534 11-04-2020 16:51:17 13.2 C 63 %
535 11-04-2020 17:01:17 13.2 C 63 %
536 11-04-2020 17:11:17 13.2 C 63 %
537 11-04-2020 17:21:17 13.2 C 63 %
538 11-04-2020 17:31:17 13.3 C 63 %
539 11-04-2020 17:41:17 13.3 C 63 %
540 11-04-2020 17:51:17 13.3 C 63 %
541 11-04-2020 18:01:17 13.3 C 63 %
542 11-04-2020 18:11:17 13.3 C 63 %
543 11-04-2020 18:21:17 13.4 C 63 %
544 11-04-2020 18:31:17 13.4 C 63 %
545 11-04-2020 18:41:17 13.4 C 63 %
546 11-04-2020 18:51:17 13.5 C 63 %
547 11-04-2020 19:01:17 13.5 C 63 %
548 11-04-2020 19:11:17 13.5 C 63 %
549 11-04-2020 19:21:18 13.6 C 63 %
550 11-04-2020 19:31:17 13.5 C 63 %
Sensor: Nr:Datum:Temp:Feuchte:
G-T/H 551 11-04-2020 19:41:17 13.6 C 63 %
552 11-04-2020 19:51:17 13.6 C 63 %
553 11-04-2020 20:01:17 13.5 C 63 %
554 11-04-2020 20:11:17 13.5 C 63 %
555 11-04-2020 20:21:17 13.5 C 63 %
556 11-04-2020 20:31:17 13.5 C 63 %
557 11-04-2020 20:41:17 13.5 C 63 %
558 11-04-2020 20:51:17 13.5 C 63 %
559 11-04-2020 21:01:18 13.5 C 63 %
560 11-04-2020 21:11:18 13.5 C 63 %
561 11-04-2020 21:21:18 13.5 C 63 %
562 11-04-2020 21:31:17 13.6 C 63 %
563 11-04-2020 21:41:17 13.6 C 63 %
564 11-04-2020 21:51:17 13.6 C 63 %
565 11-04-2020 22:01:17 13.6 C 63 %
566 11-04-2020 22:11:17 13.6 C 63 %
567 11-04-2020 22:21:17 13.5 C 63 %
568 11-04-2020 22:31:18 13.5 C 63 %
569 11-04-2020 22:41:18 13.6 C 63 %
570 11-04-2020 22:51:17 13.6 C 63 %
571 11-04-2020 23:01:17 13.6 C 63 %
572 11-04-2020 23:11:17 13.6 C 63 %
573 11-04-2020 23:21:18 13.6 C 63 %
574 11-04-2020 23:31:18 13.5 C 63 %
575 11-04-2020 23:41:18 13.6 C 63 %
Sensor: Nr:Datum:Temp:Feuchte:
G-T/H 576 11-04-2020 23:51:17 13.6 C 63 %
577 12-04-2020 00:01:17 13.6 C 63 %
578 12-04-2020 00:11:17 13.6 C 63 %
579 12-04-2020 00:21:17 13.6 C 63 %
580 12-04-2020 00:31:17 13.6 C 63 %
581 12-04-2020 00:41:17 13.6 C 63 %
582 12-04-2020 00:51:17 13.5 C 63 %
583 12-04-2020 01:01:17 13.6 C 63 %
584 12-04-2020 01:11:17 13.5 C 63 %
585 12-04-2020 01:21:17 13.6 C 64 %
586 12-04-2020 01:31:18 13.6 C 64 %
587 12-04-2020 01:41:18 13.5 C 64 %
588 12-04-2020 01:51:17 13.5 C 63 %
589 12-04-2020 02:01:18 13.5 C 63 %
590 12-04-2020 02:11:18 13.5 C 63 %
591 12-04-2020 02:21:18 13.5 C 63 %
592 12-04-2020 02:31:17 13.5 C 63 %
593 12-04-2020 02:41:17 13.5 C 63 %
594 12-04-2020 02:51:17 13.5 C 63 %
595 12-04-2020 03:01:17 13.5 C 63 %
596 12-04-2020 03:11:17 13.5 C 63 %
597 12-04-2020 03:21:17 13.5 C 63 %
598 12-04-2020 03:31:17 13.5 C 63 %
599 12-04-2020 03:41:18 13.5 C 63 %
600 12-04-2020 03:51:17 13.5 C 63 %
Sensor: Nr:Datum:Temp:Feuchte:
G-T/H 601 12-04-2020 04:01:17 13.5 C 63 %
602 12-04-2020 04:11:17 13.4 C 63 %
603 12-04-2020 04:21:17 13.5 C 63 %
604 12-04-2020 04:31:17 13.5 C 63 %
605 12-04-2020 04:41:17 13.4 C 63 %
606 12-04-2020 04:51:17 13.4 C 63 %
607 12-04-2020 05:01:18 13.4 C 62 %
608 12-04-2020 05:11:18 13.4 C 62 %
609 12-04-2020 05:21:17 13.4 C 62 %
610 12-04-2020 05:31:17 13.4 C 62 %
611 12-04-2020 05:41:17 13.4 C 62 %
612 12-04-2020 05:51:17 13.4 C 62 %
613 12-04-2020 06:01:17 13.4 C 62 %
614 12-04-2020 06:11:17 13.4 C 62 %
615 12-04-2020 06:21:17 13.3 C 62 %
616 12-04-2020 06:31:17 13.3 C 62 %
617 12-04-2020 06:41:17 13.3 C 62 %
618 12-04-2020 06:51:17 13.3 C 62 %
619 12-04-2020 07:01:17 13.3 C 61 %
620 12-04-2020 07:11:17 13.3 C 61 %
621 12-04-2020 07:21:17 13.3 C 61 %
622 12-04-2020 07:31:17 13.2 C 61 %
623 12-04-2020 07:41:17 13.2 C 61 %
624 12-04-2020 07:51:18 13.2 C 61 %
625 12-04-2020 08:01:17 13.2 C 61 %
Sensor: Nr:Datum:Temp:Feuchte:
G-T/H 626 12-04-2020 08:11:17 13.2 C 61 %
627 12-04-2020 08:21:17 13.2 C 61 %
628 12-04-2020 08:31:17 13.2 C 61 %
629 12-04-2020 08:41:18 13.2 C 61 %
630 12-04-2020 08:51:17 13.2 C 62 %
631 12-04-2020 09:01:18 13.2 C 62 %
632 12-04-2020 09:11:18 13.2 C 62 %
633 12-04-2020 09:21:17 13.1 C 62 %
634 12-04-2020 09:31:17 13.1 C 62 %
635 12-04-2020 09:41:17 13.1 C 62 %
636 12-04-2020 09:51:17 13.1 C 62 %
637 12-04-2020 10:01:17 13.1 C 62 %
638 12-04-2020 10:11:17 13.1 C 63 %
639 12-04-2020 10:21:17 13.1 C 63 %
640 12-04-2020 10:31:18 13.1 C 63 %
641 12-04-2020 10:41:18 13.1 C 63 %
642 12-04-2020 10:51:17 13.1 C 63 %
643 12-04-2020 11:01:17 13.1 C 63 %
644 12-04-2020 11:11:17 13.1 C 63 %
645 12-04-2020 11:21:17 13.1 C 63 %
646 12-04-2020 11:31:17 13.1 C 64 %
647 12-04-2020 11:41:17 13.1 C 64 %
648 12-04-2020 11:51:17 13.1 C 64 %
649 12-04-2020 12:01:17 13.1 C 64 %
650 12-04-2020 12:11:17 13.1 C 64 %
Sensor: Nr:Datum:Temp:Feuchte:
G-T/H 651 12-04-2020 12:21:17 13.1 C 64 %
652 12-04-2020 12:31:17 13.1 C 64 %
653 12-04-2020 12:41:17 13.2 C 64 %
654 12-04-2020 12:51:18 13.2 C 64 %
655 12-04-2020 13:01:17 13.2 C 64 %
656 12-04-2020 13:11:17 13.2 C 64 %
657 12-04-2020 13:21:17 13.2 C 64 %
658 12-04-2020 13:31:17 13.2 C 64 %
659 12-04-2020 13:41:17 13.2 C 64 %
660 12-04-2020 13:51:17 13.2 C 64 %
661 12-04-2020 14:01:17 13.2 C 64 %
662 12-04-2020 14:11:17 13.2 C 64 %
663 12-04-2020 14:21:17 13.3 C 64 %
664 12-04-2020 14:31:17 13.3 C 64 %
665 12-04-2020 14:41:17 13.3 C 64 %
666 12-04-2020 14:51:17 13.3 C 64 %
667 12-04-2020 15:01:17 13.4 C 64 %
668 12-04-2020 15:11:17 13.3 C 64 %
669 12-04-2020 15:21:17 13.4 C 64 %
670 12-04-2020 15:31:18 13.4 C 64 %
671 12-04-2020 15:41:18 13.4 C 64 %
672 12-04-2020 15:51:18 13.4 C 64 %
673 12-04-2020 16:01:17 13.4 C 64 %
674 12-04-2020 16:11:17 13.4 C 64 %
675 12-04-2020 16:21:17 13.4 C 64 %
Sensor: Nr:Datum:Temp:Feuchte:
G-T/H 676 12-04-2020 16:31:17 13.5 C 64 %
677 12-04-2020 16:41:17 13.5 C 64 %
678 12-04-2020 16:51:17 13.5 C 64 %
679 12-04-2020 17:01:17 13.5 C 64 %
680 12-04-2020 17:11:18 13.6 C 64 %
681 12-04-2020 17:21:17 13.6 C 64 %
682 12-04-2020 17:31:17 13.6 C 64 %
683 12-04-2020 17:41:17 13.6 C 64 %
684 12-04-2020 17:51:17 13.6 C 64 %
685 12-04-2020 18:01:18 13.6 C 64 %
686 12-04-2020 18:11:18 13.7 C 64 %
687 12-04-2020 18:21:17 13.7 C 64 %
688 12-04-2020 18:31:17 13.7 C 64 %
689 12-04-2020 18:41:17 13.7 C 64 %
690 12-04-2020 18:51:17 13.7 C 64 %
691 12-04-2020 19:01:17 13.8 C 64 %
692 12-04-2020 19:11:17 13.8 C 64 %
693 12-04-2020 19:21:17 13.8 C 64 %
694 12-04-2020 19:31:17 13.8 C 64 %
695 12-04-2020 19:41:17 13.8 C 64 %
696 12-04-2020 19:51:18 13.8 C 64 %
697 12-04-2020 20:01:18 13.8 C 64 %
698 12-04-2020 20:11:18 13.8 C 64 %
699 12-04-2020 20:21:17 13.8 C 64 %
700 12-04-2020 20:31:18 13.8 C 64 %
Sensor: Nr:Datum:Temp:Feuchte:
G-T/H 701 12-04-2020 20:41:18 13.8 C 64 %
702 12-04-2020 20:51:17 13.8 C 64 %
703 12-04-2020 21:01:17 13.8 C 64 %
704 12-04-2020 21:11:17 13.8 C 64 %
705 12-04-2020 21:22:17 13.8 C 64 %
706 12-04-2020 21:31:17 13.8 C 64 %
707 12-04-2020 21:41:17 13.8 C 64 %
708 12-04-2020 21:51:17 13.8 C 64 %
709 12-04-2020 22:01:17 13.8 C 64 %
710 12-04-2020 22:11:17 13.8 C 64 %
711 12-04-2020 22:22:17 13.8 C 64 %
712 12-04-2020 22:32:17 13.8 C 64 %
713 12-04-2020 22:42:17 13.8 C 64 %
714 12-04-2020 22:51:17 13.8 C 64 %
715 12-04-2020 23:01:18 13.8 C 64 %
716 12-04-2020 23:11:18 13.8 C 64 %
717 12-04-2020 23:21:17 13.8 C 64 %
718 12-04-2020 23:32:17 13.8 C 64 %
719 12-04-2020 23:41:17 13.8 C 64 %
720 12-04-2020 23:52:17 13.8 C 64 %
721 13-04-2020 00:01:17 13.8 C 64 %
722 13-04-2020 00:11:17 13.8 C 64 %
723 13-04-2020 00:21:18 13.8 C 64 %
724 13-04-2020 00:31:17 13.8 C 64 %
725 13-04-2020 00:41:17 13.8 C 64 %
Sensor: Nr:Datum:Temp:Feuchte:
G-T/H 726 13-04-2020 00:51:17 13.8 C 63 %
727 13-04-2020 01:01:18 13.8 C 63 %
728 13-04-2020 01:11:18 13.8 C 63 %
729 13-04-2020 01:21:18 13.8 C 63 %
730 13-04-2020 01:31:18 13.8 C 63 %
731 13-04-2020 01:41:18 13.8 C 63 %
732 13-04-2020 01:51:18 13.8 C 63 %
733 13-04-2020 02:02:17 13.8 C 63 %
734 13-04-2020 02:12:17 13.8 C 62 %
735 13-04-2020 02:21:17 13.7 C 62 %
736 13-04-2020 02:31:18 13.7 C 62 %
737 13-04-2020 02:41:18 13.7 C 62 %
738 13-04-2020 02:51:17 13.7 C 62 %
739 13-04-2020 03:01:18 13.7 C 62 %
740 13-04-2020 03:11:18 13.7 C 62 %
741 13-04-2020 03:22:17 13.7 C 62 %
742 13-04-2020 03:32:17 13.7 C 62 %
743 13-04-2020 03:42:17 13.7 C 61 %
744 13-04-2020 03:51:17 13.6 C 61 %
745 13-04-2020 04:02:17 13.7 C 61 %
746 13-04-2020 04:12:17 13.6 C 61 %
747 13-04-2020 04:21:18 13.6 C 61 %
748 13-04-2020 04:32:17 13.6 C 61 %
749 13-04-2020 04:41:17 13.6 C 61 %
750 13-04-2020 04:52:17 13.6 C 61 %
Sensor: Nr:Datum:Temp:Feuchte:
G-T/H 751 13-04-2020 05:02:17 13.6 C 61 %
752 13-04-2020 05:12:17 13.6 C 61 %
753 13-04-2020 05:22:17 13.5 C 61 %
754 13-04-2020 05:32:17 13.5 C 61 %
755 13-04-2020 05:42:17 13.5 C 61 %
756 13-04-2020 05:52:17 13.5 C 61 %
757 13-04-2020 06:02:17 13.5 C 61 %
758 13-04-2020 06:12:17 13.5 C 61 %
759 13-04-2020 06:22:17 13.5 C 61 %
760 13-04-2020 06:32:17 13.5 C 61 %
761 13-04-2020 06:42:17 13.4 C 61 %
762 13-04-2020 06:52:17 13.4 C 61 %
763 13-04-2020 07:02:17 13.4 C 61 %
764 13-04-2020 07:12:17 13.4 C 61 %
765 13-04-2020 07:22:17 13.4 C 61 %
766 13-04-2020 07:32:17 13.4 C 61 %
767 13-04-2020 07:42:17 13.4 C 61 %
768 13-04-2020 07:52:17 13.4 C 61 %
769 13-04-2020 08:02:17 13.3 C 61 %
770 13-04-2020 08:12:18 13.3 C 61 %
771 13-04-2020 08:22:17 13.3 C 61 %
772 13-04-2020 08:32:17 13.3 C 61 %
773 13-04-2020 08:42:17 13.3 C 61 %
774 13-04-2020 08:52:17 13.3 C 61 %
775 13-04-2020 09:02:17 13.3 C 62 %
Sensor: Nr:Datum:Temp:Feuchte:
G-T/H 776 13-04-2020 09:12:17 13.3 C 62 %
777 13-04-2020 09:22:17 13.2 C 62 %
778 13-04-2020 09:32:17 13.3 C 62 %
779 13-04-2020 09:42:17 13.3 C 62 %
780 13-04-2020 09:52:17 13.3 C 63 %
781 13-04-2020 10:02:17 13.2 C 63 %
782 13-04-2020 10:12:17 13.2 C 63 %
783 13-04-2020 10:22:17 13.2 C 63 %
784 13-04-2020 10:32:17 13.2 C 63 %
785 13-04-2020 10:42:17 13.2 C 63 %
786 13-04-2020 10:52:17 13.2 C 63 %
787 13-04-2020 11:02:17 13.2 C 63 %
788 13-04-2020 11:12:17 13.2 C 63 %
789 13-04-2020 11:22:17 13.2 C 63 %
790 13-04-2020 11:32:17 13.2 C 62 %
791 13-04-2020 11:42:17 13.2 C 62 %
792 13-04-2020 11:52:16 13.1 C 62 %
793 13-04-2020 12:02:17 13.1 C 62 %
794 13-04-2020 12:12:17 13.1 C 61 %
795 13-04-2020 12:22:17 13.1 C 61 %
796 13-04-2020 12:32:17 13.1 C 61 %
797 13-04-2020 12:42:17 13.1 C 61 %
798 13-04-2020 12:52:17 13.1 C 61 %
799 13-04-2020 13:02:16 13.1 C 61 %
800 13-04-2020 13:12:16 13.1 C 61 %
Sensor: Nr:Datum:Temp:Feuchte:
G-T/H 801 13-04-2020 13:22:17 13 C 61 %
802 13-04-2020 13:32:17 13 C 61 %
803 13-04-2020 13:42:17 13 C 60 %
804 13-04-2020 13:52:17 13 C 60 %
805 13-04-2020 14:02:17 13 C 61 %
806 13-04-2020 14:12:17 13 C 61 %
807 13-04-2020 14:22:16 13 C 61 %
808 13-04-2020 14:32:17 13 C 61 %
809 13-04-2020 14:42:17 13 C 61 %
810 13-04-2020 14:52:16 13 C 62 %
811 13-04-2020 15:02:17 13 C 61 %
812 13-04-2020 15:12:17 13 C 61 %
813 13-04-2020 15:22:17 13 C 61 %
814 13-04-2020 15:32:17 13 C 61 %
815 13-04-2020 15:42:17 13 C 60 %
816 13-04-2020 15:52:16 12.9 C 61 %
817 13-04-2020 16:02:16 12.9 C 60 %
818 13-04-2020 16:12:16 12.9 C 58 %
819 13-04-2020 16:22:16 12.9 C 58 %
820 13-04-2020 16:32:17 12.9 C 57 %
821 13-04-2020 16:42:17 12.9 C 56 %
822 13-04-2020 16:52:16 12.9 C 56 %
823 13-04-2020 17:02:17 12.9 C 56 %
824 13-04-2020 17:12:17 12.8 C 56 %
825 13-04-2020 17:22:16 12.8 C 56 %
Sensor: Nr:Datum:Temp:Feuchte:
G-T/H 826 13-04-2020 17:32:16 12.8 C 56 %
827 13-04-2020 17:42:16 12.8 C 56 %
828 13-04-2020 17:52:16 12.8 C 55 %
829 13-04-2020 18:02:16 12.8 C 55 %
830 13-04-2020 18:12:16 12.8 C 56 %
831 13-04-2020 18:22:17 12.8 C 56 %
832 13-04-2020 18:32:17 12.8 C 57 %
833 13-04-2020 18:42:18 12.8 C 57 %
834 13-04-2020 18:52:16 12.8 C 57 %
835 13-04-2020 19:02:16 12.8 C 57 %
836 13-04-2020 19:12:16 12.8 C 57 %
837 13-04-2020 19:22:16 12.8 C 56 %
838 13-04-2020 19:32:17 12.8 C 56 %
839 13-04-2020 19:42:17 12.7 C 56 %
840 13-04-2020 19:52:16 12.8 C 56 %
841 13-04-2020 20:02:16 12.7 C 55 %
842 13-04-2020 20:12:16 12.7 C 55 %
843 13-04-2020 20:22:16 12.7 C 55 %
844 13-04-2020 20:32:16 12.7 C 55 %
845 13-04-2020 20:42:16 12.7 C 55 %
846 13-04-2020 20:52:16 12.7 C 55 %
847 13-04-2020 21:02:16 12.6 C 55 %
848 13-04-2020 21:12:16 12.7 C 55 %
849 13-04-2020 21:22:16 12.6 C 55 %
850 13-04-2020 21:32:17 12.6 C 55 %
Sensor: Nr:Datum:Temp:Feuchte:
G-T/H 851 13-04-2020 21:42:17 12.6 C 55 %
852 13-04-2020 21:52:16 12.6 C 55 %
853 13-04-2020 22:02:16 12.6 C 55 %
854 13-04-2020 22:12:16 12.6 C 56 %
855 13-04-2020 22:22:16 12.5 C 56 %
856 13-04-2020 22:32:16 12.5 C 56 %
857 13-04-2020 22:42:16 12.5 C 56 %
858 13-04-2020 22:52:16 12.5 C 56 %
859 13-04-2020 23:02:16 12.5 C 56 %
860 13-04-2020 23:12:16 12.5 C 56 %
861 13-04-2020 23:22:16 12.5 C 56 %
862 13-04-2020 23:32:17 12.5 C 56 %
863 13-04-2020 23:42:17 12.4 C 56 %
864 13-04-2020 23:52:16 12.4 C 57 %
865 14-04-2020 00:02:16 12.4 C 57 %
866 14-04-2020 00:12:16 12.4 C 57 %
867 14-04-2020 00:22:16 12.4 C 56 %
868 14-04-2020 00:32:16 12.4 C 57 %
869 14-04-2020 00:42:16 12.3 C 57 %
870 14-04-2020 00:52:16 12.3 C 57 %
871 14-04-2020 01:02:16 12.3 C 57 %
872 14-04-2020 01:12:16 12.3 C 57 %
873 14-04-2020 01:22:16 12.2 C 57 %
874 14-04-2020 01:32:16 12.2 C 57 %
875 14-04-2020 01:42:16 12.2 C 57 %
Sensor: Nr:Datum:Temp:Feuchte:
G-T/H 876 14-04-2020 01:52:16 12.2 C 57 %
877 14-04-2020 02:02:16 12.2 C 57 %
878 14-04-2020 02:12:16 12.2 C 57 %
879 14-04-2020 02:22:16 12.1 C 57 %
880 14-04-2020 02:32:16 12.1 C 57 %
881 14-04-2020 02:42:16 12.1 C 57 %
882 14-04-2020 02:52:18 12.1 C 57 %
883 14-04-2020 03:02:18 12 C 57 %
884 14-04-2020 03:12:18 12 C 57 %
885 14-04-2020 03:22:17 12 C 57 %
886 14-04-2020 03:32:18 11.9 C 58 %
887 14-04-2020 03:42:18 11.9 C 58 %
888 14-04-2020 03:52:17 11.9 C 58 %
889 14-04-2020 04:02:18 11.9 C 58 %
890 14-04-2020 04:12:18 11.9 C 58 %
891 14-04-2020 04:22:17 11.8 C 58 %
892 14-04-2020 04:32:17 11.8 C 58 %
893 14-04-2020 04:42:17 11.8 C 58 %
894 14-04-2020 04:52:18 11.8 C 57 %
895 14-04-2020 05:02:17 11.7 C 57 %
896 14-04-2020 05:12:17 11.7 C 57 %
897 14-04-2020 05:22:17 11.7 C 57 %
898 14-04-2020 05:32:17 11.7 C 57 %
899 14-04-2020 05:42:17 11.7 C 57 %
900 14-04-2020 05:52:17 11.7 C 57 %
Sensor: Nr:Datum:Temp:Feuchte:
G-T/H 901 14-04-2020 06:02:17 11.6 C 57 %
902 14-04-2020 06:12:17 11.6 C 57 %
903 14-04-2020 06:22:17 11.5 C 57 %
904 14-04-2020 06:32:17 11.5 C 57 %
905 14-04-2020 06:42:17 11.5 C 57 %
906 14-04-2020 06:52:17 11.5 C 58 %
907 14-04-2020 07:02:17 11.5 C 58 %
908 14-04-2020 07:12:17 11.4 C 58 %
909 14-04-2020 07:22:17 11.4 C 58 %
910 14-04-2020 07:32:17 11.4 C 58 %
911 14-04-2020 07:42:17 11.3 C 58 %
912 14-04-2020 07:52:18 11.3 C 58 %
913 14-04-2020 08:02:17 11.3 C 58 %
914 14-04-2020 08:12:17 11.3 C 58 %
915 14-04-2020 08:22:18 11.3 C 58 %
916 14-04-2020 08:32:17 11.3 C 58 %
917 14-04-2020 08:42:17 11.2 C 58 %
918 14-04-2020 08:52:17 11.2 C 58 %
919 14-04-2020 09:02:18 11.2 C 58 %
920 14-04-2020 09:12:18 11.2 C 59 %
921 14-04-2020 09:22:17 11.2 C 59 %
922 14-04-2020 09:32:18 11.2 C 59 %
923 14-04-2020 09:42:18 11.2 C 59 %
924 14-04-2020 09:52:17 11.1 C 59 %
925 14-04-2020 10:02:17 11.1 C 59 %
Sensor: Nr:Datum:Temp:Feuchte:
G-T/H 926 14-04-2020 10:12:17 11.1 C 59 %
927 14-04-2020 10:22:17 11.1 C 59 %
928 14-04-2020 10:32:17 11.1 C 59 %
929 14-04-2020 10:42:17 11.1 C 59 %
930 14-04-2020 10:52:18 11.1 C 59 %
931 14-04-2020 11:02:17 11.1 C 59 %
932 14-04-2020 11:12:17 11.1 C 59 %
933 14-04-2020 11:22:17 11.1 C 59 %
934 14-04-2020 11:32:17 11.1 C 59 %
935 14-04-2020 11:42:17 11.1 C 59 %
936 14-04-2020 11:52:18 11.1 C 59 %
937 14-04-2020 12:02:17 11 C 59 %
938 14-04-2020 12:12:17 11 C 59 %
939 14-04-2020 12:22:17 11 C 59 %
940 14-04-2020 12:32:17 11 C 59 %
941 14-04-2020 12:42:17 11 C 59 %
942 14-04-2020 12:52:17 11 C 59 %
943 14-04-2020 13:02:18 11 C 59 %
944 14-04-2020 13:12:18 11.1 C 59 %
945 14-04-2020 13:22:17 11.1 C 59 %
946 14-04-2020 13:32:17 11 C 59 %
947 14-04-2020 13:42:17 11 C 59 %
948 14-04-2020 13:52:18 11.1 C 59 %
949 14-04-2020 14:02:17 11 C 59 %
950 14-04-2020 14:12:18 11.1 C 59 %
Sensor: Nr:Datum:Temp:Feuchte:
G-T/H 951 14-04-2020 14:22:18 11.1 C 59 %
952 14-04-2020 14:32:18 11.1 C 59 %
953 14-04-2020 14:42:18 11.1 C 59 %
954 14-04-2020 14:52:17 11.1 C 60 %
955 14-04-2020 15:02:17 11.1 C 60 %
956 14-04-2020 15:12:18 11.1 C 60 %
957 14-04-2020 15:22:17 11.1 C 60 %
958 14-04-2020 15:32:17 11.1 C 60 %
959 14-04-2020 15:42:17 11.2 C 60 %
960 14-04-2020 15:52:17 11.2 C 60 %
961 14-04-2020 16:02:17 11.2 C 60 %
962 14-04-2020 16:12:17 11.2 C 60 %
963 14-04-2020 16:22:17 11.2 C 60 %
964 14-04-2020 16:32:18 11.2 C 60 %
965 14-04-2020 16:42:18 11.2 C 60 %
966 14-04-2020 16:52:17 11.2 C 60 %
967 14-04-2020 17:02:18 11.2 C 60 %
968 14-04-2020 17:12:18 11.2 C 60 %
969 14-04-2020 17:22:17 11.2 C 60 %
970 14-04-2020 17:32:17 11.2 C 60 %
971 14-04-2020 17:42:18 11.2 C 60 %
972 14-04-2020 17:52:17 11.3 C 60 %
973 14-04-2020 18:02:18 11.3 C 60 %
974 14-04-2020 18:12:18 11.3 C 60 %
975 14-04-2020 18:22:17 11.3 C 60 %
Sensor: Nr:Datum:Temp:Feuchte:
G-T/H 976 14-04-2020 18:32:18 11.3 C 60 %
977 14-04-2020 18:42:18 11.3 C 60 %
978 14-04-2020 18:52:17 11.4 C 60 %
979 14-04-2020 19:02:17 11.4 C 61 %
980 14-04-2020 19:12:18 11.4 C 60 %
981 14-04-2020 19:22:18 11.4 C 60 %
982 14-04-2020 19:32:18 11.4 C 60 %
983 14-04-2020 19:42:18 11.4 C 60 %
984 14-04-2020 19:52:17 11.4 C 60 %
985 14-04-2020 20:02:17 11.4 C 60 %
986 14-04-2020 20:12:17 11.4 C 59 %
987 14-04-2020 20:22:17 11.4 C 60 %
988 14-04-2020 20:32:17 11.4 C 60 %
989 14-04-2020 20:42:18 11.4 C 60 %
990 14-04-2020 20:52:17 11.4 C 60 %
991 14-04-2020 21:02:17 11.4 C 60 %
992 14-04-2020 21:12:17 11.4 C 60 %
993 14-04-2020 21:22:17 11.4 C 60 %
994 14-04-2020 21:32:17 11.4 C 60 %
995 14-04-2020 21:42:17 11.4 C 60 %
996 14-04-2020 21:52:17 11.4 C 60 %
997 14-04-2020 22:02:18 11.4 C 60 %
998 14-04-2020 22:12:18 11.4 C 61 %
999 14-04-2020 22:22:17 11.3 C 61 %
1000 14-04-2020 22:32:18 11.4 C 61 %
Sensor: Nr:Datum:Temp:Feuchte:
G-T/H 1001 14-04-2020 22:42:18 11.4 C 60 %
1002 14-04-2020 22:52:18 11.3 C 60 %
1003 14-04-2020 23:02:18 11.3 C 60 %
1004 14-04-2020 23:12:18 11.3 C 60 %
1005 14-04-2020 23:22:17 11.3 C 60 %
1006 14-04-2020 23:32:17 11.3 C 60 %
1007 14-04-2020 23:42:17 11.3 C 60 %
1008 14-04-2020 23:52:17 11.3 C 60 %
1009 15-04-2020 00:02:18 11.2 C 60 %
1010 15-04-2020 00:12:18 11.2 C 60 %
1011 15-04-2020 00:22:17 11.2 C 60 %
1012 15-04-2020 00:32:18 11.2 C 60 %
1013 15-04-2020 00:42:18 11.2 C 60 %
1014 15-04-2020 00:52:17 11.2 C 60 %
1015 15-04-2020 01:02:17 11.2 C 60 %
1016 15-04-2020 01:12:17 11.2 C 60 %
1017 15-04-2020 01:22:17 11.2 C 60 %
1018 15-04-2020 01:32:17 11.1 C 60 %
1019 15-04-2020 01:42:17 11.1 C 60 %
1020 15-04-2020 01:52:17 11.1 C 60 %
1021 15-04-2020 02:02:17 11.1 C 60 %
1022 15-04-2020 02:12:17 11.1 C 60 %
1023 15-04-2020 02:22:17 11.1 C 60 %
1024 15-04-2020 02:32:17 11.1 C 60 %
1025 15-04-2020 02:42:17 11.1 C 60 %
Sensor: Nr:Datum:Temp:Feuchte:
G-T/H 1026 15-04-2020 02:52:17 11 C 60 %
1027 15-04-2020 03:02:17 11 C 60 %
1028 15-04-2020 03:12:17 11 C 60 %
1029 15-04-2020 03:22:17 11 C 60 %
1030 15-04-2020 03:32:18 11 C 60 %
1031 15-04-2020 03:42:18 11 C 60 %
1032 15-04-2020 03:52:18 11 C 60 %
1033 15-04-2020 04:02:18 11 C 60 %
1034 15-04-2020 04:12:18 10.9 C 61 %
1035 15-04-2020 04:22:17 10.9 C 61 %
1036 15-04-2020 04:32:18 10.9 C 61 %
1037 15-04-2020 04:42:18 10.8 C 60 %
1038 15-04-2020 04:52:17 10.8 C 60 %
1039 15-04-2020 05:02:18 10.8 C 60 %
1040 15-04-2020 05:12:18 10.7 C 60 %
1041 15-04-2020 05:22:17 10.7 C 59 %
1042 15-04-2020 05:32:17 10.7 C 59 %
1043 15-04-2020 05:42:17 10.7 C 59 %
1044 15-04-2020 05:52:17 10.7 C 59 %
1045 15-04-2020 06:02:17 10.7 C 59 %
1046 15-04-2020 06:12:17 10.7 C 60 %
1047 15-04-2020 06:22:17 10.6 C 60 %
1048 15-04-2020 06:32:17 10.6 C 60 %
1049 15-04-2020 06:42:17 10.6 C 60 %
1050 15-04-2020 06:52:17 10.6 C 60 %
Sensor: Nr:Datum:Temp:Feuchte:
G-T/H 1051 15-04-2020 07:02:17 10.6 C 60 %
1052 15-04-2020 07:12:17 10.5 C 60 %
1053 15-04-2020 07:22:17 10.5 C 60 %
1054 15-04-2020 07:32:17 10.5 C 60 %
1055 15-04-2020 07:42:17 10.5 C 60 %
1056 15-04-2020 07:52:18 10.5 C 60 %
1057 15-04-2020 08:02:17 10.5 C 60 %
1058 15-04-2020 08:12:17 10.5 C 60 %
1059 15-04-2020 08:22:18 10.5 C 60 %
1060 15-04-2020 08:32:18 10.5 C 60 %
1061 15-04-2020 08:42:18 10.4 C 60 %
1062 15-04-2020 08:52:18 10.4 C 60 %
1063 15-04-2020 09:02:17 10.4 C 60 %
1064 15-04-2020 09:12:17 10.4 C 60 %
1065 15-04-2020 09:22:18 10.4 C 60 %
1066 15-04-2020 09:32:18 10.4 C 60 %
1067 15-04-2020 09:42:18 10.4 C 60 %
1068 15-04-2020 09:52:17 10.4 C 60 %
1069 15-04-2020 10:02:18 10.4 C 60 %
1070 15-04-2020 10:12:18 10.4 C 61 %
1071 15-04-2020 10:22:18 10.3 C 61 %
1072 15-04-2020 10:32:18 10.4 C 61 %
1073 15-04-2020 10:42:18 10.3 C 61 %
1074 15-04-2020 10:52:18 10.4 C 61 %
1075 15-04-2020 11:02:17 10.3 C 61 %
Sensor: Nr:Datum:Temp:Feuchte:
G-T/H 1076 15-04-2020 11:12:17 10.3 C 61 %
1077 15-04-2020 11:22:18 10.3 C 61 %
1078 15-04-2020 11:32:17 10.3 C 61 %
1079 15-04-2020 11:42:17 10.4 C 61 %
1080 15-04-2020 11:52:18 10.4 C 61 %
1081 15-04-2020 12:02:17 10.4 C 62 %
1082 15-04-2020 12:12:17 10.4 C 62 %
1083 15-04-2020 12:22:18 10.4 C 62 %
1084 15-04-2020 12:32:18 10.4 C 62 %
1085 15-04-2020 12:42:18 10.4 C 62 %
1086 15-04-2020 12:52:17 10.4 C 62 %
1087 15-04-2020 13:02:17 10.4 C 61 %
1088 15-04-2020 13:12:17 10.4 C 62 %
1089 15-04-2020 13:22:18 10.4 C 62 %
1090 15-04-2020 13:32:18 10.4 C 62 %
1091 15-04-2020 13:42:18 10.5 C 62 %
1092 15-04-2020 13:52:17 10.5 C 62 %
1093 15-04-2020 14:02:17 10.5 C 62 %
1094 15-04-2020 14:12:17 10.5 C 62 %
1095 15-04-2020 14:22:17 10.5 C 62 %
1096 15-04-2020 14:32:17 10.5 C 62 %
1097 15-04-2020 14:42:17 10.6 C 62 %
1098 15-04-2020 14:52:17 10.6 C 62 %
1099 15-04-2020 15:02:18 10.6 C 62 %
1100 15-04-2020 15:12:18 10.7 C 62 %
Sensor: Nr:Datum:Temp:Feuchte:
G-T/H 1101 15-04-2020 15:22:18 10.7 C 62 %
1102 15-04-2020 15:32:18 10.7 C 63 %
1103 15-04-2020 15:42:18 10.7 C 63 %
1104 15-04-2020 15:52:17 10.8 C 63 %
1105 15-04-2020 16:02:18 10.8 C 63 %
1106 15-04-2020 16:12:18 10.8 C 63 %
1107 15-04-2020 16:22:17 10.8 C 63 %
1108 15-04-2020 16:32:18 10.8 C 63 %
1109 15-04-2020 16:42:18 10.9 C 63 %
1110 15-04-2020 16:52:18 10.9 C 63 %
1111 15-04-2020 17:02:17 10.9 C 63 %
1112 15-04-2020 17:12:17 11 C 62 %
1113 15-04-2020 17:22:18 11 C 62 %
1114 15-04-2020 17:32:17 11.2 C 61 %
1115 15-04-2020 17:42:17 12.1 C 53 %
1116 15-04-2020 17:52:18 12.6 C 49 %
1117 15-04-2020 18:02:18 12.8 C 48 %
1118 15-04-2020 18:12:18 13.1 C 45 %
1119 15-04-2020 18:22:18 13.2 C 44 %
1120 15-04-2020 18:32:18 13.4 C 43 %
1121 15-04-2020 18:42:18 13.5 C 42 %
1122 15-04-2020 18:52:17 13.6 C 41 %
1123 15-04-2020 19:02:17 13.7 C 41 %
1124 15-04-2020 19:12:17 13.7 C 41 %
1125 15-04-2020 19:22:17 13.8 C 41 %
Sensor: Nr:Datum:Temp:Feuchte:
G-T/H 1126 15-04-2020 19:32:17 13.8 C 40 %
1127 15-04-2020 19:42:18 13.8 C 40 %
1128 15-04-2020 19:52:17 13.7 C 41 %
1129 15-04-2020 20:02:18 13.4 C 42 %
1130 15-04-2020 20:12:18 13.2 C 44 %
1131 15-04-2020 20:22:18 13 C 45 %
1132 15-04-2020 20:32:17 13 C 46 %
1133 15-04-2020 20:42:18 12.8 C 47 %
1134 15-04-2020 20:52:17 12.7 C 47 %
1135 15-04-2020 21:02:18 12.5 C 47 %
1136 15-04-2020 21:12:18 12.4 C 47 %
1137 15-04-2020 21:22:17 12.2 C 47 %
1138 15-04-2020 21:32:17 12.2 C 47 %
1139 15-04-2020 21:42:17 12.1 C 47 %
1140 15-04-2020 21:52:17 12 C 47 %
1141 15-04-2020 22:02:17 12 C 47 %
1142 15-04-2020 22:12:17 11.8 C 48 %
1143 15-04-2020 22:22:17 11.7 C 48 %
1144 15-04-2020 22:32:18 11.6 C 48 %
1145 15-04-2020 22:42:18 11.5 C 48 %
1146 15-04-2020 22:52:17 11.4 C 48 %
1147 15-04-2020 23:02:17 11.3 C 48 %
1148 15-04-2020 23:12:17 11.1 C 48 %
1149 15-04-2020 23:22:17 11.1 C 48 %
1150 15-04-2020 23:32:17 11 C 48 %
Sensor: Nr:Datum:Temp:Feuchte:
G-T/H 1151 15-04-2020 23:42:18 10.8 C 49 %
1152 15-04-2020 23:52:17 10.7 C 49 %
1153 16-04-2020 00:02:17 10.7 C 49 %
1154 16-04-2020 00:12:17 10.5 C 49 %
1155 16-04-2020 00:22:17 10.3 C 50 %
1156 16-04-2020 00:32:18 10.2 C 50 %
1157 16-04-2020 00:42:18 10.1 C 50 %
1158 16-04-2020 00:52:17 10 C 50 %
1159 16-04-2020 01:02:17 9.9 C 50 %
1160 16-04-2020 01:12:17 9.9 C 50 %
1161 16-04-2020 01:22:17 9.7 C 50 %
1162 16-04-2020 01:32:18 9.7 C 50 %
1163 16-04-2020 01:42:18 9.7 C 50 %
1164 16-04-2020 01:52:17 9.5 C 51 %
1165 16-04-2020 02:02:18 9.5 C 51 %
1166 16-04-2020 02:12:18 9.3 C 51 %
1167 16-04-2020 02:22:18 9.2 C 51 %
1168 16-04-2020 02:32:17 9.1 C 51 %
1169 16-04-2020 02:42:17 8.9 C 52 %
1170 16-04-2020 02:52:17 8.9 C 52 %
1171 16-04-2020 03:02:17 8.7 C 52 %
1172 16-04-2020 03:12:17 8.6 C 53 %
1173 16-04-2020 03:22:17 8.5 C 53 %
1174 16-04-2020 03:32:17 8.5 C 53 %
1175 16-04-2020 03:42:17 8.4 C 53 %
Sensor: Nr:Datum:Temp:Feuchte:
G-T/H 1176 16-04-2020 03:52:17 8.3 C 53 %
1177 16-04-2020 04:02:17 8.2 C 53 %
1178 16-04-2020 04:12:17 8.1 C 53 %
1179 16-04-2020 04:22:17 8.1 C 54 %
1180 16-04-2020 04:32:18 8 C 54 %
1181 16-04-2020 04:42:18 7.9 C 55 %
1182 16-04-2020 04:52:17 7.9 C 55 %
1183 16-04-2020 05:02:17 7.8 C 55 %
1184 16-04-2020 05:12:17 7.7 C 55 %
1185 16-04-2020 05:22:17 7.7 C 55 %
1186 16-04-2020 05:32:17 7.6 C 56 %
1187 16-04-2020 05:42:17 7.5 C 55 %
1188 16-04-2020 05:52:17 7.3 C 56 %
1189 16-04-2020 06:02:18 7.4 C 56 %
1190 16-04-2020 06:12:18 7.3 C 56 %
1191 16-04-2020 06:22:17 7.2 C 56 %
1192 16-04-2020 06:32:17 7.1 C 56 %
1193 16-04-2020 06:42:17 7 C 56 %
1194 16-04-2020 06:52:17 6.9 C 57 %
1195 16-04-2020 07:02:17 6.9 C 57 %
1196 16-04-2020 07:12:17 6.9 C 57 %
1197 16-04-2020 07:22:17 6.8 C 58 %
1198 16-04-2020 07:32:17 6.8 C 58 %
1199 16-04-2020 07:42:17 6.9 C 58 %
1200 16-04-2020 07:52:17 6.8 C 59 %
Sensor: Nr:Datum:Temp:Feuchte:
G-T/H 1201 16-04-2020 08:02:17 6.8 C 59 %
1202 16-04-2020 08:12:17 6.8 C 59 %
1203 16-04-2020 08:22:17 6.8 C 60 %
1204 16-04-2020 08:32:18 7 C 59 %
1205 16-04-2020 08:42:18 7 C 59 %
1206 16-04-2020 08:52:17 7 C 60 %
1207 16-04-2020 09:02:18 7.1 C 60 %
1208 16-04-2020 09:12:18 7.2 C 60 %
1209 16-04-2020 09:22:17 7.3 C 60 %
1210 16-04-2020 09:32:17 7.4 C 61 %
1211 16-04-2020 09:42:17 7.6 C 61 %
1212 16-04-2020 09:52:17 7.8 C 61 %
1213 16-04-2020 10:02:18 7.9 C 62 %
1214 16-04-2020 10:12:18 8.1 C 61 %
1215 16-04-2020 10:22:17 8.4 C 61 %
1216 16-04-2020 10:32:17 8.5 C 62 %
1217 16-04-2020 10:42:18 8.7 C 61 %
1218 16-04-2020 10:52:17 9 C 60 %
1219 16-04-2020 11:02:18 9.2 C 60 %
1220 16-04-2020 11:12:18 9.5 C 60 %
1221 16-04-2020 11:22:17 10 C 59 %
1222 16-04-2020 11:32:17 10.4 C 58 %
1223 16-04-2020 11:42:17 10.7 C 57 %
1224 16-04-2020 11:52:17 11.1 C 56 %
1225 16-04-2020 12:02:18 11.4 C 55 %
Sensor: Nr:Datum:Temp:Feuchte:
G-T/H 1226 16-04-2020 12:12:18 11.7 C 55 %
1227 16-04-2020 12:22:17 12 C 53 %
1228 16-04-2020 12:32:18 12.2 C 53 %
1229 16-04-2020 12:42:18 12.4 C 53 %
1230 16-04-2020 12:52:17 12.6 C 53 %
1231 16-04-2020 13:02:18 12.9 C 53 %
1232 16-04-2020 13:12:18 13.2 C 51 %
1233 16-04-2020 13:22:17 13.4 C 51 %
1234 16-04-2020 13:32:18 13.6 C 50 %
1235 16-04-2020 13:42:18 13.9 C 48 %
1236 16-04-2020 13:52:17 14.1 C 47 %
1237 16-04-2020 14:02:17 14.2 C 45 %
1238 16-04-2020 14:12:17 14.4 C 45 %
1239 16-04-2020 14:22:17 14.6 C 45 %
1240 16-04-2020 14:32:17 14.6 C 44 %
1241 16-04-2020 14:42:17 14.8 C 45 %
1242 16-04-2020 14:52:17 15.1 C 44 %
1243 16-04-2020 15:02:17 15.3 C 44 %
1244 16-04-2020 15:12:17 15.4 C 44 %
1245 16-04-2020 15:22:17 15.5 C 44 %
1246 16-04-2020 15:32:18 15.8 C 43 %
1247 16-04-2020 15:42:18 15.9 C 44 %
1248 16-04-2020 15:52:17 16 C 43 %
1249 16-04-2020 16:02:17 16.2 C 44 %
1250 16-04-2020 16:12:17 16.4 C 44 %
Sensor: Nr:Datum:Temp:Feuchte:
G-T/H 1251 16-04-2020 16:22:17 16.5 C 44 %
1252 16-04-2020 16:32:17 16.5 C 42 %
1253 16-04-2020 16:42:18 16.6 C 41 %
1254 16-04-2020 16:52:17 16.7 C 41 %
1255 16-04-2020 17:02:17 16.7 C 41 %
1256 16-04-2020 17:12:17 16.8 C 42 %
1257 16-04-2020 17:22:18 16.3 C 42 %
1258 16-04-2020 17:32:17 15.8 C 43 %
1259 16-04-2020 17:42:17 15.5 C 45 %
1260 16-04-2020 17:52:17 15.3 C 45 %
1261 16-04-2020 18:02:17 15.1 C 46 %
1262 16-04-2020 18:12:17 15 C 46 %
1263 16-04-2020 18:22:17 14.9 C 47 %
1264 16-04-2020 18:32:17 14.8 C 48 %
1265 16-04-2020 18:42:17 14.8 C 48 %
1266 16-04-2020 18:52:17 14.7 C 49 %
1267 16-04-2020 19:02:17 14.6 C 49 %
1268 16-04-2020 19:12:17 14.6 C 49 %
1269 16-04-2020 19:22:17 14.5 C 50 %
1270 16-04-2020 19:32:18 14.5 C 50 %
1271 16-04-2020 19:42:18 14.5 C 51 %
1272 16-04-2020 19:52:17 14.4 C 51 %
1273 16-04-2020 20:02:17 14.4 C 51 %
1274 16-04-2020 20:12:17 14.3 C 52 %
1275 16-04-2020 20:22:17 14.3 C 52 %
Sensor: Nr:Datum:Temp:Feuchte:
G-T/H 1276 16-04-2020 20:32:18 14.3 C 52 %
1277 16-04-2020 20:42:18 14.3 C 52 %
1278 16-04-2020 20:52:18 14.2 C 53 %
1279 16-04-2020 21:02:17 14.2 C 53 %
1280 16-04-2020 21:12:17 14.2 C 53 %
1281 16-04-2020 21:22:17 14.1 C 53 %
1282 16-04-2020 21:32:18 14.1 C 53 %
1283 16-04-2020 21:42:18 14.1 C 53 %
1284 16-04-2020 21:52:17 14.1 C 54 %
1285 16-04-2020 22:02:17 14.1 C 54 %
1286 16-04-2020 22:12:17 14 C 54 %
1287 16-04-2020 22:22:17 14 C 54 %
1288 16-04-2020 22:32:17 14 C 54 %
1289 16-04-2020 22:42:18 14 C 54 %
1290 16-04-2020 22:52:17 13.9 C 55 %
1291 16-04-2020 23:02:17 13.9 C 55 %
1292 16-04-2020 23:12:17 13.9 C 55 %
1293 16-04-2020 23:22:17 13.9 C 55 %
1294 16-04-2020 23:32:18 13.9 C 56 %
1295 16-04-2020 23:42:18 13.9 C 56 %
1296 16-04-2020 23:52:17 13.8 C 56 %
1297 17-04-2020 00:02:18 13.8 C 56 %
1298 17-04-2020 00:12:18 13.8 C 56 %
1299 17-04-2020 00:22:17 13.8 C 56 %
1300 17-04-2020 00:32:17 13.8 C 56 %
Sensor: Nr:Datum:Temp:Feuchte:
G-T/H 1301 17-04-2020 00:42:17 13.8 C 56 %
1302 17-04-2020 00:52:18 13.7 C 56 %
1303 17-04-2020 01:02:17 13.7 C 56 %
1304 17-04-2020 01:12:18 13.7 C 56 %
1305 17-04-2020 01:22:18 13.7 C 56 %
1306 17-04-2020 01:32:18 13.7 C 57 %
1307 17-04-2020 01:42:18 13.6 C 57 %
1308 17-04-2020 01:52:17 13.6 C 57 %
1309 17-04-2020 02:02:17 13.6 C 57 %
1310 17-04-2020 02:12:17 13.6 C 57 %
1311 17-04-2020 02:22:17 13.6 C 57 %
1312 17-04-2020 02:32:17 13.6 C 57 %
1313 17-04-2020 02:42:17 13.6 C 57 %
1314 17-04-2020 02:52:17 13.6 C 57 %
1315 17-04-2020 03:02:17 13.5 C 57 %
1316 17-04-2020 03:12:18 13.5 C 57 %
1317 17-04-2020 03:22:18 13.5 C 57 %
1318 17-04-2020 03:32:17 13.5 C 57 %
1319 17-04-2020 03:42:18 13.4 C 57 %
1320 17-04-2020 03:52:18 13.4 C 57 %
1321 17-04-2020 04:02:17 13.4 C 57 %
1322 17-04-2020 04:12:17 13.4 C 57 %
1323 17-04-2020 04:22:17 13.4 C 57 %
1324 17-04-2020 04:32:17 13.4 C 57 %
1325 17-04-2020 04:42:17 13.4 C 57 %
Sensor: Nr:Datum:Temp:Feuchte:
G-T/H 1326 17-04-2020 04:52:17 13.4 C 57 %
1327 17-04-2020 05:02:17 13.3 C 57 %
1328 17-04-2020 05:12:18 13.3 C 57 %
1329 17-04-2020 05:22:17 13.3 C 57 %
1330 17-04-2020 05:32:18 13.3 C 57 %
1331 17-04-2020 05:42:18 13.3 C 57 %
1332 17-04-2020 05:52:18 13.2 C 57 %
1333 17-04-2020 06:02:18 13.2 C 57 %
1334 17-04-2020 06:12:18 13.2 C 57 %
1335 17-04-2020 06:22:17 13.2 C 57 %
1336 17-04-2020 06:32:17 13.2 C 57 %
1337 17-04-2020 06:42:17 13.2 C 57 %
1338 17-04-2020 06:52:17 13.1 C 57 %
1339 17-04-2020 07:02:18 13.1 C 57 %
1340 17-04-2020 07:12:18 13.1 C 57 %
1341 17-04-2020 07:22:18 13.1 C 57 %
1342 17-04-2020 07:32:17 13.1 C 57 %
1343 17-04-2020 07:42:17 13.1 C 58 %
1344 17-04-2020 07:52:17 13 C 58 %
1345 17-04-2020 08:02:17 13.1 C 58 %
1346 17-04-2020 08:12:17 13 C 58 %
1347 17-04-2020 08:22:17 13 C 58 %
1348 17-04-2020 08:32:18 13 C 58 %
1349 17-04-2020 08:42:18 13 C 58 %
1350 17-04-2020 08:52:17 13 C 58 %
Sensor: Nr:Datum:Temp:Feuchte:
G-T/H 1351 17-04-2020 09:02:18 13 C 58 %
1352 17-04-2020 09:12:18 13 C 58 %
1353 17-04-2020 09:22:17 12.9 C 59 %
1354 17-04-2020 09:32:17 12.9 C 59 %
1355 17-04-2020 09:42:17 12.9 C 59 %
1356 17-04-2020 09:52:18 12.9 C 60 %
1357 17-04-2020 10:02:17 12.9 C 60 %
1358 17-04-2020 10:12:17 12.9 C 60 %
1359 17-04-2020 10:22:18 12.8 C 60 %
1360 17-04-2020 10:32:18 12.8 C 60 %
1361 17-04-2020 10:42:18 12.9 C 60 %
1362 17-04-2020 10:52:17 12.8 C 60 %
1363 17-04-2020 11:02:17 12.8 C 60 %
1364 17-04-2020 11:12:17 12.8 C 60 %
1365 17-04-2020 11:22:18 12.8 C 60 %
1366 17-04-2020 11:32:17 12.8 C 60 %
1367 17-04-2020 11:42:17 12.9 C 61 %
1368 17-04-2020 11:52:17 12.8 C 61 %
1369 17-04-2020 12:02:18 12.9 C 61 %
1370 17-04-2020 12:12:18 12.8 C 61 %
1371 17-04-2020 12:22:17 12.9 C 61 %
1372 17-04-2020 12:32:17 12.9 C 61 %
1373 17-04-2020 12:42:17 12.9 C 61 %
1374 17-04-2020 12:52:17 12.9 C 61 %
1375 17-04-2020 13:02:18 12.9 C 61 %
Sensor: Nr:Datum:Temp:Feuchte:
G-T/H 1376 17-04-2020 13:12:18 12.9 C 61 %
1377 17-04-2020 13:22:17 12.9 C 61 %
1378 17-04-2020 13:32:17 13 C 61 %
1379 17-04-2020 13:42:17 13 C 61 %
1380 17-04-2020 13:52:17 14.2 C 60 %
1381 17-04-2020 14:02:18 14.8 C 59 %
1382 17-04-2020 14:12:18 15.3 C 57 %
1383 17-04-2020 14:22:17 15.6 C 56 %
1384 17-04-2020 14:32:17 15.8 C 55 %
1385 17-04-2020 14:42:17 15.9 C 55 %
1386 17-04-2020 14:52:17 16.1 C 54 %
1387 17-04-2020 15:02:17 16.5 C 54 %
1388 17-04-2020 15:12:17 16.6 C 53 %
1389 17-04-2020 15:22:17 16.7 C 52 %
1390 17-04-2020 15:32:17 16.8 C 52 %
1391 17-04-2020 15:42:17 16.9 C 52 %
1392 17-04-2020 15:52:18 17 C 51 %
1393 17-04-2020 16:02:17 17.2 C 51 %
1394 17-04-2020 16:12:17 17.2 C 50 %
1395 17-04-2020 16:22:17 17.3 C 50 %
1396 17-04-2020 16:32:17 17.3 C 50 %
1397 17-04-2020 16:42:17 17.5 C 49 %
1398 17-04-2020 16:52:17 17.5 C 49 %
1399 17-04-2020 17:02:18 17.5 C 49 %
1400 17-04-2020 17:12:18 17.6 C 48 %
Sensor: Nr:Datum:Temp:Feuchte:
G-T/H 1401 17-04-2020 17:22:17 17.8 C 48 %
1402 17-04-2020 17:32:17 18 C 47 %
1403 17-04-2020 17:42:18 18.1 C 47 %
1404 17-04-2020 17:52:17 18.2 C 46 %
1405 17-04-2020 18:02:17 18.3 C 46 %
1406 17-04-2020 18:12:17 18.5 C 46 %
1407 17-04-2020 18:22:17 18.5 C 46 %
1408 17-04-2020 18:32:17 18.7 C 46 %
1409 17-04-2020 18:42:17 18.7 C 47 %
1410 17-04-2020 18:52:18 18.7 C 47 %
1411 17-04-2020 19:02:17 18.7 C 47 %
1412 17-04-2020 19:12:17 18.8 C 47 %
1413 17-04-2020 19:22:17 18.8 C 48 %
1414 17-04-2020 19:32:17 18.7 C 50 %
1415 17-04-2020 19:42:17 18.7 C 51 %
1416 17-04-2020 19:52:17 18.5 C 51 %
1417 17-04-2020 20:02:17 18.2 C 51 %
1418 17-04-2020 20:12:17 18.1 C 52 %
1419 17-04-2020 20:22:17 17.9 C 53 %
1420 17-04-2020 20:32:17 17.7 C 53 %
1421 17-04-2020 20:42:17 17.5 C 53 %
1422 17-04-2020 20:52:17 17.5 C 53 %
1423 17-04-2020 21:02:17 17.4 C 53 %
1424 17-04-2020 21:12:17 17.2 C 53 %
1425 17-04-2020 21:22:17 17.2 C 53 %
Sensor: Nr:Datum:Temp:Feuchte:
G-T/H 1426 17-04-2020 21:32:18 17.2 C 53 %
1427 17-04-2020 21:42:18 17.2 C 53 %
1428 17-04-2020 21:52:18 17 C 53 %
1429 17-04-2020 22:02:17 16.9 C 54 %
1430 17-04-2020 22:12:17 16.9 C 54 %
1431 17-04-2020 22:22:17 16.7 C 54 %
1432 17-04-2020 22:32:17 16.6 C 54 %
1433 17-04-2020 22:42:17 16.5 C 54 %
1434 17-04-2020 22:52:17 16.4 C 54 %
1435 17-04-2020 23:02:17 16.4 C 55 %
1436 17-04-2020 23:12:17 16.3 C 55 %
1437 17-04-2020 23:22:18 16.2 C 55 %
1438 17-04-2020 23:32:17 16.1 C 55 %
1439 17-04-2020 23:42:17 16 C 55 %
1440 17-04-2020 23:52:17 15.9 C 56 %
1441 18-04-2020 00:02:17 15.8 C 56 %
1442 18-04-2020 00:12:17 15.7 C 56 %
1443 18-04-2020 00:22:18 15.5 C 56 %
1444 18-04-2020 00:32:17 15.4 C 56 %
1445 18-04-2020 00:42:18 15.3 C 56 %
1446 18-04-2020 00:52:17 15.2 C 56 %
1447 18-04-2020 01:02:18 15.2 C 56 %
1448 18-04-2020 01:12:18 15 C 55 %
1449 18-04-2020 01:22:17 14.9 C 56 %
1450 18-04-2020 01:32:18 14.8 C 56 %
Sensor: Nr:Datum:Temp:Feuchte:
G-T/H 1451 18-04-2020 01:42:18 14.7 C 56 %
1452 18-04-2020 01:52:17 14.6 C 56 %
1453 18-04-2020 02:02:18 14.5 C 56 %
1454 18-04-2020 02:12:18 14.4 C 56 %
1455 18-04-2020 02:22:17 14.4 C 56 %
1456 18-04-2020 02:32:17 14.2 C 57 %
1457 18-04-2020 02:42:17 14.1 C 57 %
1458 18-04-2020 02:52:18 14.1 C 57 %
1459 18-04-2020 03:02:17 13.9 C 58 %
1460 18-04-2020 03:12:17 13.8 C 58 %
1461 18-04-2020 03:22:18 13.7 C 59 %
1462 18-04-2020 03:32:18 13.6 C 58 %
1463 18-04-2020 03:42:18 13.5 C 58 %
1464 18-04-2020 03:52:18 13.4 C 58 %
1465 18-04-2020 04:02:17 13.3 C 58 %
1466 18-04-2020 04:12:17 13.2 C 59 %
1467 18-04-2020 04:22:17 13.1 C 59 %
1468 18-04-2020 04:32:18 13.1 C 59 %
1469 18-04-2020 04:42:18 13 C 59 %
1470 18-04-2020 04:52:17 12.9 C 60 %
1471 18-04-2020 05:02:17 12.8 C 60 %
1472 18-04-2020 05:12:17 12.8 C 60 %
1473 18-04-2020 05:22:17 12.8 C 60 %
1474 18-04-2020 05:32:17 12.7 C 61 %
1475 18-04-2020 05:42:17 12.6 C 61 %
Sensor: Nr:Datum:Temp:Feuchte:
G-T/H 1476 18-04-2020 05:52:18 12.5 C 61 %
1477 18-04-2020 06:02:17 12.5 C 61 %
1478 18-04-2020 06:12:17 12.5 C 61 %
1479 18-04-2020 06:22:17 12.4 C 61 %
1480 18-04-2020 06:32:17 12.4 C 62 %
1481 18-04-2020 06:42:17 12.3 C 62 %
1482 18-04-2020 06:52:17 12.2 C 61 %
1483 18-04-2020 07:02:17 12.2 C 62 %
1484 18-04-2020 07:12:17 12.2 C 62 %
1485 18-04-2020 07:22:17 12.3 C 63 %
1486 18-04-2020 07:32:17 12.3 C 63 %
1487 18-04-2020 07:42:17 12.4 C 63 %
1488 18-04-2020 07:52:17 12.4 C 64 %
1489 18-04-2020 08:02:18 12.4 C 64 %
1490 18-04-2020 08:12:18 12.4 C 64 %
1491 18-04-2020 08:22:17 12.4 C 65 %
1492 18-04-2020 08:32:17 12.4 C 65 %
1493 18-04-2020 08:42:18 12.4 C 65 %
1494 18-04-2020 08:52:18 12.5 C 65 %
1495 18-04-2020 09:02:17 12.7 C 66 %
1496 18-04-2020 09:12:17 12.7 C 66 %
1497 18-04-2020 09:22:17 12.8 C 66 %
1498 18-04-2020 09:32:18 13 C 65 %
1499 18-04-2020 09:42:18 13.1 C 65 %
1500 18-04-2020 09:52:18 13.2 C 65 %
Sensor: Nr:Datum:Temp:Feuchte:
G-T/H 1501 18-04-2020 10:02:18 13.3 C 65 %
1502 18-04-2020 10:12:18 13.4 C 65 %
1503 18-04-2020 10:22:18 13.5 C 65 %
1504 18-04-2020 10:32:18 13.6 C 65 %
1505 18-04-2020 10:42:18 13.8 C 65 %
1506 18-04-2020 10:52:18 13.8 C 65 %
1507 18-04-2020 11:02:18 13.9 C 65 %
1508 18-04-2020 11:12:18 14.1 C 65 %
1509 18-04-2020 11:22:17 14.1 C 65 %
1510 18-04-2020 11:32:18 14.2 C 65 %
1511 18-04-2020 11:42:18 14.3 C 64 %
1512 18-04-2020 11:52:18 14.4 C 65 %
1513 18-04-2020 12:02:17 14.6 C 65 %
1514 18-04-2020 12:12:17 14.7 C 65 %
1515 18-04-2020 12:22:18 14.8 C 65 %
1516 18-04-2020 12:32:18 14.8 C 65 %
1517 18-04-2020 12:42:18 14.9 C 64 %
1518 18-04-2020 12:52:17 15 C 63 %
1519 18-04-2020 13:02:17 15.2 C 64 %
1520 18-04-2020 13:12:17 15.3 C 64 %
1521 18-04-2020 13:22:18 15.3 C 63 %
1522 18-04-2020 13:32:18 15.5 C 63 %
1523 18-04-2020 13:42:18 15.6 C 62 %
1524 18-04-2020 13:52:18 15.7 C 62 %
1525 18-04-2020 14:02:18 15.9 C 62 %
Sensor: Nr:Datum:Temp:Feuchte:
G-T/H 1526 18-04-2020 14:12:18 15.9 C 62 %
1527 18-04-2020 14:22:18 16 C 61 %
1528 18-04-2020 14:32:17 16.1 C 61 %
1529 18-04-2020 14:42:17 16.1 C 61 %
1530 18-04-2020 14:52:17 16.2 C 62 %
1531 18-04-2020 15:02:17 16.3 C 61 %
1532 18-04-2020 15:12:18 16.4 C 61 %
1533 18-04-2020 15:22:17 16.5 C 60 %
1534 18-04-2020 15:32:17 16.6 C 60 %
1535 18-04-2020 15:42:17 16.6 C 59 %
1536 18-04-2020 15:52:17 16.6 C 59 %
1537 18-04-2020 16:02:18 16.6 C 60 %
1538 18-04-2020 16:12:18 16.6 C 61 %
1539 18-04-2020 16:22:18 16.6 C 61 %
1540 18-04-2020 16:32:17 16.5 C 62 %
1541 18-04-2020 16:42:17 16.4 C 62 %
1542 18-04-2020 16:52:17 16.4 C 63 %
1543 18-04-2020 17:02:17 16.5 C 64 %
1544 18-04-2020 17:12:17 16.4 C 64 %
1545 18-04-2020 17:22:17 16.4 C 65 %
1546 18-04-2020 17:32:18 16.4 C 66 %
1547 18-04-2020 17:42:18 16.4 C 67 %
1548 18-04-2020 17:52:18 16.3 C 67 %
1549 18-04-2020 18:02:18 16.2 C 67 %
1550 18-04-2020 18:12:18 16 C 67 %
Sensor: Nr:Datum:Temp:Feuchte:
G-T/H 1551 18-04-2020 18:22:17 16 C 67 %
1552 18-04-2020 18:32:18 16 C 67 %
1553 18-04-2020 18:42:18 15.9 C 68 %
1554 18-04-2020 18:52:17 15.9 C 67 %
1555 18-04-2020 19:02:18 15.9 C 67 %
1556 18-04-2020 19:12:18 15.9 C 67 %
1557 18-04-2020 19:22:17 15.8 C 67 %
1558 18-04-2020 19:32:17 15.8 C 67 %
1559 18-04-2020 19:42:17 15.8 C 67 %
1560 18-04-2020 19:52:18 15.8 C 66 %
1561 18-04-2020 20:02:17 15.7 C 66 %
1562 18-04-2020 20:12:17 15.7 C 66 %
1563 18-04-2020 20:22:17 15.7 C 66 %
1564 18-04-2020 20:32:17 15.6 C 66 %
1565 18-04-2020 20:42:17 15.6 C 65 %
1566 18-04-2020 20:52:17 15.6 C 65 %
1567 18-04-2020 21:02:18 15.6 C 65 %
1568 18-04-2020 21:12:18 15.6 C 65 %
1569 18-04-2020 21:22:17 15.5 C 65 %
1570 18-04-2020 21:32:17 15.5 C 65 %
1571 18-04-2020 21:42:17 15.5 C 65 %
1572 18-04-2020 21:52:18 15.5 C 65 %
1573 18-04-2020 22:02:17 15.4 C 65 %
1574 18-04-2020 22:12:17 15.4 C 65 %
1575 18-04-2020 22:22:17 15.4 C 65 %
Sensor: Nr:Datum:Temp:Feuchte:
G-T/H 1576 18-04-2020 22:32:18 15.4 C 65 %
1577 18-04-2020 22:42:18 15.4 C 65 %
1578 18-04-2020 22:52:17 15.3 C 65 %
1579 18-04-2020 23:02:18 15.4 C 65 %
1580 18-04-2020 23:12:18 15.3 C 65 %
1581 18-04-2020 23:22:17 15.3 C 65 %
1582 18-04-2020 23:32:17 15.3 C 65 %
1583 18-04-2020 23:42:17 15.2 C 65 %
1584 18-04-2020 23:52:17 15.2 C 65 %
1585 19-04-2020 00:02:18 15.2 C 65 %
1586 19-04-2020 00:12:18 15.2 C 65 %
1587 19-04-2020 00:22:17 15.2 C 65 %
1588 19-04-2020 00:32:17 15.1 C 65 %
1589 19-04-2020 00:42:17 15.1 C 64 %
1590 19-04-2020 00:52:17 15.1 C 64 %
1591 19-04-2020 01:02:17 15.1 C 64 %
1592 19-04-2020 01:12:17 15 C 64 %
1593 19-04-2020 01:22:17 15 C 64 %
1594 19-04-2020 01:32:17 15 C 64 %
1595 19-04-2020 01:42:17 15 C 64 %
1596 19-04-2020 01:52:17 15 C 64 %
1597 19-04-2020 02:02:17 15 C 64 %
1598 19-04-2020 02:12:18 15 C 64 %
1599 19-04-2020 02:22:17 14.9 C 65 %
1600 19-04-2020 02:32:17 15 C 64 %
Sensor: Nr:Datum:Temp:Feuchte:
G-T/H 1601 19-04-2020 02:42:17 14.9 C 65 %
1602 19-04-2020 02:52:17 14.9 C 65 %
1603 19-04-2020 03:02:17 14.9 C 65 %
1604 19-04-2020 03:12:17 14.8 C 65 %
1605 19-04-2020 03:22:17 14.8 C 65 %
1606 19-04-2020 03:32:17 14.8 C 65 %
1607 19-04-2020 03:42:17 14.8 C 65 %
1608 19-04-2020 03:52:17 14.8 C 65 %
1609 19-04-2020 04:02:17 14.7 C 65 %
1610 19-04-2020 04:12:17 14.7 C 65 %
1611 19-04-2020 04:22:17 14.7 C 65 %
1612 19-04-2020 04:32:17 14.7 C 65 %
1613 19-04-2020 04:42:17 14.7 C 65 %
1614 19-04-2020 04:52:17 14.7 C 65 %
1615 19-04-2020 05:02:17 14.7 C 65 %
1616 19-04-2020 05:12:17 14.6 C 65 %
1617 19-04-2020 05:22:18 14.6 C 65 %
1618 19-04-2020 05:32:17 14.6 C 65 %
1619 19-04-2020 05:42:17 14.6 C 65 %
1620 19-04-2020 05:52:17 14.6 C 65 %
1621 19-04-2020 06:02:17 14.5 C 65 %
1622 19-04-2020 06:12:17 14.5 C 65 %
1623 19-04-2020 06:22:17 14.5 C 65 %
1624 19-04-2020 06:32:17 14.5 C 65 %
1625 19-04-2020 06:42:17 14.5 C 65 %
Sensor: Nr:Datum:Temp:Feuchte:
G-T/H 1626 19-04-2020 06:52:18 14.5 C 65 %
1627 19-04-2020 07:02:18 14.5 C 65 %
1628 19-04-2020 07:12:18 14.4 C 65 %
1629 19-04-2020 07:22:17 14.4 C 65 %
1630 19-04-2020 07:32:18 14.4 C 65 %
1631 19-04-2020 07:42:18 14.4 C 65 %
1632 19-04-2020 07:52:17 14.4 C 65 %
1633 19-04-2020 08:02:17 14.4 C 65 %
1634 19-04-2020 08:12:17 14.4 C 65 %
1635 19-04-2020 08:22:17 14.3 C 65 %
1636 19-04-2020 08:32:17 14.3 C 65 %
1637 19-04-2020 08:42:17 14.3 C 65 %
1638 19-04-2020 08:52:17 14.4 C 65 %
1639 19-04-2020 09:02:17 14.3 C 65 %
1640 19-04-2020 09:12:18 14.3 C 65 %
1641 19-04-2020 09:22:18 14.3 C 65 %
1642 19-04-2020 09:32:17 14.3 C 65 %
1643 19-04-2020 09:42:17 14.3 C 65 %
1644 19-04-2020 09:52:17 14.3 C 65 %
1645 19-04-2020 10:02:17 14.3 C 65 %
1646 19-04-2020 10:12:17 14.3 C 65 %
1647 19-04-2020 10:22:17 14.3 C 65 %
1648 19-04-2020 10:32:17 14.3 C 65 %
1649 19-04-2020 10:42:17 14.3 C 65 %
1650 19-04-2020 10:52:17 14.3 C 65 %
Sensor: Nr:Datum:Temp:Feuchte:
G-T/H 1651 19-04-2020 11:02:17 14.3 C 65 %
1652 19-04-2020 11:12:17 14.2 C 65 %
1653 19-04-2020 11:22:17 14.2 C 65 %
1654 19-04-2020 11:32:17 14.2 C 65 %
1655 19-04-2020 11:42:17 14.2 C 65 %
1656 19-04-2020 11:52:17 14.2 C 65 %
1657 19-04-2020 12:02:17 14.2 C 65 %
1658 19-04-2020 12:12:17 14.2 C 65 %
1659 19-04-2020 12:22:17 14.2 C 65 %
1660 19-04-2020 12:32:18 14.2 C 65 %
1661 19-04-2020 12:42:18 14.2 C 65 %
1662 19-04-2020 12:52:17 14.2 C 65 %
1663 19-04-2020 13:02:17 14.2 C 65 %
1664 19-04-2020 13:12:17 14.2 C 65 %
1665 19-04-2020 13:22:17 14.2 C 65 %
1666 19-04-2020 13:32:17 14.2 C 65 %
1667 19-04-2020 13:42:17 14.2 C 65 %
1668 19-04-2020 13:52:17 14.2 C 66 %
1669 19-04-2020 14:02:18 14.2 C 66 %
1670 19-04-2020 14:12:18 14.3 C 66 %
1671 19-04-2020 14:22:17 14.3 C 66 %
1672 19-04-2020 14:32:17 14.3 C 66 %
1673 19-04-2020 14:42:17 14.3 C 66 %
1674 19-04-2020 14:52:17 14.3 C 66 %
1675 19-04-2020 15:02:18 14.3 C 66 %
Sensor: Nr:Datum:Temp:Feuchte:
G-T/H 1676 19-04-2020 15:12:18 14.3 C 66 %
1677 19-04-2020 15:22:17 14.3 C 66 %
1678 19-04-2020 15:32:17 14.3 C 66 %
1679 19-04-2020 15:42:18 14.3 C 66 %
1680 19-04-2020 15:52:18 14.3 C 66 %
1681 19-04-2020 16:02:17 14.3 C 66 %
1682 19-04-2020 16:12:17 14.3 C 66 %
1683 19-04-2020 16:22:17 14.3 C 66 %
1684 19-04-2020 16:32:17 14.3 C 66 %
1685 19-04-2020 16:42:17 14.3 C 66 %
1686 19-04-2020 16:52:17 14.3 C 66 %
1687 19-04-2020 17:02:17 14.4 C 65 %
1688 19-04-2020 17:12:17 14.4 C 65 %
1689 19-04-2020 17:22:17 14.4 C 65 %
1690 19-04-2020 17:32:18 14.4 C 65 %
1691 19-04-2020 17:42:18 14.4 C 65 %
1692 19-04-2020 17:52:17 14.4 C 65 %
1693 19-04-2020 18:02:18 14.4 C 65 %
1694 19-04-2020 18:12:18 14.4 C 65 %
1695 19-04-2020 18:22:17 14.4 C 65 %
1696 19-04-2020 18:32:17 14.4 C 65 %
1697 19-04-2020 18:42:17 14.4 C 65 %
1698 19-04-2020 18:52:17 14.4 C 65 %
1699 19-04-2020 19:02:17 14.4 C 65 %
1700 19-04-2020 19:12:17 14.4 C 65 %
Sensor: Nr:Datum:Temp:Feuchte:
G-T/H 1701 19-04-2020 19:22:17 14.4 C 65 %
1702 19-04-2020 19:32:18 14.4 C 65 %
1703 19-04-2020 19:42:18 14.4 C 65 %
1704 19-04-2020 19:52:17 14.4 C 65 %
1705 19-04-2020 20:02:18 14.4 C 65 %
1706 19-04-2020 20:12:18 14.4 C 65 %
1707 19-04-2020 20:22:17 14.4 C 65 %
1708 19-04-2020 20:32:17 14.4 C 65 %
1709 19-04-2020 20:42:17 14.4 C 65 %
1710 19-04-2020 20:52:17 14.3 C 65 %
1711 19-04-2020 21:02:18 14.4 C 65 %
1712 19-04-2020 21:12:18 14.4 C 65 %
1713 19-04-2020 21:22:17 14.4 C 65 %
1714 19-04-2020 21:32:17 14.4 C 65 %
1715 19-04-2020 21:42:17 14.4 C 65 %
1716 19-04-2020 21:52:17 14.3 C 64 %
1717 19-04-2020 22:02:17 14.3 C 64 %
1718 19-04-2020 22:12:17 14.3 C 63 %
1719 19-04-2020 22:22:17 14.2 C 62 %
1720 19-04-2020 22:32:17 14.2 C 61 %
1721 19-04-2020 22:42:17 14.2 C 60 %
1722 19-04-2020 22:52:17 14.2 C 59 %
1723 19-04-2020 23:02:18 14.2 C 59 %
1724 19-04-2020 23:12:18 14.2 C 58 %
1725 19-04-2020 23:22:18 14.2 C 58 %
Sensor: Nr:Datum:Temp:Feuchte:
G-T/H 1726 19-04-2020 23:32:17 14.2 C 58 %
1727 19-04-2020 23:42:17 14.2 C 58 %
1728 19-04-2020 23:52:17 14.1 C 59 %
1729 20-04-2020 00:02:17 14.1 C 59 %
1730 20-04-2020 00:12:17 14.1 C 59 %
1731 20-04-2020 00:22:17 14.2 C 59 %
1732 20-04-2020 00:32:18 14.1 C 59 %
1733 20-04-2020 00:42:18 14.1 C 59 %
1734 20-04-2020 00:52:18 14.1 C 59 %
1735 20-04-2020 01:02:17 14.1 C 59 %
1736 20-04-2020 01:12:17 14.1 C 59 %
1737 20-04-2020 01:22:17 14.1 C 59 %
1738 20-04-2020 01:32:17 14.1 C 59 %
1739 20-04-2020 01:42:17 14.1 C 59 %
1740 20-04-2020 01:52:17 14 C 59 %
1741 20-04-2020 02:02:18 14 C 59 %
1742 20-04-2020 02:12:18 14 C 59 %
1743 20-04-2020 02:22:17 14 C 59 %
1744 20-04-2020 02:32:18 14 C 59 %
1745 20-04-2020 02:42:18 14 C 58 %
1746 20-04-2020 02:52:17 14 C 58 %
1747 20-04-2020 03:02:17 13.9 C 59 %
1748 20-04-2020 03:12:17 13.9 C 59 %
1749 20-04-2020 03:22:17 13.9 C 59 %
1750 20-04-2020 03:32:17 13.9 C 59 %
Sensor: Nr:Datum:Temp:Feuchte:
G-T/H 1751 20-04-2020 03:42:17 13.9 C 59 %
1752 20-04-2020 03:52:17 13.9 C 59 %
1753 20-04-2020 04:02:17 13.8 C 58 %
1754 20-04-2020 04:12:17 13.8 C 58 %
1755 20-04-2020 04:22:17 13.8 C 58 %
1756 20-04-2020 04:32:18 13.8 C 58 %
1757 20-04-2020 04:42:18 13.8 C 58 %
1758 20-04-2020 04:52:17 13.8 C 58 %
1759 20-04-2020 05:02:18 13.8 C 58 %
1760 20-04-2020 05:12:18 13.7 C 59 %
1761 20-04-2020 05:22:17 13.7 C 59 %
1762 20-04-2020 05:32:17 13.7 C 59 %
1763 20-04-2020 05:42:18 13.7 C 59 %
1764 20-04-2020 05:52:17 13.7 C 59 %
1765 20-04-2020 06:02:18 13.6 C 59 %
1766 20-04-2020 06:12:18 13.6 C 59 %
1767 20-04-2020 06:22:17 13.6 C 59 %
1768 20-04-2020 06:32:17 13.6 C 59 %
1769 20-04-2020 06:42:17 13.5 C 59 %
1770 20-04-2020 06:52:17 13.6 C 59 %
1771 20-04-2020 07:02:17 13.5 C 59 %
1772 20-04-2020 07:12:17 13.5 C 59 %
1773 20-04-2020 07:22:17 13.5 C 59 %
1774 20-04-2020 07:32:17 13.5 C 59 %
1775 20-04-2020 07:42:17 13.4 C 59 %
Sensor: Nr:Datum:Temp:Feuchte:
G-T/H 1776 20-04-2020 07:52:17 13.4 C 59 %
1777 20-04-2020 08:02:18 13.4 C 59 %
1778 20-04-2020 08:12:18 13.4 C 59 %
1779 20-04-2020 08:22:17 13.4 C 59 %
1780 20-04-2020 08:32:17 13.4 C 59 %
1781 20-04-2020 08:42:18 13.3 C 59 %
1782 20-04-2020 08:52:18 13.4 C 59 %
1783 20-04-2020 09:02:17 13.3 C 59 %
1784 20-04-2020 09:12:17 13.3 C 59 %
1785 20-04-2020 09:22:17 13.3 C 59 %
1786 20-04-2020 09:32:17 13.3 C 59 %
1787 20-04-2020 09:42:17 13.3 C 59 %
1788 20-04-2020 09:52:18 13.2 C 59 %
1789 20-04-2020 10:02:18 13.2 C 59 %
1790 20-04-2020 10:12:18 13.2 C 59 %
1791 20-04-2020 10:22:17 13.2 C 59 %
1792 20-04-2020 10:32:17 13.2 C 59 %
1793 20-04-2020 10:42:18 13.2 C 59 %
1794 20-04-2020 10:52:17 13.2 C 59 %
1795 20-04-2020 11:02:18 13.1 C 59 %
1796 20-04-2020 11:12:18 13.1 C 59 %
1797 20-04-2020 11:22:17 13.1 C 59 %
1798 20-04-2020 11:32:17 13.1 C 60 %
1799 20-04-2020 11:42:18 13.1 C 60 %
1800 20-04-2020 11:52:17 13.1 C 60 %
Sensor: Nr:Datum:Temp:Feuchte:
G-T/H 1801 20-04-2020 12:02:17 13.1 C 61 %
1802 20-04-2020 12:12:17 13.1 C 61 %
1803 20-04-2020 12:22:17 13.1 C 61 %
1804 20-04-2020 12:32:17 13.1 C 61 %
1805 20-04-2020 12:42:17 13.1 C 61 %
1806 20-04-2020 12:52:17 13.1 C 61 %
1807 20-04-2020 13:02:17 13.1 C 61 %
1808 20-04-2020 13:12:17 13.1 C 62 %
1809 20-04-2020 13:22:17 13.1 C 62 %
1810 20-04-2020 13:32:17 13.2 C 61 %
1811 20-04-2020 13:42:17 13.2 C 61 %
1812 20-04-2020 13:52:17 13.2 C 61 %
1813 20-04-2020 14:02:17 13.2 C 60 %
1814 20-04-2020 14:12:17 13.2 C 60 %
1815 20-04-2020 14:22:17 13.2 C 60 %
1816 20-04-2020 14:32:18 13.2 C 60 %
1817 20-04-2020 14:42:18 13.2 C 59 %
1818 20-04-2020 14:52:18 13.3 C 59 %
1819 20-04-2020 15:02:17 13.3 C 59 %
1820 20-04-2020 15:12:17 13.3 C 59 %
1821 20-04-2020 15:22:17 13.3 C 59 %
1822 20-04-2020 15:32:17 13.3 C 60 %
1823 20-04-2020 15:42:17 13.3 C 60 %
1824 20-04-2020 15:52:17 13.3 C 60 %
1825 20-04-2020 16:02:17 13.4 C 60 %
Sensor: Nr:Datum:Temp:Feuchte:
G-T/H 1826 20-04-2020 16:12:17 13.3 C 60 %
1827 20-04-2020 16:22:17 13.4 C 60 %
1828 20-04-2020 16:32:17 13.4 C 60 %
1829 20-04-2020 16:42:17 13.4 C 60 %
1830 20-04-2020 16:52:17 13.4 C 60 %
1831 20-04-2020 17:02:17 13.4 C 60 %
1832 20-04-2020 17:12:17 13.4 C 60 %
1833 20-04-2020 17:22:17 13.4 C 60 %
1834 20-04-2020 17:32:17 13.5 C 60 %
1835 20-04-2020 17:42:17 13.5 C 60 %
1836 20-04-2020 17:52:17 13.5 C 61 %
1837 20-04-2020 18:02:18 13.5 C 61 %
1838 20-04-2020 18:12:18 13.5 C 61 %
1839 20-04-2020 18:22:18 13.5 C 61 %
1840 20-04-2020 18:32:17 13.5 C 61 %
1841 20-04-2020 18:42:18 13.6 C 61 %
1842 20-04-2020 18:52:18 13.6 C 61 %
1843 20-04-2020 19:02:17 13.6 C 61 %
1844 20-04-2020 19:12:17 13.6 C 61 %
1845 20-04-2020 19:22:17 13.7 C 61 %
1846 20-04-2020 19:32:17 13.7 C 61 %
1847 20-04-2020 19:42:17 13.7 C 61 %
1848 20-04-2020 19:52:17 13.6 C 61 %
1849 20-04-2020 20:02:17 13.7 C 61 %
1850 20-04-2020 20:12:17 13.7 C 61 %
Sensor: Nr:Datum:Temp:Feuchte:
G-T/H 1851 20-04-2020 20:22:17 13.7 C 60 %
1852 20-04-2020 20:32:17 13.7 C 60 %
1853 20-04-2020 20:42:17 13.6 C 60 %
1854 20-04-2020 20:52:17 13.6 C 60 %
1855 20-04-2020 21:02:17 13.6 C 59 %
1856 20-04-2020 21:12:17 13.6 C 60 %
1857 20-04-2020 21:22:17 13.6 C 60 %
1858 20-04-2020 21:32:17 13.6 C 60 %
1859 20-04-2020 21:42:17 13.6 C 60 %
1860 20-04-2020 21:52:17 13.6 C 60 %
1861 20-04-2020 22:02:17 13.6 C 60 %
1862 20-04-2020 22:12:17 13.6 C 60 %
1863 20-04-2020 22:22:17 13.6 C 60 %
1864 20-04-2020 22:32:17 13.6 C 60 %
1865 20-04-2020 22:42:17 13.6 C 60 %
1866 20-04-2020 22:52:18 13.6 C 60 %
1867 20-04-2020 23:02:17 13.6 C 60 %
1868 20-04-2020 23:12:17 13.6 C 60 %
1869 20-04-2020 23:22:17 13.6 C 60 %
1870 20-04-2020 23:32:18 13.6 C 60 %
1871 20-04-2020 23:42:18 13.6 C 59 %
1872 20-04-2020 23:52:17 13.6 C 59 %
1873 21-04-2020 00:02:17 13.5 C 59 %
1874 21-04-2020 00:12:17 13.6 C 59 %
1875 21-04-2020 00:22:17 13.5 C 59 %
Sensor: Nr:Datum:Temp:Feuchte:
G-T/H 1876 21-04-2020 00:32:17 13.5 C 59 %
1877 21-04-2020 00:42:17 13.5 C 59 %
1878 21-04-2020 00:52:17 13.6 C 58 %
1879 21-04-2020 01:02:18 13.5 C 58 %
1880 21-04-2020 01:12:18 13.5 C 58 %
1881 21-04-2020 01:22:18 13.6 C 58 %
1882 21-04-2020 01:32:18 13.5 C 58 %
1883 21-04-2020 01:42:18 13.5 C 58 %
1884 21-04-2020 01:52:17 13.5 C 58 %
1885 21-04-2020 02:02:17 13.5 C 58 %
1886 21-04-2020 02:12:18 13.5 C 58 %
1887 21-04-2020 02:22:17 13.5 C 58 %
1888 21-04-2020 02:32:18 13.5 C 58 %
1889 21-04-2020 02:42:18 13.5 C 58 %
1890 21-04-2020 02:52:17 13.4 C 58 %
1891 21-04-2020 03:02:17 13.4 C 58 %
1892 21-04-2020 03:12:17 13.4 C 58 %
1893 21-04-2020 03:22:18 13.4 C 58 %
1894 21-04-2020 03:32:17 13.4 C 58 %
1895 21-04-2020 03:42:17 13.4 C 58 %
1896 21-04-2020 03:52:18 13.4 C 58 %
1897 21-04-2020 04:02:18 13.4 C 58 %
1898 21-04-2020 04:12:18 13.4 C 58 %
1899 21-04-2020 04:22:17 13.4 C 58 %
1900 21-04-2020 04:32:17 13.4 C 58 %
Sensor: Nr:Datum:Temp:Feuchte:
G-T/H 1901 21-04-2020 04:42:17 13.3 C 58 %
1902 21-04-2020 04:52:17 13.3 C 58 %
1903 21-04-2020 05:02:17 13.3 C 58 %
1904 21-04-2020 05:12:17 13.3 C 58 %
1905 21-04-2020 05:22:17 13.3 C 58 %
1906 21-04-2020 05:32:18 13.3 C 58 %
1907 21-04-2020 05:42:18 13.2 C 58 %
1908 21-04-2020 05:52:17 13.2 C 58 %
1909 21-04-2020 06:02:17 13.2 C 58 %
1910 21-04-2020 06:12:17 13.2 C 58 %
1911 21-04-2020 06:22:18 13.2 C 58 %
1912 21-04-2020 06:32:18 13.2 C 58 %
1913 21-04-2020 06:42:18 13.2 C 58 %
1914 21-04-2020 06:52:17 13.2 C 58 %
1915 21-04-2020 07:02:18 13.1 C 58 %
1916 21-04-2020 07:12:18 13.1 C 58 %
1917 21-04-2020 07:22:17 13.1 C 58 %
1918 21-04-2020 07:32:17 13.1 C 58 %
1919 21-04-2020 07:42:17 13.1 C 58 %
1920 21-04-2020 07:52:17 13.1 C 58 %
1921 21-04-2020 08:02:17 13.1 C 58 %
1922 21-04-2020 08:12:17 13.1 C 58 %
1923 21-04-2020 08:22:17 13 C 58 %
1924 21-04-2020 08:32:17 13 C 58 %
1925 21-04-2020 08:42:18 13 C 58 %
Sensor: Nr:Datum:Temp:Feuchte:
G-T/H 1926 21-04-2020 08:52:17 13 C 58 %
1927 21-04-2020 09:02:17 13 C 58 %
1928 21-04-2020 09:12:17 13 C 58 %
1929 21-04-2020 09:22:17 13 C 58 %
1930 21-04-2020 09:32:17 12.9 C 59 %
1931 21-04-2020 09:42:17 12.9 C 59 %
1932 21-04-2020 09:52:17 12.9 C 59 %
1933 21-04-2020 10:02:17 12.9 C 59 %
1934 21-04-2020 10:12:17 12.9 C 59 %
1935 21-04-2020 10:22:17 12.9 C 59 %
1936 21-04-2020 10:32:17 12.9 C 59 %
1937 21-04-2020 10:42:17 12.8 C 59 %
1938 21-04-2020 10:52:17 12.8 C 59 %
1939 21-04-2020 11:02:17 12.8 C 59 %
1940 21-04-2020 11:12:17 12.8 C 59 %
1941 21-04-2020 11:22:17 12.8 C 59 %
1942 21-04-2020 11:32:18 12.8 C 59 %
1943 21-04-2020 11:42:18 12.8 C 59 %
1944 21-04-2020 11:52:18 12.8 C 59 %
1945 21-04-2020 12:02:17 12.8 C 59 %
1946 21-04-2020 12:12:18 12.8 C 60 %
1947 21-04-2020 12:22:17 12.9 C 60 %
1948 21-04-2020 12:32:17 12.9 C 60 %
1949 21-04-2020 12:42:17 12.9 C 60 %
1950 21-04-2020 12:52:17 12.9 C 60 %
Sensor: Nr:Datum:Temp:Feuchte:
G-T/H 1951 21-04-2020 13:02:17 12.9 C 61 %
1952 21-04-2020 13:12:17 12.9 C 61 %
1953 21-04-2020 13:22:17 12.9 C 61 %
1954 21-04-2020 13:32:17 12.9 C 61 %
1955 21-04-2020 13:42:17 13 C 60 %
1956 21-04-2020 13:52:17 13 C 60 %
1957 21-04-2020 14:02:17 13 C 60 %
1958 21-04-2020 14:12:17 13 C 59 %
1959 21-04-2020 14:22:17 13 C 59 %
1960 21-04-2020 14:32:17 13.1 C 59 %
1961 21-04-2020 14:42:17 13.1 C 59 %
1962 21-04-2020 14:52:17 13.1 C 59 %
1963 21-04-2020 15:02:17 13.1 C 59 %
1964 21-04-2020 15:12:17 13.1 C 59 %
1965 21-04-2020 15:22:17 13.1 C 59 %
1966 21-04-2020 15:32:18 13.2 C 59 %
1967 21-04-2020 15:42:18 13.2 C 59 %
1968 21-04-2020 15:52:17 13.2 C 59 %
1969 21-04-2020 16:02:18 13.2 C 59 %
1970 21-04-2020 16:12:18 13.2 C 59 %
1971 21-04-2020 16:22:17 13.3 C 59 %
1972 21-04-2020 16:32:17 13.3 C 59 %
1973 21-04-2020 16:42:17 13.3 C 59 %
1974 21-04-2020 16:52:17 13.3 C 59 %
1975 21-04-2020 17:02:17 13.4 C 59 %
Sensor: Nr:Datum:Temp:Feuchte:
G-T/H 1976 21-04-2020 17:12:17 13.6 C 55 %
1977 21-04-2020 17:22:18 13.5 C 55 %
1978 21-04-2020 17:32:17 13.5 C 56 %
1979 21-04-2020 17:42:17 13.5 C 57 %
1980 21-04-2020 17:52:17 13.5 C 57 %
1981 21-04-2020 18:02:18 13.5 C 58 %
1982 21-04-2020 18:12:18 13.5 C 58 %
1983 21-04-2020 18:22:17 13.5 C 58 %
1984 21-04-2020 18:32:17 13.5 C 58 %
1985 21-04-2020 18:42:17 13.6 C 59 %
1986 21-04-2020 18:52:18 13.6 C 59 %
1987 21-04-2020 19:02:17 13.6 C 59 %
1988 21-04-2020 19:12:17 13.6 C 59 %
1989 21-04-2020 19:22:17 13.6 C 59 %
1990 21-04-2020 19:32:18 13.6 C 59 %
1991 21-04-2020 19:42:18 13.6 C 60 %
1992 21-04-2020 19:52:17 13.6 C 60 %
1993 21-04-2020 20:02:17 13.6 C 60 %
1994 21-04-2020 20:12:17 13.7 C 60 %
1995 21-04-2020 20:22:17 13.6 C 60 %
1996 21-04-2020 20:32:17 13.6 C 60 %
1997 21-04-2020 20:42:17 13.7 C 60 %
1998 21-04-2020 20:52:17 13.6 C 60 %
1999 21-04-2020 21:02:18 13.6 C 60 %
2000 21-04-2020 21:12:18 13.6 C 60 %
Sensor: Nr:Datum:Temp:Feuchte:
G-T/H 2001 21-04-2020 21:22:17 13.6 C 60 %
2002 21-04-2020 21:32:17 13.6 C 60 %
2003 21-04-2020 21:42:17 13.6 C 60 %
2004 21-04-2020 21:52:18 13.6 C 60 %
2005 21-04-2020 22:02:17 13.6 C 60 %
2006 21-04-2020 22:12:17 13.7 C 60 %
2007 21-04-2020 22:22:17 13.6 C 60 %
2008 21-04-2020 22:32:17 13.7 C 60 %
2009 21-04-2020 22:42:17 13.6 C 60 %
2010 21-04-2020 22:52:18 13.6 C 60 %
2011 21-04-2020 23:02:18 13.6 C 60 %
2012 21-04-2020 23:12:18 13.6 C 60 %
2013 21-04-2020 23:22:17 13.7 C 60 %
2014 21-04-2020 23:32:18 13.6 C 60 %
2015 21-04-2020 23:42:18 13.7 C 60 %
2016 21-04-2020 23:52:18 13.6 C 60 %

Legende:
   Min
   Max


Maximal/Minimal-Werte vom 08.04.2020 - 21.04.2020

Sensor Min Max Avg
Temp
(Aussen-T/F)
-0.9 °C
14-04-2020  06:22:17
33.2 °C
12-04-2020  16:11:17
13.2 °C
Feuchte
(Aussen-T/F)
20 %
08-04-2020  12:21:17
46 %
08-04-2020  05:51:17
28.56 %
Temp
(G-T/H)
6.8 °C
16-04-2020  07:22:17
18.8 °C
17-04-2020  19:12:17
13.24 °C
Feuchte
(G-T/H)
40 %
15-04-2020  19:32:17
68 %
18-04-2020  18:42:18
59.67 %

Die Daten stammen von einer Davis Vantage Pro 2 Wetter-Station und werden unter Linux mit der Software wview2wettercgi und aufbereitet. Alle Angaben erfolgen ohne Gewähr für ihre Vollständigkeit oder Richtigkeit.
Kontakt: Rainer Krienke krienke@uni-koblenz.de . Meine Webseiten an der Uni Koblenz oder privat.
Version: $Revision: 0.78 $